
Distance (Route):
Temperature : 0°C
Humidity : 0%
Pressure : 0hPa| Receiver | Date | Latitude | Longitude | Direction | Speed | Altitude | Climb | Temperature | Humidity | Pressure | Voltage | Killtimer | Uptime | BKT | XDATA |
|---|---|---|---|---|---|---|---|---|---|---|---|---|---|---|---|
| EA3GEO | 2026-08-31 00:52:45 | 41.63486 | 3.08669 | 39° | 26km/h | 186m | -9.1m/s | 0°C | 0% | 0hPa | 0V | 00:00:00 | 00:00:00 | 00:00:00 | |
| EA3GEO | 2026-08-31 00:52:39 | 41.63458 | 3.08634 | 43° | 26km/h | 246m | -10.8m/s | 0°C | 0% | 0hPa | 0V | 00:00:00 | 00:00:00 | 00:00:00 | |
| EA3GEO | 2026-08-31 00:52:34 | 41.63438 | 3.08603 | 51° | 18km/h | 298m | -9.9m/s | 0°C | 0% | 0hPa | 0V | 00:00:00 | 00:00:00 | 00:00:00 | |
| EA3GEO | 2026-08-31 00:52:29 | 41.63425 | 3.08577 | 55° | 22km/h | 349m | -10.7m/s | 0°C | 0% | 0hPa | 0V | 00:00:00 | 00:00:00 | 00:00:00 | |
| EA3GEO | 2026-08-31 00:52:23 | 41.63417 | 3.08536 | 77° | 24km/h | 407m | -11.2m/s | 0°C | 0% | 0hPa | 0V | 00:00:00 | 00:00:00 | 00:00:00 | |
| EA3GEO | 2026-08-31 00:52:17 | 41.63414 | 3.08493 | 85° | 20km/h | 466m | -11.0m/s | 0°C | 0% | 0hPa | 0V | 00:00:00 | 00:00:00 | 00:00:00 | |
| EA3GEO | 2026-08-31 00:52:12 | 41.63414 | 3.08468 | 101° | 15km/h | 518m | -8.2m/s | 0°C | 0% | 0hPa | 0V | 00:00:00 | 00:00:00 | 00:00:00 | |
| EA3GEO | 2026-08-31 00:52:06 | 41.63419 | 3.08445 | 95° | 5km/h | 575m | -11.6m/s | 0°C | 0% | 0hPa | 0V | 00:00:00 | 00:00:00 | 00:00:00 | |
| EA3GEO | 2026-08-31 00:52:00 | 41.63428 | 3.08434 | 137° | 13km/h | 636m | -11.8m/s | 0°C | 0% | 0hPa | 0V | 00:00:00 | 00:00:00 | 00:00:00 | |
| EA3GEO | 2026-08-31 00:51:54 | 41.63435 | 3.08420 | 130° | 11km/h | 700m | -9.7m/s | 0°C | 0% | 0hPa | 0V | 00:00:00 | 00:00:00 | 00:00:00 | |
| EA3GEO | 2026-08-31 00:51:49 | 41.63445 | 3.08412 | 184° | 7km/h | 751m | -9.1m/s | 0°C | 0% | 0hPa | 0V | 00:00:00 | 00:00:00 | 00:00:00 | |
| EA3GEO | 2026-08-31 00:51:43 | 41.63461 | 3.08416 | 183° | 15km/h | 816m | -9.0m/s | 0°C | 0% | 0hPa | 0V | 00:00:00 | 00:00:00 | 00:00:00 | |
| EA3GEO | 2026-08-31 00:51:38 | 41.63482 | 3.08420 | 197° | 18km/h | 865m | -11.5m/s | 0°C | 0% | 0hPa | 0V | 00:00:00 | 00:00:00 | 00:00:00 | |
| EA3GEO | 2026-08-31 00:51:32 | 41.63508 | 3.08429 | 186° | 18km/h | 931m | -9.5m/s | 0°C | 0% | 0hPa | 0V | 00:00:00 | 00:00:00 | 00:00:00 | |
| EA3GEO | 2026-08-31 00:51:26 | 41.63536 | 3.08434 | 194° | 18km/h | 991m | -9.7m/s | 0°C | 0% | 0hPa | 0V | 00:00:00 | 00:00:00 | 00:00:00 | |
| EA3GEO | 2026-08-31 00:51:21 | 41.63560 | 3.08438 | 192° | 18km/h | 1045m | -10.5m/s | 0°C | 0% | 0hPa | 0V | 00:00:00 | 00:00:00 | 00:00:00 | |
| EA3GEO | 2026-08-31 00:51:17 | 41.63584 | 3.08444 | 188° | 20km/h | 1098m | -12.7m/s | 0°C | 0% | 0hPa | 0V | 00:00:00 | 00:00:00 | 00:00:00 | |
| EA3GEO | 2026-08-31 00:51:05 | 41.63629 | 3.08459 | 188° | 18km/h | 1214m | -9.9m/s | 0°C | 0% | 0hPa | 0V | 00:00:00 | 00:00:00 | 00:00:00 | |
| EA3GEO | 2026-08-31 00:50:59 | 41.63647 | 3.08463 | 186° | 11km/h | 1276m | -11.8m/s | 0°C | 0% | 0hPa | 0V | 00:00:00 | 00:00:00 | 00:00:00 | |
| EA3GEO | 2026-08-31 00:50:53 | 41.63663 | 3.08464 | 177° | 9km/h | 1340m | -11.2m/s | 0°C | 0% | 0hPa | 0V | 00:00:00 | 00:00:00 | 00:00:00 | |
| EA3GEO | 2026-08-31 00:50:47 | 41.63679 | 3.08459 | 142° | 11km/h | 1407m | -11.4m/s | 0°C | 0% | 0hPa | 0V | 00:00:00 | 00:00:00 | 00:00:00 | |
| EA3GEO | 2026-08-31 00:50:41 | 41.63690 | 3.08445 | 104° | 7km/h | 1472m | -10.2m/s | 0°C | 0% | 0hPa | 0V | 00:00:00 | 00:00:00 | 00:00:00 | |
| EA3GEO | 2026-08-31 00:50:35 | 41.63693 | 3.08426 | 98° | 7km/h | 1537m | -11.0m/s | 0°C | 0% | 0hPa | 0V | 00:00:00 | 00:00:00 | 00:00:00 | |
| EA3GEO | 2026-08-31 00:50:29 | 41.63691 | 3.08404 | 94° | 9km/h | 1598m | -9.2m/s | 0°C | 0% | 0hPa | 0V | 00:00:00 | 00:00:00 | 00:00:00 | |
| EA3GEO | 2026-08-31 00:50:23 | 41.63690 | 3.08385 | 90° | 9km/h | 1655m | -10.9m/s | 0°C | 0% | 0hPa | 0V | 00:00:00 | 00:00:00 | 00:00:00 | |
| EA3GEO | 2026-08-31 00:50:17 | 41.63691 | 3.08361 | 95° | 13km/h | 1718m | -11.7m/s | 0°C | 0% | 0hPa | 0V | 00:00:00 | 00:00:00 | 00:00:00 | |
| EA3GEO | 2026-08-31 00:50:11 | 41.63688 | 3.08332 | 89° | 15km/h | 1779m | -10.3m/s | 0°C | 0% | 0hPa | 0V | 00:00:00 | 00:00:00 | 00:00:00 | |
| EA3GEO | 2026-08-31 00:50:06 | 41.63684 | 3.08312 | 71° | 13km/h | 1833m | -12.5m/s | 0°C | 0% | 0hPa | 0V | 00:00:00 | 00:00:00 | 00:00:00 | |
| EA3GEO | 2026-08-31 00:50:00 | 41.63680 | 3.08285 | 73° | 13km/h | 1895m | -11.0m/s | 0°C | 0% | 0hPa | 0V | 00:00:00 | 00:00:00 | 00:00:00 | |
| EA3GEO | 2026-08-31 00:49:54 | 41.63679 | 3.08258 | 85° | 15km/h | 1958m | -8.9m/s | 0°C | 0% | 0hPa | 0V | 00:00:00 | 00:00:00 | 00:00:00 | |
| EA3GEO | 2026-08-31 00:49:48 | 41.63677 | 3.08230 | 95° | 16km/h | 2019m | -11.1m/s | 0°C | 0% | 0hPa | 0V | 00:00:00 | 00:00:00 | 00:00:00 | |
| EA3GEO | 2026-08-31 00:49:42 | 41.63675 | 3.08196 | 84° | 16km/h | 2084m | -10.1m/s | 0°C | 0% | 0hPa | 0V | 00:00:00 | 00:00:00 | 00:00:00 | |
| EA3GEO | 2026-08-31 00:49:36 | 41.63667 | 3.08164 | 74° | 15km/h | 2146m | -12.1m/s | 0°C | 0% | 0hPa | 0V | 00:00:00 | 00:00:00 | 00:00:00 | |
| EA3GEO | 2026-08-31 00:49:30 | 41.63662 | 3.08138 | 69° | 11km/h | 2209m | -10.3m/s | 0°C | 0% | 0hPa | 0V | 00:00:00 | 00:00:00 | 00:00:00 | |
| EA3GEO | 2026-08-31 00:49:26 | 41.63660 | 3.08123 | 95° | 7km/h | 2265m | -10.6m/s | 0°C | 0% | 0hPa | 0V | 00:00:00 | 00:00:00 | 00:00:00 | |
| EA3GEO | 2026-08-31 00:49:20 | 41.63654 | 3.08108 | 66° | 13km/h | 2318m | -10.4m/s | 0°C | 0% | 0hPa | 0V | 00:00:00 | 00:00:00 | 00:00:00 | |
| EA3GEO | 2026-08-31 00:49:15 | 41.63648 | 3.08090 | 75° | 11km/h | 2373m | -11.7m/s | 0°C | 0% | 0hPa | 0V | 00:00:00 | 00:00:00 | 00:00:00 | |
| EA3GEO | 2026-08-31 00:49:09 | 41.63645 | 3.08062 | 80° | 16km/h | 2438m | -11.1m/s | 0°C | 0% | 0hPa | 0V | 00:00:00 | 00:00:00 | 00:00:00 | |
| EA3GEO | 2026-08-31 00:48:53 | 41.63640 | 3.07964 | 99° | 20km/h | 2611m | -9.8m/s | 0°C | 0% | 0hPa | 0V | 00:00:00 | 00:00:00 | 00:00:00 | |
| EA3GEO | 2026-08-31 00:48:44 | 41.63641 | 3.07898 | 96° | 24km/h | 2711m | -11.4m/s | 0°C | 0% | 0hPa | 0V | 00:00:00 | 00:00:00 | 00:00:00 | |
| EA3GEO | 2026-08-31 00:48:38 | 41.63644 | 3.07853 | 96° | 22km/h | 2776m | -10.6m/s | 0°C | 0% | 0hPa | 0V | 00:00:00 | 00:00:00 | 00:00:00 | |
| EA3GEO | 2026-08-31 00:48:33 | 41.63646 | 3.07815 | 88° | 24km/h | 2828m | -10.6m/s | 0°C | 0% | 0hPa | 0V | 00:00:00 | 00:00:00 | 00:00:00 | |
| EA3GEO | 2026-08-31 00:48:27 | 41.63647 | 3.07769 | 87° | 26km/h | 2893m | -10.8m/s | 0°C | 0% | 0hPa | 0V | 00:00:00 | 00:00:00 | 00:00:00 | |
| EA3GEO | 2026-08-31 00:48:21 | 41.63650 | 3.07716 | 92° | 27km/h | 2956m | -11.6m/s | 0°C | 0% | 0hPa | 0V | 00:00:00 | 00:00:00 | 00:00:00 | |
| EA3GEO | 2026-08-31 00:48:16 | 41.63651 | 3.07668 | 87° | 27km/h | 3008m | -12.2m/s | 0°C | 0% | 0hPa | 0V | 00:00:00 | 00:00:00 | 00:00:00 | |
| EA3GEO | 2026-08-31 00:48:10 | 41.63652 | 3.07612 | 90° | 29km/h | 3073m | -13.9m/s | 0°C | 0% | 0hPa | 0V | 00:00:00 | 00:00:00 | 00:00:00 | |
| EA3GEO | 2026-08-31 00:48:05 | 41.63653 | 3.07562 | 93° | 31km/h | 3128m | -10.1m/s | 0°C | 0% | 0hPa | 0V | 00:00:00 | 00:00:00 | 00:00:00 | |
| EA3GEO | 2026-08-31 00:48:00 | 41.63654 | 3.07511 | 95° | 31km/h | 3181m | -11.4m/s | 0°C | 0% | 0hPa | 0V | 00:00:00 | 00:00:00 | 00:00:00 | |
| EA3GEO | 2026-08-31 00:47:55 | 41.63656 | 3.07458 | 99° | 31km/h | 3235m | -10.7m/s | 0°C | 0% | 0hPa | 0V | 00:00:00 | 00:00:00 | 00:00:00 | |
| EA3GEO | 2026-08-31 00:47:49 | 41.63658 | 3.07392 | 98° | 35km/h | 3302m | -11.0m/s | 0°C | 0% | 0hPa | 0V | 00:00:00 | 00:00:00 | 00:00:00 | |
| EA3GEO | 2026-08-31 00:47:43 | 41.63662 | 3.07320 | 86° | 37km/h | 3367m | -12.3m/s | 0°C | 0% | 0hPa | 0V | 00:00:00 | 00:00:00 | 00:00:00 | |
| EA3GEO | 2026-08-31 00:47:37 | 41.63659 | 3.07244 | 91° | 40km/h | 3435m | -11.5m/s | 0°C | 0% | 0hPa | 0V | 00:00:00 | 00:00:00 | 00:00:00 | |
| EA3GEO | 2026-08-31 00:47:32 | 41.63656 | 3.07176 | 89° | 42km/h | 3488m | -12.8m/s | 0°C | 0% | 0hPa | 0V | 00:00:00 | 00:00:00 | 00:00:00 | |
| EA3GEO | 2026-08-31 00:47:26 | 41.63651 | 3.07086 | 85° | 49km/h | 3558m | -9.6m/s | 0°C | 0% | 0hPa | 0V | 00:00:00 | 00:00:00 | 00:00:00 | |
| EA3GEO | 2026-08-31 00:47:14 | 41.63631 | 3.06886 | 85° | 53km/h | 3687m | -11.1m/s | 0°C | 0% | 0hPa | 0V | 00:00:00 | 00:00:00 | 00:00:00 | |
| EA3GEO | 2026-08-31 00:47:09 | 41.63626 | 3.06784 | 89° | 51km/h | 3753m | -11.1m/s | 0°C | 0% | 0hPa | 0V | 00:00:00 | 00:00:00 | 00:00:00 | |
| EA3GEO | 2026-08-31 00:47:02 | 41.63626 | 3.06682 | 95° | 51km/h | 3820m | -11.5m/s | 0°C | 0% | 0hPa | 0V | 00:00:00 | 00:00:00 | 00:00:00 | |
| EA3GEO | 2026-08-31 00:46:56 | 41.63630 | 3.06575 | 97° | 53km/h | 3886m | -11.3m/s | 0°C | 0% | 0hPa | 0V | 00:00:00 | 00:00:00 | 00:00:00 | |
| EA3GEO | 2026-08-31 00:46:51 | 41.63634 | 3.06483 | 90° | 53km/h | 3938m | -10.8m/s | 0°C | 0% | 0hPa | 0V | 00:00:00 | 00:00:00 | 00:00:00 | |
| EA3GEO | 2026-08-31 00:46:45 | 41.63633 | 3.06377 | 91° | 55km/h | 4004m | -9.2m/s | 0°C | 0% | 0hPa | 0V | 00:00:00 | 00:00:00 | 00:00:00 | |
| EA3GEO | 2026-08-31 00:46:39 | 41.63632 | 3.06273 | 87° | 49km/h | 4068m | -10.3m/s | 0°C | 0% | 0hPa | 0V | 00:00:00 | 00:00:00 | 00:00:00 | |
| EA3GEO | 2026-08-31 00:46:34 | 41.63626 | 3.06186 | 85° | 51km/h | 4125m | -10.8m/s | 0°C | 0% | 0hPa | 0V | 00:00:00 | 00:00:00 | 00:00:00 | |
| EA3GEO | 2026-08-31 00:46:29 | 41.63619 | 3.06084 | 86° | 49km/h | 4197m | -10.5m/s | 0°C | 0% | 0hPa | 0V | 00:00:00 | 00:00:00 | 00:00:00 | |
| EA3GEO | 2026-08-31 00:46:23 | 41.63614 | 3.06002 | 89° | 49km/h | 4249m | -10.0m/s | 0°C | 0% | 0hPa | 0V | 00:00:00 | 00:00:00 | 00:00:00 | |
| EA3GEO | 2026-08-31 00:46:17 | 41.63611 | 3.05900 | 87° | 51km/h | 4317m | -9.7m/s | 0°C | 0% | 0hPa | 0V | 00:00:00 | 00:00:00 | 00:00:00 | |
| EA3GEO | 2026-08-31 00:46:12 | 41.63603 | 3.05816 | 81° | 47km/h | 4373m | -10.6m/s | 0°C | 0% | 0hPa | 0V | 00:00:00 | 00:00:00 | 00:00:00 | |
| EA3GEO | 2026-08-31 00:46:06 | 41.63593 | 3.05725 | 82° | 44km/h | 4441m | -11.3m/s | 0°C | 0% | 0hPa | 0V | 00:00:00 | 00:00:00 | 00:00:00 | |
| EA3GEO | 2026-08-31 00:46:01 | 41.63584 | 3.05648 | 80° | 46km/h | 4494m | -10.9m/s | 0°C | 0% | 0hPa | 0V | 00:00:00 | 00:00:00 | 00:00:00 | |
| EA3GEO | 2026-08-31 00:45:55 | 41.63569 | 3.05548 | 79° | 53km/h | 4560m | -10.5m/s | 0°C | 0% | 0hPa | 0V | 00:00:00 | 00:00:00 | 00:00:00 | |
| EA3GEO | 2026-08-31 00:45:50 | 41.63552 | 3.05460 | 78° | 51km/h | 4611m | -9.9m/s | 0°C | 0% | 0hPa | 0V | 00:00:00 | 00:00:00 | 00:00:00 | |
| EA3GEO | 2026-08-31 00:45:44 | 41.63531 | 3.05355 | 78° | 55km/h | 4673m | -11.1m/s | 0°C | 0% | 0hPa | 0V | 00:00:00 | 00:00:00 | 00:00:00 | |
| EA3GEO | 2026-08-31 00:45:39 | 41.63510 | 3.05265 | 76° | 57km/h | 4728m | -10.3m/s | 0°C | 0% | 0hPa | 0V | 00:00:00 | 00:00:00 | 00:00:00 | |
| EA3GEO | 2026-08-31 00:45:33 | 41.63482 | 3.05157 | 73° | 58km/h | 4793m | -11.4m/s | 0°C | 0% | 0hPa | 0V | 00:00:00 | 00:00:00 | 00:00:00 | |
| EA3GEO | 2026-08-31 00:45:28 | 41.63456 | 3.05064 | 69° | 62km/h | 4849m | -12.0m/s | 0°C | 0% | 0hPa | 0V | 00:00:00 | 00:00:00 | 00:00:00 | |
| EA3GEO | 2026-08-31 00:45:22 | 41.63419 | 3.04949 | 61° | 60km/h | 4913m | -12.6m/s | 0°C | 0% | 0hPa | 0V | 00:00:00 | 00:00:00 | 00:00:00 | |
| EA3GEO | 2026-08-31 00:45:17 | 41.63384 | 3.04857 | 65° | 60km/h | 4968m | -14.0m/s | 0°C | 0% | 0hPa | 0V | 00:00:00 | 00:00:00 | 00:00:00 | |
| EA3GEO | 2026-08-31 00:45:11 | 41.63345 | 3.04747 | 62° | 60km/h | 5035m | -10.2m/s | 0°C | 0% | 0hPa | 0V | 00:00:00 | 00:00:00 | 00:00:00 | |
| EA3GEO | 2026-08-31 00:45:05 | 41.63303 | 3.04638 | 65° | 62km/h | 5096m | -9.8m/s | 0°C | 0% | 0hPa | 0V | 00:00:00 | 00:00:00 | 00:00:00 | |
| EA3GEO | 2026-08-31 00:44:59 | 41.63261 | 3.04527 | 64° | 64km/h | 5159m | -12.6m/s | 0°C | 0% | 0hPa | 0V | 00:00:00 | 00:00:00 | 00:00:00 | |
| EA3GEO | 2026-08-31 00:44:53 | 41.63219 | 3.04418 | 64° | 62km/h | 5227m | -11.5m/s | 0°C | 0% | 0hPa | 0V | 00:00:00 | 00:00:00 | 00:00:00 | |
| EA3GEO | 2026-08-31 00:39:45 | 41.61834 | 2.97116 | 74° | 88km/h | 8425m | -11.8m/s | 0°C | 0% | 0hPa | 0V | 00:00:00 | 00:00:00 | 00:00:00 | |
| EA3GEO | 2026-08-31 00:39:39 | 41.61795 | 2.96943 | 74° | 91km/h | 8494m | -9.9m/s | 0°C | 0% | 0hPa | 0V | 00:00:00 | 00:00:00 | 00:00:00 | |
| EA3GEO | 2026-08-31 00:39:30 | 41.61730 | 2.96699 | 70° | 84km/h | 8584m | -9.1m/s | 0°C | 0% | 0hPa | 0V | 00:00:00 | 00:00:00 | 00:00:00 | |
| EA3GEO | 2026-08-31 00:39:24 | 41.61687 | 2.96541 | 67° | 82km/h | 8650m | -11.2m/s | 0°C | 0% | 0hPa | 0V | 00:00:00 | 00:00:00 | 00:00:00 | |
| EA3GEO | 2026-08-31 00:39:18 | 41.61644 | 2.96384 | 74° | 88km/h | 8713m | -10.0m/s | 0°C | 0% | 0hPa | 0V | 00:00:00 | 00:00:00 | 00:00:00 | |
| EA3GEO | 2026-08-31 00:39:09 | 41.61587 | 2.96144 | 77° | 91km/h | 8814m | -8.1m/s | 0°C | 0% | 0hPa | 0V | 00:00:00 | 00:00:00 | 00:00:00 | |
| EA3GEO | 2026-08-31 00:39:03 | 41.61550 | 2.95983 | 72° | 82km/h | 8880m | -9.8m/s | 0°C | 0% | 0hPa | 0V | 00:00:00 | 00:00:00 | 00:00:00 | |
| EA3GEO | 2026-08-31 00:38:56 | 41.61510 | 2.95795 | 74° | 84km/h | 8951m | -11.4m/s | 0°C | 0% | 0hPa | 0V | 00:00:00 | 00:00:00 | 00:00:00 | |
| EA3GEO | 2026-08-31 00:38:51 | 41.61481 | 2.95662 | 75° | 80km/h | 9008m | -11.2m/s | 0°C | 0% | 0hPa | 0V | 00:00:00 | 00:00:00 | 00:00:00 | |
| EA3GEO | 2026-08-31 00:38:46 | 41.61447 | 2.95503 | 76° | 84km/h | 9083m | -12.1m/s | 0°C | 0% | 0hPa | 0V | 00:00:00 | 00:00:00 | 00:00:00 | |
| EA3GEO | 2026-08-31 00:38:40 | 41.61421 | 2.95366 | 75° | 80km/h | 9138m | -10.6m/s | 0°C | 0% | 0hPa | 0V | 00:00:00 | 00:00:00 | 00:00:00 | |
| EA3GEO | 2026-08-31 00:38:35 | 41.61395 | 2.95230 | 78° | 82km/h | 9190m | -10.7m/s | 0°C | 0% | 0hPa | 0V | 00:00:00 | 00:00:00 | 00:00:00 | |
| EA3GEO | 2026-08-31 00:38:29 | 41.61365 | 2.95066 | 80° | 82km/h | 9256m | -12.0m/s | 0°C | 0% | 0hPa | 0V | 00:00:00 | 00:00:00 | 00:00:00 | |
| EA3GEO | 2026-08-31 00:38:24 | 41.61345 | 2.94925 | 78° | 88km/h | 9311m | -8.6m/s | 0°C | 0% | 0hPa | 0V | 00:00:00 | 00:00:00 | 00:00:00 | |
| EA3GEO | 2026-08-31 00:38:18 | 41.61320 | 2.94753 | 83° | 88km/h | 9378m | -9.2m/s | 0°C | 0% | 0hPa | 0V | 00:00:00 | 00:00:00 | 00:00:00 | |
| EA3GEO | 2026-08-31 00:38:07 | 41.61283 | 2.94426 | 83° | 89km/h | 9500m | -11.0m/s | 0°C | 0% | 0hPa | 0V | 00:00:00 | 00:00:00 | 00:00:00 | |
| EA3GEO | 2026-08-31 00:38:02 | 41.61267 | 2.94276 | 83° | 93km/h | 9561m | -9.9m/s | 0°C | 0% | 0hPa | 0V | 00:00:00 | 00:00:00 | 00:00:00 | |
| EA3GEO | 2026-08-31 00:37:56 | 41.61245 | 2.94096 | 81° | 88km/h | 9632m | -13.0m/s | 0°C | 0% | 0hPa | 0V | 00:00:00 | 00:00:00 | 00:00:00 | |
| EA3GEO | 2026-08-31 00:37:51 | 41.61225 | 2.93947 | 80° | 89km/h | 9686m | -9.9m/s | 0°C | 0% | 0hPa | 0V | 00:00:00 | 00:00:00 | 00:00:00 | |
| EA3GEO | 2026-08-31 00:37:46 | 41.61204 | 2.93797 | 82° | 93km/h | 9743m | -10.4m/s | 0°C | 0% | 0hPa | 0V | 00:00:00 | 00:00:00 | 00:00:00 | |
| EA3GEO | 2026-08-31 00:37:41 | 41.61181 | 2.93647 | 77° | 93km/h | 9801m | -9.9m/s | 0°C | 0% | 0hPa | 0V | 00:00:00 | 00:00:00 | 00:00:00 | |
| EA3GEO | 2026-08-31 00:37:35 | 41.61148 | 2.93465 | 76° | 93km/h | 9880m | -13.8m/s | 0°C | 0% | 0hPa | 0V | 00:00:00 | 00:00:00 | 00:00:00 | |
| EA3GEO | 2026-08-31 00:37:30 | 41.61118 | 2.93315 | 76° | 91km/h | 9943m | -11.8m/s | 0°C | 0% | 0hPa | 0V | 00:00:00 | 00:00:00 | 00:00:00 | |
| EA3GEO | 2026-08-31 00:37:24 | 41.61082 | 2.93141 | 72° | 89km/h | 10010m | -11.4m/s | 0°C | 0% | 0hPa | 0V | 00:00:00 | 00:00:00 | 00:00:00 | |
| EA3GEO | 2026-08-31 00:37:18 | 41.61043 | 2.92968 | 76° | 88km/h | 10085m | -13.7m/s | 0°C | 0% | 0hPa | 0V | 00:00:00 | 00:00:00 | 00:00:00 | |
| EA3GEO | 2026-08-31 00:37:14 | 41.61006 | 2.92796 | 76° | 88km/h | 10155m | -11.2m/s | 0°C | 0% | 0hPa | 0V | 00:00:00 | 00:00:00 | 00:00:00 | |
| EA3GEO | 2026-08-31 00:37:07 | 41.60975 | 2.92656 | 77° | 86km/h | 10220m | -15.2m/s | 0°C | 0% | 0hPa | 0V | 00:00:00 | 00:00:00 | 00:00:00 | |
| EA3GEO | 2026-08-31 00:37:01 | 41.60938 | 2.92485 | 73° | 88km/h | 10300m | -12.0m/s | 0°C | 0% | 0hPa | 0V | 00:00:00 | 00:00:00 | 00:00:00 | |
| EA3GEO | 2026-08-31 00:36:55 | 41.60900 | 2.92318 | 74° | 84km/h | 10375m | -12.1m/s | 0°C | 0% | 0hPa | 0V | 00:00:00 | 00:00:00 | 00:00:00 | |
| EA3GEO | 2026-08-31 00:36:49 | 41.60859 | 2.92152 | 69° | 84km/h | 10448m | -15.1m/s | 0°C | 0% | 0hPa | 0V | 00:00:00 | 00:00:00 | 00:00:00 | |
| EA3GEO | 2026-08-31 00:36:44 | 41.60821 | 2.92016 | 70° | 80km/h | 10514m | -13.4m/s | 0°C | 0% | 0hPa | 0V | 00:00:00 | 00:00:00 | 00:00:00 | |
| EA3GEO | 2026-08-31 00:36:38 | 41.60773 | 2.91855 | 70° | 88km/h | 10590m | -14.9m/s | 0°C | 0% | 0hPa | 0V | 00:00:00 | 00:00:00 | 00:00:00 | |
| EA3GEO | 2026-08-31 00:36:33 | 41.60732 | 2.91715 | 67° | 91km/h | 10662m | -12.1m/s | 0°C | 0% | 0hPa | 0V | 00:00:00 | 00:00:00 | 00:00:00 | |
| EA3GEO | 2026-08-31 00:36:27 | 41.60678 | 2.91547 | 69° | 93km/h | 10740m | -11.9m/s | 0°C | 0% | 0hPa | 0V | 00:00:00 | 00:00:00 | 00:00:00 | |
| EA3GEO | 2026-08-31 00:36:22 | 41.60632 | 2.91404 | 68° | 95km/h | 10801m | -13.7m/s | 0°C | 0% | 0hPa | 0V | 00:00:00 | 00:00:00 | 00:00:00 | |
| EA3GEO | 2026-08-31 00:36:16 | 41.60577 | 2.91229 | 69° | 91km/h | 10875m | -9.4m/s | 0°C | 0% | 0hPa | 0V | 00:00:00 | 00:00:00 | 00:00:00 | |
| EA3GEO | 2026-08-31 00:36:11 | 41.60534 | 2.91083 | 70° | 93km/h | 10931m | -11.7m/s | 0°C | 0% | 0hPa | 0V | 00:00:00 | 00:00:00 | 00:00:00 | |
| EA3GEO | 2026-08-31 00:36:06 | 41.60492 | 2.90933 | 72° | 97km/h | 10996m | -10.4m/s | 0°C | 0% | 0hPa | 0V | 00:00:00 | 00:00:00 | 00:00:00 | |
| EA3GEO | 2026-08-31 00:36:00 | 41.60441 | 2.90748 | 73° | 99km/h | 11070m | -13.9m/s | 0°C | 0% | 0hPa | 0V | 00:00:00 | 00:00:00 | 00:00:00 | |
| EA3GEO | 2026-08-31 00:35:55 | 41.60403 | 2.90586 | 74° | 97km/h | 11133m | -14.5m/s | 0°C | 0% | 0hPa | 0V | 00:00:00 | 00:00:00 | 00:00:00 | |
| EA3GEO | 2026-08-31 00:35:49 | 41.60354 | 2.90393 | 73° | 102km/h | 11213m | -12.1m/s | 0°C | 0% | 0hPa | 0V | 00:00:00 | 00:00:00 | 00:00:00 | |
| EA3GEO | 2026-08-31 00:35:44 | 41.60315 | 2.90227 | 73° | 100km/h | 11277m | -11.9m/s | 0°C | 0% | 0hPa | 0V | 00:00:00 | 00:00:00 | 00:00:00 | |
| EA3GEO | 2026-08-31 00:35:38 | 41.60263 | 2.90028 | 73° | 102km/h | 11357m | -12.3m/s | 0°C | 0% | 0hPa | 0V | 00:00:00 | 00:00:00 | 00:00:00 | |
| EA3GEO | 2026-08-31 00:35:32 | 41.60212 | 2.89829 | 71° | 100km/h | 11425m | -11.6m/s | 0°C | 0% | 0hPa | 0V | 00:00:00 | 00:00:00 | 00:00:00 | |
| EA3GEO | 2026-08-31 00:35:26 | 41.60163 | 2.89632 | 74° | 99km/h | 11502m | -13.6m/s | 0°C | 0% | 0hPa | 0V | 00:00:00 | 00:00:00 | 00:00:00 | |
| EA3GEO | 2026-08-31 00:35:20 | 41.60117 | 2.89439 | 72° | 99km/h | 11579m | -13.6m/s | 0°C | 0% | 0hPa | 0V | 00:00:00 | 00:00:00 | 00:00:00 | |
| EA3GEO | 2026-08-31 00:35:14 | 41.60065 | 2.89248 | 71° | 99km/h | 11657m | -14.1m/s | 0°C | 0% | 0hPa | 0V | 00:00:00 | 00:00:00 | 00:00:00 | |
| EA3GEO | 2026-08-31 00:35:09 | 41.60021 | 2.89091 | 71° | 100km/h | 11738m | -12.1m/s | 0°C | 0% | 0hPa | 0V | 00:00:00 | 00:00:00 | 00:00:00 | |
| EA3GEO | 2026-08-31 00:35:04 | 41.59977 | 2.88932 | 71° | 102km/h | 11806m | -14.5m/s | 0°C | 0% | 0hPa | 0V | 00:00:00 | 00:00:00 | 00:00:00 | |
| EA3GEO | 2026-08-31 00:34:59 | 41.59935 | 2.88770 | 71° | 100km/h | 11885m | -14.5m/s | 0°C | 0% | 0hPa | 0V | 00:00:00 | 00:00:00 | 00:00:00 | |
| EA3GEO | 2026-08-31 00:34:53 | 41.59887 | 2.88577 | 71° | 102km/h | 11973m | -16.3m/s | 0°C | 0% | 0hPa | 0V | 00:00:00 | 00:00:00 | 00:00:00 | |
| EA3GEO | 2026-08-31 00:34:48 | 41.59847 | 2.88414 | 73° | 102km/h | 12047m | -14.2m/s | 0°C | 0% | 0hPa | 0V | 00:00:00 | 00:00:00 | 00:00:00 | |
| EA3GEO | 2026-08-31 00:34:39 | 41.59776 | 2.88123 | 73° | 102km/h | 12188m | -19.7m/s | 0°C | 0% | 0hPa | 0V | 00:00:00 | 00:00:00 | 00:00:00 | |
| EA3GEO | 2026-08-31 00:34:33 | 41.59728 | 2.87924 | 74° | 100km/h | 12296m | -17.8m/s | 0°C | 0% | 0hPa | 0V | 00:00:00 | 00:00:00 | 00:00:00 | |
| EA3GEO | 2026-08-31 00:34:27 | 41.59680 | 2.87732 | 69° | 99km/h | 12399m | -17.4m/s | 0°C | 0% | 0hPa | 0V | 00:00:00 | 00:00:00 | 00:00:00 | |
| EA3GEO | 2026-08-31 00:34:22 | 41.59632 | 2.87578 | 68° | 102km/h | 12488m | -18.1m/s | 0°C | 0% | 0hPa | 0V | 00:00:00 | 00:00:00 | 00:00:00 | |
| EA3GEO | 2026-08-31 00:34:16 | 41.59569 | 2.87387 | 69° | 102km/h | 12599m | -18.1m/s | 0°C | 0% | 0hPa | 0V | 00:00:00 | 00:00:00 | 00:00:00 | |
| EA3GEO | 2026-08-31 00:34:11 | 41.59519 | 2.87229 | 70° | 106km/h | 12687m | -15.8m/s | 0°C | 0% | 0hPa | 0V | 00:00:00 | 00:00:00 | 00:00:00 | |
| EA3GEO | 2026-08-31 00:34:05 | 41.59460 | 2.87033 | 70° | 104km/h | 12792m | -17.5m/s | 0°C | 0% | 0hPa | 0V | 00:00:00 | 00:00:00 | 00:00:00 | |
| EA3GEO | 2026-08-31 00:33:59 | 41.59402 | 2.86835 | 71° | 102km/h | 12897m | -17.8m/s | 0°C | 0% | 0hPa | 0V | 00:00:00 | 00:00:00 | 00:00:00 | |
| EA3GEO | 2026-08-31 00:33:53 | 41.59350 | 2.86638 | 71° | 104km/h | 13004m | -18.2m/s | 0°C | 0% | 0hPa | 0V | 00:00:00 | 00:00:00 | 00:00:00 | |
| EA3GEO | 2026-08-31 00:33:36 | 41.59212 | 2.86070 | 77° | 102km/h | 13307m | -17.9m/s | 0°C | 0% | 0hPa | 0V | 00:00:00 | 00:00:00 | 00:00:00 | |
| EA3GEO | 2026-08-31 00:33:30 | 41.59169 | 2.85869 | 76° | 99km/h | 13415m | -19.5m/s | 0°C | 0% | 0hPa | 0V | 00:00:00 | 00:00:00 | 00:00:00 | |
| EA3GEO | 2026-08-31 00:33:23 | 41.59119 | 2.85645 | 71° | 97km/h | 13543m | -18.0m/s | 0°C | 0% | 0hPa | 0V | 00:00:00 | 00:00:00 | 00:00:00 | |
| EA3GEO | 2026-08-31 00:33:13 | 41.59030 | 2.85357 | 69° | 89km/h | 13728m | -17.4m/s | 0°C | 0% | 0hPa | 0V | 00:00:00 | 00:00:00 | 00:00:00 | |
| EA3GEO | 2026-08-31 00:33:07 | 41.58980 | 2.85199 | 69° | 80km/h | 13836m | -18.7m/s | 0°C | 0% | 0hPa | 0V | 00:00:00 | 00:00:00 | 00:00:00 | |
| EA3GEO | 2026-08-31 00:33:02 | 41.58939 | 2.85078 | 67° | 75km/h | 13931m | -18.3m/s | 0°C | 0% | 0hPa | 0V | 00:00:00 | 00:00:00 | 00:00:00 | |
| EA3GEO | 2026-08-31 00:32:57 | 41.58898 | 2.84964 | 68° | 71km/h | 14026m | -19.4m/s | 0°C | 0% | 0hPa | 0V | 00:00:00 | 00:00:00 | 00:00:00 | |
| EA3GEO | 2026-08-31 00:32:52 | 41.58857 | 2.84853 | 68° | 69km/h | 14123m | -20.7m/s | 0°C | 0% | 0hPa | 0V | 00:00:00 | 00:00:00 | 00:00:00 | |
| EA3GEO | 2026-08-31 00:32:46 | 41.58813 | 2.84720 | 64° | 71km/h | 14239m | -18.7m/s | 0°C | 0% | 0hPa | 0V | 00:00:00 | 00:00:00 | 00:00:00 | |
| EA3GEO | 2026-08-31 00:32:40 | 41.58769 | 2.84591 | 66° | 66km/h | 14353m | -19.9m/s | 0°C | 0% | 0hPa | 0V | 00:00:00 | 00:00:00 | 00:00:00 | |
| EA3GEO | 2026-08-31 00:32:34 | 41.58722 | 2.84473 | 63° | 64km/h | 14470m | -18.5m/s | 0°C | 0% | 0hPa | 0V | 00:00:00 | 00:00:00 | 00:00:00 | |
| EA3GEO | 2026-08-31 00:32:29 | 41.58678 | 2.84376 | 58° | 69km/h | 14570m | -19.5m/s | 0°C | 0% | 0hPa | 0V | 00:00:00 | 00:00:00 | 00:00:00 | |
| EA3GEO | 2026-08-31 00:32:23 | 41.58624 | 2.84251 | 63° | 73km/h | 14691m | -21.9m/s | 0°C | 0% | 0hPa | 0V | 00:00:00 | 00:00:00 | 00:00:00 | |
| EA3GEO | 2026-08-31 00:32:16 | 41.58556 | 2.84092 | 64° | 86km/h | 14832m | -19.1m/s | 0°C | 0% | 0hPa | 0V | 00:00:00 | 00:00:00 | 00:00:00 | |
| EA3GEO | 2026-08-31 00:32:10 | 41.58502 | 2.83943 | 66° | 78km/h | 14958m | -21.1m/s | 0°C | 0% | 0hPa | 0V | 00:00:00 | 00:00:00 | 00:00:00 | |
| EA3GEO | 2026-08-31 00:32:05 | 41.58462 | 2.83823 | 66° | 78km/h | 15062m | -20.9m/s | 0°C | 0% | 0hPa | 0V | 00:00:00 | 00:00:00 | 00:00:00 | |
| EA3GEO | 2026-08-31 00:32:00 | 41.58429 | 2.83699 | 76° | 77km/h | 15165m | -22.8m/s | 0°C | 0% | 0hPa | 0V | 00:00:00 | 00:00:00 | 00:00:00 | |
| EA3GEO | 2026-08-31 00:31:51 | 41.58401 | 2.83480 | 85° | 69km/h | 15356m | -20.5m/s | 0°C | 0% | 0hPa | 0V | 00:00:00 | 00:00:00 | 00:00:00 | |
| EA3GEO | 2026-08-31 00:31:44 | 41.58372 | 2.83338 | 65° | 58km/h | 15508m | -22.6m/s | 0°C | 0% | 0hPa | 0V | 00:00:00 | 00:00:00 | 00:00:00 | |
| EA3GEO | 2026-08-31 00:31:39 | 41.58335 | 2.83249 | 57° | 60km/h | 15616m | -20.7m/s | 0°C | 0% | 0hPa | 0V | 00:00:00 | 00:00:00 | 00:00:00 | |
| EA3GEO | 2026-08-31 00:31:34 | 41.58293 | 2.83170 | 51° | 57km/h | 15725m | -22.3m/s | 0°C | 0% | 0hPa | 0V | 00:00:00 | 00:00:00 | 00:00:00 | |
| EA3GEO | 2026-08-31 00:31:27 | 41.58223 | 2.83058 | 58° | 69km/h | 15878m | -20.9m/s | 0°C | 0% | 0hPa | 0V | 00:00:00 | 00:00:00 | 00:00:00 | |
| EA3GEO | 2026-08-31 00:31:22 | 41.58176 | 2.82958 | 64° | 75km/h | 15987m | -21.9m/s | 0°C | 0% | 0hPa | 0V | 00:00:00 | 00:00:00 | 00:00:00 | |
| EA3GEO | 2026-08-31 00:31:14 | 41.58115 | 2.82765 | 77° | 80km/h | 16170m | -24.0m/s | 0°C | 0% | 0hPa | 0V | 00:00:00 | 00:00:00 | 00:00:00 | |
| EA3GEO | 2026-08-31 00:31:03 | 41.58091 | 2.82502 | 92° | 68km/h | 16424m | -23.2m/s | 0°C | 0% | 0hPa | 0V | 00:00:00 | 00:00:00 | 00:00:00 | |
| EA3GEO | 2026-08-31 00:30:54 | 41.58088 | 2.82304 | 96° | 66km/h | 16632m | -22.4m/s | 0°C | 0% | 0hPa | 0V | 00:00:00 | 00:00:00 | 00:00:00 | |
| EA3GEO | 2026-08-31 00:30:48 | 41.58095 | 2.82189 | 98° | 57km/h | 16772m | -23.8m/s | 0°C | 0% | 0hPa | 0V | 00:00:00 | 00:00:00 | 00:00:00 | |
| EA3GEO | 2026-08-31 00:30:43 | 41.58104 | 2.82103 | 105° | 53km/h | 16888m | -24.9m/s | 0°C | 0% | 0hPa | 0V | 00:00:00 | 00:00:00 | 00:00:00 | |
| EA3GEO | 2026-08-31 00:30:34 | 41.58127 | 2.81992 | 108° | 27km/h | 17100m | -21.3m/s | 0°C | 0% | 0hPa | 0V | 00:00:00 | 00:00:00 | 00:00:00 | |
| EA3GEO | 2026-08-31 00:30:28 | 41.58130 | 2.81949 | 75° | 18km/h | 17243m | -24.3m/s | 0°C | 0% | 0hPa | 0V | 00:00:00 | 00:00:00 | 00:00:00 | |
| EA3GEO | 2026-08-31 00:30:23 | 41.58119 | 2.81913 | 69° | 16km/h | 17392m | -25.0m/s | 0°C | 0% | 0hPa | 0V | 00:00:00 | 00:00:00 | 00:00:00 | |
| EA3GEO | 2026-08-31 00:30:17 | 41.58102 | 2.81892 | 41° | 22km/h | 17518m | -24.4m/s | 0°C | 0% | 0hPa | 0V | 00:00:00 | 00:00:00 | 00:00:00 | |
| EA3GEO | 2026-08-31 00:30:08 | 41.58063 | 2.81837 | 66° | 29km/h | 17746m | -25.9m/s | 0°C | 0% | 0hPa | 0V | 00:00:00 | 00:00:00 | 00:00:00 | |
| EA3GEO | 2026-08-31 00:30:00 | 41.58033 | 2.81767 | 62° | 33km/h | 17955m | -25.8m/s | 0°C | 0% | 0hPa | 0V | 00:00:00 | 00:00:00 | 00:00:00 | |
| EA3GEO | 2026-08-31 00:29:54 | 41.58003 | 2.81717 | 45° | 31km/h | 18113m | -26.3m/s | 0°C | 0% | 0hPa | 0V | 00:00:00 | 00:00:00 | 00:00:00 | |
| EA3GEO | 2026-08-31 00:29:48 | 41.57965 | 2.81670 | 41° | 37km/h | 18269m | -24.2m/s | 0°C | 0% | 0hPa | 0V | 00:00:00 | 00:00:00 | 00:00:00 | |
| EA3GEO | 2026-08-31 00:29:43 | 41.57931 | 2.81623 | 53° | 37km/h | 18393m | -23.0m/s | 0°C | 0% | 0hPa | 0V | 00:00:00 | 00:00:00 | 00:00:00 | |
| EA3GEO | 2026-08-31 00:29:35 | 41.57899 | 2.81547 | 85° | 24km/h | 18571m | -20.1m/s | 0°C | 0% | 0hPa | 0V | 00:00:00 | 00:00:00 | 00:00:00 | |
| EA3GEO | 2026-08-31 00:29:22 | 41.57900 | 2.81471 | 41° | 13km/h | 18876m | -23.1m/s | 0°C | 0% | 0hPa | 0V | 00:00:00 | 00:00:00 | 00:00:00 | |
| EA3GEO | 2026-08-31 00:29:15 | 41.57873 | 2.81449 | 20° | 20km/h | 19052m | -23.1m/s | 0°C | 0% | 0hPa | 0V | 00:00:00 | 00:00:00 | 00:00:00 | |
| EA3GEO | 2026-08-31 00:29:06 | 41.57833 | 2.81423 | 25° | 13km/h | 19260m | -22.6m/s | 0°C | 0% | 0hPa | 0V | 00:00:00 | 00:00:00 | 00:00:00 | |
| EA3IBE | 2026-08-31 00:28:55 | 41.57819 | 2.81382 | 81° | 13km/h | 19536m | -28.0m/s | 0°C | 0% | 0hPa | 0V | 00:00:00 | 00:00:00 | 00:00:00 | |
| EA3GEO | 2026-08-31 00:28:46 | 41.57797 | 2.81333 | 63° | 24km/h | 19733m | -20.5m/s | 0°C | 0% | 0hPa | 0V | 00:00:00 | 00:00:00 | 00:00:00 | |
| EA3GEO | 2026-08-31 00:28:31 | 41.57792 | 2.81226 | 126° | 9km/h | 20157m | -23.5m/s | 0°C | 0% | 0hPa | 0V | 00:00:00 | 00:00:00 | 00:00:00 | |
| EA3GEO | 2026-08-31 00:28:24 | 41.57803 | 2.81204 | 117° | 15km/h | 20327m | -22.3m/s | 0°C | 0% | 0hPa | 0V | 00:00:00 | 00:00:00 | 00:00:00 | |
| EA3GEO | 2026-08-31 00:28:18 | 41.57812 | 2.81186 | 116° | 11km/h | 20462m | -21.5m/s | 0°C | 0% | 0hPa | 0V | 00:00:00 | 00:00:00 | 00:00:00 | |
| EA3IBE | 2026-08-31 00:28:10 | 41.57819 | 2.81139 | 85° | 13km/h | 20599m | -9.6m/s | 0°C | 0% | 0hPa | 0V | 00:00:00 | 00:00:00 | 00:00:00 | |
| EA3GEO | 2026-08-31 00:27:42 | 41.57853 | 2.81042 | 190° | 9km/h | 21073m | -28.8m/s | 0°C | 0% | 0hPa | 0V | 00:00:00 | 00:00:00 | 00:00:00 | |
| EA3GEO | 2026-08-31 00:27:20 | 41.57845 | 2.81094 | 339° | 13km/h | 21623m | -25.0m/s | 0°C | 0% | 0hPa | 0V | 00:00:00 | 00:00:00 | 00:00:00 | |
| EA3GEO | 2026-08-31 00:26:36 | 41.57713 | 2.81233 | 318° | 7km/h | 22656m | -21.4m/s | 0°C | 0% | 0hPa | 0V | 00:00:00 | 00:00:00 | 00:00:00 | |
| EA3GEO | 2026-08-31 00:26:31 | 41.57714 | 2.81243 | 217° | 11km/h | 22768m | -25.6m/s | 0°C | 0% | 0hPa | 0V | 00:00:00 | 00:00:00 | 00:00:00 | |
| EA3GEO | 2026-08-31 00:26:08 | 41.57739 | 2.81405 | 262° | 18km/h | 23289m | -28.8m/s | 0°C | 0% | 0hPa | 0V | 00:00:00 | 00:00:00 | 00:00:00 | |
| EA3GEO | 2026-08-31 00:25:47 | 41.57690 | 2.81566 | 306° | 20km/h | 23765m | -9.2m/s | 0°C | 0% | 0hPa | 0V | 00:00:00 | 00:00:00 | 00:00:00 | |
| EA3GEO | 2026-08-31 00:25:37 | 41.57663 | 2.81613 | 254° | 11km/h | 23880m | -13.9m/s | 0°C | 0% | 0hPa | 0V | 00:00:00 | 00:00:00 | 00:00:00 | |
| EA3GEO | 2026-08-31 00:25:32 | 41.57662 | 2.81633 | 297° | 9km/h | 23949m | -14.9m/s | 0°C | 0% | 0hPa | 0V | 00:00:00 | 00:00:00 | 00:00:00 | |
| EA3GEO | 2026-08-31 00:25:20 | 41.57647 | 2.81695 | 298° | 24km/h | 24242m | -25.3m/s | 0°C | 0% | 0hPa | 0V | 00:00:00 | 00:00:00 | 00:00:00 | |
| EA3IBE | 2026-08-31 00:25:13 | 41.57631 | 2.81738 | 283° | 16km/h | 24421m | -25.7m/s | 0°C | 0% | 0hPa | 0V | 00:00:00 | 00:00:00 | 00:00:00 | |
| EA3GEO | 2026-08-31 00:25:03 | 41.57626 | 2.81789 | 251° | 16km/h | 24673m | -26.5m/s | 0°C | 0% | 0hPa | 0V | 00:00:00 | 00:00:00 | 00:00:00 | |
| EA3IBE | 2026-08-31 00:24:59 | 41.57629 | 2.81811 | 255° | 16km/h | 24784m | -28.1m/s | 0°C | 0% | 0hPa | 0V | 00:00:00 | 00:00:00 | 00:00:00 | |
| EA3GEO | 2026-08-31 00:24:57 | 41.57631 | 2.81822 | 272° | 15km/h | 24842m | -28.8m/s | 0°C | 0% | 0hPa | 0V | 00:00:00 | 00:00:00 | 00:00:00 | |
| EA3GEO | 2026-08-31 00:24:44 | 41.57602 | 2.81876 | 338° | 13km/h | 25211m | -23.0m/s | 0°C | 0% | 0hPa | 0V | 00:00:00 | 00:00:00 | 00:00:00 | |
| EA3GEO | 2026-08-31 00:24:38 | 41.57587 | 2.81884 | 312° | 7km/h | 25347m | -27.2m/s | 0°C | 0% | 0hPa | 0V | 00:00:00 | 00:00:00 | 00:00:00 | |
| EA3IBE | 2026-08-31 00:24:35 | 41.57583 | 2.81892 | 305° | 5km/h | 25418m | -23.0m/s | 0°C | 0% | 0hPa | 0V | 00:00:00 | 00:00:00 | 00:00:00 | |
| EA3GEO | 2026-08-31 00:24:31 | 41.57578 | 2.81899 | 328° | 11km/h | 25518m | -28.6m/s | 0°C | 0% | 0hPa | 0V | 00:00:00 | 00:00:00 | 00:00:00 | |
| EA3IBE | 2026-08-31 00:24:27 | 41.57572 | 2.81918 | 287° | 22km/h | 25632m | -28.3m/s | 0°C | 0% | 0hPa | 0V | 00:00:00 | 00:00:00 | 00:00:00 | |
| EA3GEO | 2026-08-31 00:24:25 | 41.57570 | 2.81933 | 279° | 26km/h | 25673m | -12.0m/s | 0°C | 0% | 0hPa | 0V | 00:00:00 | 00:00:00 | 00:00:00 | |
| EA3IBE | 2026-08-31 00:24:22 | 41.57567 | 2.81960 | 281° | 26km/h | 25669m | 5.5m/s | 0°C | 0% | 0hPa | 0V | 00:00:00 | 00:00:00 | 00:00:00 | |
| EA3GEO | 2026-08-31 00:24:18 | 41.57559 | 2.81971 | 42° | 9km/h | 25646m | 4.3m/s | 0°C | 0% | 0hPa | 0V | 00:00:00 | 00:00:00 | 00:00:00 | |
| EA3IBE | 2026-08-31 00:24:16 | 41.57558 | 2.81969 | 216° | 7km/h | 25635m | 6.0m/s | 0°C | 0% | 0hPa | 0V | 00:00:00 | 00:00:00 | 00:00:00 | |
| EA3GEO | 2026-08-31 00:24:13 | 41.57560 | 2.81984 | 287° | 22km/h | 25617m | 6.4m/s | 0°C | 0% | 0hPa | 0V | 00:00:00 | 00:00:00 | 00:00:00 | |
| EA3IBE | 2026-08-31 00:24:10 | 41.57553 | 2.82006 | 288° | 20km/h | 25600m | 5.8m/s | 0°C | 0% | 0hPa | 0V | 00:00:00 | 00:00:00 | 00:00:00 | |
| EA3GEO | 2026-08-31 00:24:07 | 41.57550 | 2.82020 | 304° | 11km/h | 25585m | 6.5m/s | 0°C | 0% | 0hPa | 0V | 00:00:00 | 00:00:00 | 00:00:00 | |
| EA3IBE | 2026-08-31 00:24:04 | 41.57547 | 2.82030 | 270° | 15km/h | 25567m | 6.7m/s | 0°C | 0% | 0hPa | 0V | 00:00:00 | 00:00:00 | 00:00:00 | |
| EA3GEO | 2026-08-31 00:24:01 | 41.57545 | 2.82043 | 319° | 11km/h | 25550m | 6.8m/s | 0°C | 0% | 0hPa | 0V | 00:00:00 | 00:00:00 | 00:00:00 | |
| EA3IBE | 2026-08-31 00:23:58 | 41.57538 | 2.82050 | 300° | 11km/h | 25532m | 5.8m/s | 0°C | 0% | 0hPa | 0V | 00:00:00 | 00:00:00 | 00:00:00 | |
| EA3GEO | 2026-08-31 00:23:55 | 41.57532 | 2.82061 | 326° | 15km/h | 25517m | 6.6m/s | 0°C | 0% | 0hPa | 0V | 00:00:00 | 00:00:00 | 00:00:00 | |
| EA3IBE | 2026-08-31 00:23:53 | 41.57525 | 2.82065 | 342° | 15km/h | 25505m | 4.7m/s | 0°C | 0% | 0hPa | 0V | 00:00:00 | 00:00:00 | 00:00:00 | |
| EA3GEO | 2026-08-31 00:23:48 | 41.57520 | 2.82071 | 16° | 7km/h | 25476m | 5.9m/s | 0°C | 0% | 0hPa | 0V | 00:00:00 | 00:00:00 | 00:00:00 | |
| EA3IBE | 2026-08-31 00:23:47 | 41.57518 | 2.82071 | 357° | 9km/h | 25470m | 5.5m/s | 0°C | 0% | 0hPa | 0V | 00:00:00 | 00:00:00 | 00:00:00 | |
| EA3GEO | 2026-08-31 00:23:41 | 41.57499 | 2.82086 | 354° | 13km/h | 25435m | 5.2m/s | 0°C | 0% | 0hPa | 0V | 00:00:00 | 00:00:00 | 00:00:00 | |
| EA3GEO | 2026-08-31 00:23:36 | 41.57492 | 2.82092 | 354° | 15km/h | 25407m | 6.4m/s | 0°C | 0% | 0hPa | 0V | 00:00:00 | 00:00:00 | 00:00:00 | |
| EA3IBE | 2026-08-31 00:23:35 | 41.57487 | 2.82093 | 354° | 20km/h | 25401m | 5.4m/s | 0°C | 0% | 0hPa | 0V | 00:00:00 | 00:00:00 | 00:00:00 | |
| EA3GEO | 2026-08-31 00:23:29 | 41.57473 | 2.82112 | 0° | 0km/h | 25368m | 6.0m/s | 0°C | 0% | 0hPa | 0V | 00:00:00 | 00:00:00 | 00:00:00 | |
| EA3IBE | 2026-08-31 00:23:28 | 41.57473 | 2.82111 | 98° | 4km/h | 25361m | 6.0m/s | 0°C | 0% | 0hPa | 0V | 00:00:00 | 00:00:00 | 00:00:00 | |
| EA3IBE | 2026-08-31 00:23:23 | 41.57459 | 2.82108 | 344° | 26km/h | 25333m | 4.8m/s | 0°C | 0% | 0hPa | 0V | 00:00:00 | 00:00:00 | 00:00:00 | |
| EA3GEO | 2026-08-31 00:23:17 | 41.57449 | 2.82125 | 39° | 11km/h | 25299m | 5.3m/s | 0°C | 0% | 0hPa | 0V | 00:00:00 | 00:00:00 | 00:00:00 | |
| EA3IBE | 2026-08-31 00:23:16 | 41.57445 | 2.82123 | 25° | 15km/h | 25294m | 4.2m/s | 0°C | 0% | 0hPa | 0V | 00:00:00 | 00:00:00 | 00:00:00 | |
| EA3IBE | 2026-08-31 00:23:11 | 41.57429 | 2.82131 | 337° | 18km/h | 25266m | 6.4m/s | 0°C | 0% | 0hPa | 0V | 00:00:00 | 00:00:00 | 00:00:00 | |
| EA3IBE | 2026-08-31 00:23:05 | 41.57415 | 2.82137 | 337° | 13km/h | 25233m | 7.0m/s | 0°C | 0% | 0hPa | 0V | 00:00:00 | 00:00:00 | 00:00:00 | |
| EA3GEO | 2026-08-31 00:23:00 | 41.57399 | 2.82149 | 319° | 11km/h | 25204m | 4.9m/s | 0°C | 0% | 0hPa | 0V | 00:00:00 | 00:00:00 | 00:00:00 | |
| EA3IBE | 2026-08-31 00:22:59 | 41.57397 | 2.82151 | 342° | 11km/h | 25198m | 6.8m/s | 0°C | 0% | 0hPa | 0V | 00:00:00 | 00:00:00 | 00:00:00 | |
| EA3GEO | 2026-08-31 00:22:54 | 41.57381 | 2.82162 | 298° | 16km/h | 25168m | 4.7m/s | 0°C | 0% | 0hPa | 0V | 00:00:00 | 00:00:00 | 00:00:00 | |
| EA3IBE | 2026-08-31 00:22:52 | 41.57376 | 2.82171 | 329° | 15km/h | 25157m | 5.2m/s | 0°C | 0% | 0hPa | 0V | 00:00:00 | 00:00:00 | 00:00:00 | |
| EA3GEO | 2026-08-31 00:22:47 | 41.57363 | 2.82186 | 330° | 18km/h | 25128m | 6.8m/s | 0°C | 0% | 0hPa | 0V | 00:00:00 | 00:00:00 | 00:00:00 | |
| EA3GEO | 2026-08-31 00:22:40 | 41.57337 | 2.82223 | 325° | 20km/h | 25088m | 5.3m/s | 0°C | 0% | 0hPa | 0V | 00:00:00 | 00:00:00 | 00:00:00 | |
| EA3GEO | 2026-08-31 00:22:34 | 41.57320 | 2.82250 | 321° | 16km/h | 25055m | 5.4m/s | 0°C | 0% | 0hPa | 0V | 00:00:00 | 00:00:00 | 00:00:00 | |
| EA3IBE | 2026-08-31 00:22:24 | 41.57297 | 2.82307 | 290° | 18km/h | 24998m | 5.2m/s | 0°C | 0% | 0hPa | 0V | 00:00:00 | 00:00:00 | 00:00:00 | |
| EA3GEO | 2026-08-31 00:22:17 | 41.57288 | 2.82357 | 285° | 24km/h | 24961m | 5.8m/s | 0°C | 0% | 0hPa | 0V | 00:00:00 | 00:00:00 | 00:00:00 | |
| EA3IBE | 2026-08-31 00:22:15 | 41.57283 | 2.82368 | 319° | 15km/h | 24949m | 5.2m/s | 0°C | 0% | 0hPa | 0V | 00:00:00 | 00:00:00 | 00:00:00 | |
| EA3GEO | 2026-08-31 00:22:12 | 41.57281 | 2.82380 | 261° | 18km/h | 24933m | 4.3m/s | 0°C | 0% | 0hPa | 0V | 00:00:00 | 00:00:00 | 00:00:00 | |
| EA3IBE | 2026-08-31 00:22:08 | 41.57280 | 2.82410 | 275° | 26km/h | 24911m | 5.3m/s | 0°C | 0% | 0hPa | 0V | 00:00:00 | 00:00:00 | 00:00:00 | |
| EA3GEO | 2026-08-31 00:22:04 | 41.57282 | 2.82437 | 278° | 11km/h | 24888m | 6.4m/s | 0°C | 0% | 0hPa | 0V | 00:00:00 | 00:00:00 | 00:00:00 | |
| EA3IBE | 2026-08-31 00:22:01 | 41.57281 | 2.82449 | 266° | 16km/h | 24873m | 5.7m/s | 0°C | 0% | 0hPa | 0V | 00:00:00 | 00:00:00 | 00:00:00 | |
| EA3IBE | 2026-08-31 00:21:57 | 41.57280 | 2.82483 | 265° | 18km/h | 24847m | 4.8m/s | 0°C | 0% | 0hPa | 0V | 00:00:00 | 00:00:00 | 00:00:00 | |
| EA3GEO | 2026-08-31 00:21:52 | 41.57286 | 2.82507 | 273° | 13km/h | 24827m | 6.6m/s | 0°C | 0% | 0hPa | 0V | 00:00:00 | 00:00:00 | 00:00:00 | |
| EA3IBE | 2026-08-31 00:21:50 | 41.57283 | 2.82514 | 301° | 15km/h | 24817m | 3.7m/s | 0°C | 0% | 0hPa | 0V | 00:00:00 | 00:00:00 | 00:00:00 | |
| EA3GEO | 2026-08-31 00:21:46 | 41.57288 | 2.82537 | 227° | 20km/h | 24798m | 4.6m/s | 0°C | 0% | 0hPa | 0V | 00:00:00 | 00:00:00 | 00:00:00 | |
| EA3IBE | 2026-08-31 00:21:43 | 41.57293 | 2.82545 | 290° | 7km/h | 24782m | 4.3m/s | 0°C | 0% | 0hPa | 0V | 00:00:00 | 00:00:00 | 00:00:00 | |
| EA3GEO | 2026-08-31 00:21:40 | 41.57291 | 2.82564 | 272° | 29km/h | 24765m | 4.4m/s | 0°C | 0% | 0hPa | 0V | 00:00:00 | 00:00:00 | 00:00:00 | |
| EA3IBE | 2026-08-31 00:21:36 | 41.57291 | 2.82593 | 259° | 9km/h | 24745m | 3.9m/s | 0°C | 0% | 0hPa | 0V | 00:00:00 | 00:00:00 | 00:00:00 | |
| EA3GEO | 2026-08-31 00:21:35 | 41.57292 | 2.82597 | 242° | 13km/h | 24741m | 5.2m/s | 0°C | 0% | 0hPa | 0V | 00:00:00 | 00:00:00 | 00:00:00 | |
| EA3GEO | 2026-08-31 00:21:29 | 41.57299 | 2.82630 | 304° | 22km/h | 24710m | 4.8m/s | 0°C | 0% | 0hPa | 0V | 00:00:00 | 00:00:00 | 00:00:00 | |
| EA3IBE | 2026-08-31 00:21:26 | 41.57293 | 2.82653 | 265° | 22km/h | 24696m | 3.8m/s | 0°C | 0% | 0hPa | 0V | 00:00:00 | 00:00:00 | 00:00:00 | |
| EA3GEO | 2026-08-31 00:21:24 | 41.57297 | 2.82664 | 220° | 13km/h | 24685m | 5.1m/s | 0°C | 0% | 0hPa | 0V | 00:00:00 | 00:00:00 | 00:00:00 | |
| EA3IBE | 2026-08-31 00:21:21 | 41.57302 | 2.82675 | 279° | 18km/h | 24670m | 5.0m/s | 0°C | 0% | 0hPa | 0V | 00:00:00 | 00:00:00 | 00:00:00 | |
| EA3GEO | 2026-08-31 00:21:19 | 41.57294 | 2.82692 | 311° | 18km/h | 24655m | 5.1m/s | 0°C | 0% | 0hPa | 0V | 00:00:00 | 00:00:00 | 00:00:00 | |
| EA3GEO | 2026-08-31 00:21:13 | 41.57294 | 2.82723 | 244° | 18km/h | 24630m | 5.7m/s | 0°C | 0% | 0hPa | 0V | 00:00:00 | 00:00:00 | 00:00:00 | |
| EA3GEO | 2026-08-31 00:21:08 | 41.57290 | 2.82742 | 296° | 27km/h | 24605m | 5.0m/s | 0°C | 0% | 0hPa | 0V | 00:00:00 | 00:00:00 | 00:00:00 | |
| EA3GEO | 2026-08-31 00:21:01 | 41.57283 | 2.82786 | 299° | 15km/h | 24570m | 5.1m/s | 0°C | 0% | 0hPa | 0V | 00:00:00 | 00:00:00 | 00:00:00 | |
| EA3GEO | 2026-08-31 00:20:56 | 41.57272 | 2.82820 | 281° | 33km/h | 24545m | 4.1m/s | 0°C | 0% | 0hPa | 0V | 00:00:00 | 00:00:00 | 00:00:00 | |
| EA3GEO | 2026-08-31 00:20:45 | 41.57244 | 2.82885 | 298° | 15km/h | 24492m | 4.3m/s | 0°C | 0% | 0hPa | 0V | 00:00:00 | 00:00:00 | 00:00:00 | |
| EA3GEO | 2026-08-31 00:20:39 | 41.57232 | 2.82918 | 296° | 15km/h | 24464m | 4.2m/s | 0°C | 0% | 0hPa | 0V | 00:00:00 | 00:00:00 | 00:00:00 | |
| EA3IBE | 2026-08-31 00:20:36 | 41.57231 | 2.82938 | 275° | 22km/h | 24448m | 4.2m/s | 0°C | 0% | 0hPa | 0V | 00:00:00 | 00:00:00 | 00:00:00 | |
| EA3GEO | 2026-08-31 00:20:34 | 41.57228 | 2.82967 | 304° | 18km/h | 24438m | 4.8m/s | 0°C | 0% | 0hPa | 0V | 00:00:00 | 00:00:00 | 00:00:00 | |
| EA3IBE | 2026-08-31 00:20:29 | 41.57215 | 2.82986 | 299° | 24km/h | 24412m | 6.4m/s | 0°C | 0% | 0hPa | 0V | 00:00:00 | 00:00:00 | 00:00:00 | |
| EA3GEO | 2026-08-31 00:20:28 | 41.57212 | 2.82993 | 305° | 20km/h | 24406m | 4.6m/s | 0°C | 0% | 0hPa | 0V | 00:00:00 | 00:00:00 | 00:00:00 | |
| EA3GEO | 2026-08-31 00:20:19 | 41.57182 | 2.83060 | 296° | 33km/h | 24360m | 4.5m/s | 0°C | 0% | 0hPa | 0V | 00:00:00 | 00:00:00 | 00:00:00 | |
| EA3IBE | 2026-08-31 00:20:14 | 41.57162 | 2.83102 | 300° | 29km/h | 24334m | 4.4m/s | 0°C | 0% | 0hPa | 0V | 00:00:00 | 00:00:00 | 00:00:00 | |
| EA3GEO | 2026-08-31 00:20:12 | 41.57154 | 2.83116 | 312° | 22km/h | 24324m | 5.9m/s | 0°C | 0% | 0hPa | 0V | 00:00:00 | 00:00:00 | 00:00:00 | |
| EA3IBE | 2026-08-31 00:20:08 | 41.57147 | 2.83141 | 277° | 27km/h | 24303m | 4.0m/s | 0°C | 0% | 0hPa | 0V | 00:00:00 | 00:00:00 | 00:00:00 | |
| EA3GEO | 2026-08-31 00:20:06 | 41.57144 | 2.83158 | 301° | 27km/h | 24293m | 5.4m/s | 0°C | 0% | 0hPa | 0V | 00:00:00 | 00:00:00 | 00:00:00 | |
| EA3GEO | 2026-08-31 00:20:01 | 41.57130 | 2.83198 | 278° | 20km/h | 24268m | 4.4m/s | 0°C | 0% | 0hPa | 0V | 00:00:00 | 00:00:00 | 00:00:00 | |
| EA3IBE | 2026-08-31 00:19:56 | 41.57124 | 2.83229 | 277° | 27km/h | 24243m | 4.6m/s | 0°C | 0% | 0hPa | 0V | 00:00:00 | 00:00:00 | 00:00:00 | |
| EA3IBE | 2026-08-31 00:19:45 | 41.57119 | 2.83294 | 277° | 26km/h | 24185m | 5.2m/s | 0°C | 0% | 0hPa | 0V | 00:00:00 | 00:00:00 | 00:00:00 | |
| EA3GEO | 2026-08-31 00:19:39 | 41.57116 | 2.83327 | 246° | 13km/h | 24154m | 5.5m/s | 0°C | 0% | 0hPa | 0V | 00:00:00 | 00:00:00 | 00:00:00 | |
| EA3GEO | 2026-08-31 00:19:34 | 41.57107 | 2.83351 | 319° | 24km/h | 24129m | 4.3m/s | 0°C | 0% | 0hPa | 0V | 00:00:00 | 00:00:00 | 00:00:00 | |
| EA3GEO | 2026-08-31 00:19:27 | 41.57101 | 2.83386 | 0° | 0km/h | 24093m | 4.8m/s | 0°C | 0% | 0hPa | 0V | 00:00:00 | 00:00:00 | 00:00:00 | |
| EA3IBE | 2026-08-31 00:19:26 | 41.57101 | 2.83386 | 261° | 4km/h | 24088m | 5.6m/s | 0°C | 0% | 0hPa | 0V | 00:00:00 | 00:00:00 | 00:00:00 | |
| EA3GEO | 2026-08-31 00:19:21 | 41.57093 | 2.83412 | 297° | 24km/h | 24062m | 4.4m/s | 0°C | 0% | 0hPa | 0V | 00:00:00 | 00:00:00 | 00:00:00 | |
| EA3GEO | 2026-08-31 00:19:13 | 41.57088 | 2.83450 | 255° | 16km/h | 24019m | 5.0m/s | 0°C | 0% | 0hPa | 0V | 00:00:00 | 00:00:00 | 00:00:00 | |
| EA3GEO | 2026-08-31 00:19:06 | 41.57089 | 2.83487 | 213° | 15km/h | 23983m | 4.7m/s | 0°C | 0% | 0hPa | 0V | 00:00:00 | 00:00:00 | 00:00:00 | |
| EA3GEO | 2026-08-31 00:19:01 | 41.57091 | 2.83510 | 276° | 24km/h | 23956m | 5.4m/s | 0°C | 0% | 0hPa | 0V | 00:00:00 | 00:00:00 | 00:00:00 | |
| EA3GEO | 2026-08-31 00:18:55 | 41.57080 | 2.83537 | 269° | 4km/h | 23923m | 4.7m/s | 0°C | 0% | 0hPa | 0V | 00:00:00 | 00:00:00 | 00:00:00 | |
| EA3GEO | 2026-08-31 00:18:50 | 41.57068 | 2.83558 | 311° | 26km/h | 23898m | 4.8m/s | 0°C | 0% | 0hPa | 0V | 00:00:00 | 00:00:00 | 00:00:00 | |
| EA3IBE | 2026-08-31 00:18:43 | 41.57047 | 2.83590 | 340° | 16km/h | 23859m | 5.9m/s | 0°C | 0% | 0hPa | 0V | 00:00:00 | 00:00:00 | 00:00:00 | |
| EA3GEO | 2026-08-31 00:18:37 | 41.57026 | 2.83627 | 291° | 27km/h | 23826m | 6.3m/s | 0°C | 0% | 0hPa | 0V | 00:00:00 | 00:00:00 | 00:00:00 | |
| EA3GEO | 2026-08-31 00:18:32 | 41.57006 | 2.83654 | 329° | 26km/h | 23799m | 5.1m/s | 0°C | 0% | 0hPa | 0V | 00:00:00 | 00:00:00 | 00:00:00 | |
| EA3GEO | 2026-08-31 00:18:27 | 41.56988 | 2.83694 | 310° | 31km/h | 23772m | 5.3m/s | 0°C | 0% | 0hPa | 0V | 00:00:00 | 00:00:00 | 00:00:00 | |
| EA3GEO | 2026-08-31 00:18:22 | 41.56964 | 2.83730 | 308° | 31km/h | 23747m | 5.5m/s | 0°C | 0% | 0hPa | 0V | 00:00:00 | 00:00:00 | 00:00:00 | |
| EA3IBE | 2026-08-31 00:18:20 | 41.56953 | 2.83748 | 312° | 37km/h | 23736m | 4.0m/s | 0°C | 0% | 0hPa | 0V | 00:00:00 | 00:00:00 | 00:00:00 | |
| EA3IBE | 2026-08-31 00:18:10 | 41.56916 | 2.83833 | 299° | 33km/h | 23682m | 6.1m/s | 0°C | 0% | 0hPa | 0V | 00:00:00 | 00:00:00 | 00:00:00 | |
| EA3GEO | 2026-08-31 00:18:07 | 41.56906 | 2.83861 | 284° | 26km/h | 23668m | 6.8m/s | 0°C | 0% | 0hPa | 0V | 00:00:00 | 00:00:00 | 00:00:00 | |
| EA3IBE | 2026-08-31 00:18:04 | 41.56906 | 2.83884 | 281° | 22km/h | 23651m | 5.6m/s | 0°C | 0% | 0hPa | 0V | 00:00:00 | 00:00:00 | 00:00:00 | |
| EA3GEO | 2026-08-31 00:18:02 | 41.56899 | 2.83899 | 310° | 35km/h | 23640m | 4.6m/s | 0°C | 0% | 0hPa | 0V | 00:00:00 | 00:00:00 | 00:00:00 | |
| EA3IBE | 2026-08-31 00:17:56 | 41.56880 | 2.83964 | 297° | 22km/h | 23609m | 5.4m/s | 0°C | 0% | 0hPa | 0V | 00:00:00 | 00:00:00 | 00:00:00 | |
| EA3IBE | 2026-08-31 00:17:51 | 41.56875 | 2.84006 | 270° | 38km/h | 23584m | 4.4m/s | 0°C | 0% | 0hPa | 0V | 00:00:00 | 00:00:00 | 00:00:00 | |
| EA3GEO | 2026-08-31 00:17:48 | 41.56870 | 2.84040 | 291° | 29km/h | 23569m | 3.8m/s | 0°C | 0% | 0hPa | 0V | 00:00:00 | 00:00:00 | 00:00:00 | |
| EA3IBE | 2026-08-31 00:17:46 | 41.56866 | 2.84058 | 277° | 26km/h | 23559m | 5.7m/s | 0°C | 0% | 0hPa | 0V | 00:00:00 | 00:00:00 | 00:00:00 | |
| EA3GEO | 2026-08-31 00:17:43 | 41.56860 | 2.84092 | 294° | 24km/h | 23538m | 3.8m/s | 0°C | 0% | 0hPa | 0V | 00:00:00 | 00:00:00 | 00:00:00 | |
| EA3IBE | 2026-08-31 00:17:40 | 41.56858 | 2.84105 | 264° | 16km/h | 23528m | 5.7m/s | 0°C | 0% | 0hPa | 0V | 00:00:00 | 00:00:00 | 00:00:00 | |
| EA3GEO | 2026-08-31 00:17:37 | 41.56858 | 2.84121 | 293° | 20km/h | 23513m | 5.8m/s | 0°C | 0% | 0hPa | 0V | 00:00:00 | 00:00:00 | 00:00:00 | |
| EA3IBE | 2026-08-31 00:17:34 | 41.56852 | 2.84143 | 276° | 26km/h | 23497m | 5.9m/s | 0°C | 0% | 0hPa | 0V | 00:00:00 | 00:00:00 | 00:00:00 | |
| EA3IBE | 2026-08-31 00:17:28 | 41.56852 | 2.84189 | 262° | 18km/h | 23466m | 5.5m/s | 0°C | 0% | 0hPa | 0V | 00:00:00 | 00:00:00 | 00:00:00 | |
| EA3IBE | 2026-08-31 00:17:23 | 41.56852 | 2.84225 | 253° | 22km/h | 23440m | 5.9m/s | 0°C | 0% | 0hPa | 0V | 00:00:00 | 00:00:00 | 00:00:00 | |
| EA3IBE | 2026-08-31 00:17:17 | 41.56858 | 2.84269 | 259° | 22km/h | 23409m | 6.1m/s | 0°C | 0% | 0hPa | 0V | 00:00:00 | 00:00:00 | 00:00:00 | |
| EA3GEO | 2026-08-31 00:17:00 | 41.56876 | 2.84392 | 256° | 26km/h | 23321m | 6.2m/s | 0°C | 0% | 0hPa | 0V | 00:00:00 | 00:00:00 | 00:00:00 | |
| EA3GEO | 2026-08-31 00:16:54 | 41.56882 | 2.84438 | 278° | 18km/h | 23289m | 5.9m/s | 0°C | 0% | 0hPa | 0V | 00:00:00 | 00:00:00 | 00:00:00 | |
| EA3GEO | 2026-08-31 00:16:49 | 41.56884 | 2.84477 | 257° | 27km/h | 23264m | 5.5m/s | 0°C | 0% | 0hPa | 0V | 00:00:00 | 00:00:00 | 00:00:00 | |
| EA3GEO | 2026-08-31 00:16:44 | 41.56893 | 2.84520 | 270° | 31km/h | 23239m | 4.5m/s | 0°C | 0% | 0hPa | 0V | 00:00:00 | 00:00:00 | 00:00:00 | |
| EA3IBE | 2026-08-31 00:16:42 | 41.56895 | 2.84540 | 255° | 29km/h | 23228m | 5.2m/s | 0°C | 0% | 0hPa | 0V | 00:00:00 | 00:00:00 | 00:00:00 | |
| EA3GEO | 2026-08-31 00:16:38 | 41.56902 | 2.84580 | 263° | 31km/h | 23208m | 4.1m/s | 0°C | 0% | 0hPa | 0V | 00:00:00 | 00:00:00 | 00:00:00 | |
| EA3IBE | 2026-08-31 00:16:34 | 41.56907 | 2.84611 | 270° | 22km/h | 23186m | 6.0m/s | 0°C | 0% | 0hPa | 0V | 00:00:00 | 00:00:00 | 00:00:00 | |
| EA3GEO | 2026-08-31 00:16:29 | 41.56912 | 2.84649 | 247° | 27km/h | 23162m | 4.9m/s | 0°C | 0% | 0hPa | 0V | 00:00:00 | 00:00:00 | 00:00:00 | |
| EA3IBE | 2026-08-31 00:16:27 | 41.56917 | 2.84667 | 255° | 27km/h | 23151m | 3.8m/s | 0°C | 0% | 0hPa | 0V | 00:00:00 | 00:00:00 | 00:00:00 | |
| EA3IBE | 2026-08-31 00:16:21 | 41.56926 | 2.84708 | 263° | 24km/h | 23121m | 4.1m/s | 0°C | 0% | 0hPa | 0V | 00:00:00 | 00:00:00 | 00:00:00 | |
| EA3IBE | 2026-08-31 00:16:16 | 41.56935 | 2.84748 | 259° | 29km/h | 23095m | 4.5m/s | 0°C | 0% | 0hPa | 0V | 00:00:00 | 00:00:00 | 00:00:00 | |
| EA3GEO | 2026-08-31 00:16:15 | 41.56936 | 2.84758 | 255° | 29km/h | 23090m | 5.6m/s | 0°C | 0% | 0hPa | 0V | 00:00:00 | 00:00:00 | 00:00:00 | |
| EA3IBE | 2026-08-31 00:16:11 | 41.56940 | 2.84789 | 275° | 22km/h | 23070m | 4.0m/s | 0°C | 0% | 0hPa | 0V | 00:00:00 | 00:00:00 | 00:00:00 | |
| EA3IBE | 2026-08-31 00:16:02 | 41.56945 | 2.84842 | 259° | 15km/h | 23023m | 4.6m/s | 0°C | 0% | 0hPa | 0V | 00:00:00 | 00:00:00 | 00:00:00 | |
| EA3IBE | 2026-08-31 00:15:52 | 41.56948 | 2.84902 | 278° | 11km/h | 22971m | 5.2m/s | 0°C | 0% | 0hPa | 0V | 00:00:00 | 00:00:00 | 00:00:00 | |
| EA3GEO | 2026-08-31 00:15:46 | 41.56946 | 2.84937 | 246° | 20km/h | 22941m | 5.9m/s | 0°C | 0% | 0hPa | 0V | 00:00:00 | 00:00:00 | 00:00:00 | |
| EA3IBE | 2026-08-31 00:15:39 | 41.56955 | 2.84975 | 298° | 7km/h | 22905m | 4.1m/s | 0°C | 0% | 0hPa | 0V | 00:00:00 | 00:00:00 | 00:00:00 | |
| EA3IBE | 2026-08-31 00:15:25 | 41.56975 | 2.85033 | 231° | 15km/h | 22835m | 5.8m/s | 0°C | 0% | 0hPa | 0V | 00:00:00 | 00:00:00 | 00:00:00 | |
| EA3GEO | 2026-08-31 00:15:09 | 41.57017 | 2.85079 | 210° | 7km/h | 22755m | 5.7m/s | 0°C | 0% | 0hPa | 0V | 00:00:00 | 00:00:00 | 00:00:00 | |
| EA3IBE | 2026-08-31 00:14:22 | 41.56905 | 2.85124 | 342° | 27km/h | 22512m | 6.2m/s | 0°C | 0% | 0hPa | 0V | 00:00:00 | 00:00:00 | 00:00:00 | |
| EA3GEO | 2026-08-31 00:14:12 | 41.56851 | 2.85161 | 333° | 35km/h | 22460m | 4.2m/s | 0°C | 0% | 0hPa | 0V | 00:00:00 | 00:00:00 | 00:00:00 | |
| EA3IBE | 2026-08-31 00:14:05 | 41.56812 | 2.85189 | 318° | 27km/h | 22426m | 5.3m/s | 0°C | 0% | 0hPa | 0V | 00:00:00 | 00:00:00 | 00:00:00 | |
| EA3GEO | 2026-08-31 00:13:58 | 41.56771 | 2.85227 | 319° | 20km/h | 22391m | 6.5m/s | 0°C | 0% | 0hPa | 0V | 00:00:00 | 00:00:00 | 00:00:00 | |
| EA3GEO | 2026-08-31 00:13:50 | 41.56743 | 2.85266 | 327° | 13km/h | 22350m | 4.9m/s | 0°C | 0% | 0hPa | 0V | 00:00:00 | 00:00:00 | 00:00:00 | |
| EA3IBE | 2026-08-31 00:13:49 | 41.56740 | 2.85268 | 326° | 15km/h | 22345m | 5.2m/s | 0°C | 0% | 0hPa | 0V | 00:00:00 | 00:00:00 | 00:00:00 | |
| EA3GEO | 2026-08-31 00:13:40 | 41.56710 | 2.85300 | 307° | 15km/h | 22300m | 5.6m/s | 0°C | 0% | 0hPa | 0V | 00:00:00 | 00:00:00 | 00:00:00 | |
| EA3IBE | 2026-08-31 00:13:28 | 41.56684 | 2.85342 | 306° | 11km/h | 22235m | 6.0m/s | 0°C | 0% | 0hPa | 0V | 00:00:00 | 00:00:00 | 00:00:00 | |
| EA3IBE | 2026-08-31 00:13:21 | 41.56671 | 2.85362 | 326° | 13km/h | 22204m | 6.1m/s | 0°C | 0% | 0hPa | 0V | 00:00:00 | 00:00:00 | 00:00:00 | |
| EA3GEO | 2026-08-31 00:13:20 | 41.56668 | 2.85364 | 327° | 11km/h | 22198m | 5.1m/s | 0°C | 0% | 0hPa | 0V | 00:00:00 | 00:00:00 | 00:00:00 | |
| EA3GEO | 2026-08-31 00:13:15 | 41.56657 | 2.85386 | 308° | 15km/h | 22173m | 5.8m/s | 0°C | 0% | 0hPa | 0V | 00:00:00 | 00:00:00 | 00:00:00 | |
| EA3GEO | 2026-08-31 00:13:07 | 41.56640 | 2.85413 | 257° | 11km/h | 22132m | 5.8m/s | 0°C | 0% | 0hPa | 0V | 00:00:00 | 00:00:00 | 00:00:00 | |
| EA3GEO | 2026-08-31 00:12:36 | 41.56554 | 2.85525 | 306° | 18km/h | 21979m | 4.5m/s | 0°C | 0% | 0hPa | 0V | 00:00:00 | 00:00:00 | 00:00:00 | |
| EA3GEO | 2026-08-31 00:12:12 | 41.56512 | 2.85566 | 25° | 9km/h | 21861m | 5.8m/s | 0°C | 0% | 0hPa | 0V | 00:00:00 | 00:00:00 | 00:00:00 | |
| EA3GEO | 2026-08-31 00:11:54 | 41.56508 | 2.85560 | 80° | 5km/h | 21772m | 4.3m/s | 0°C | 0% | 0hPa | 0V | 00:00:00 | 00:00:00 | 00:00:00 | |
| EA3GEO | 2026-08-31 00:11:46 | 41.56491 | 2.85554 | 322° | 5km/h | 21732m | 5.1m/s | 0°C | 0% | 0hPa | 0V | 00:00:00 | 00:00:00 | 00:00:00 | |
| EA3GEO | 2026-08-31 00:11:38 | 41.56469 | 2.85560 | 11° | 13km/h | 21693m | 6.0m/s | 0°C | 0% | 0hPa | 0V | 00:00:00 | 00:00:00 | 00:00:00 | |
| EA3GEO | 2026-08-31 00:11:30 | 41.56452 | 2.85572 | 352° | 18km/h | 21654m | 4.1m/s | 0°C | 0% | 0hPa | 0V | 00:00:00 | 00:00:00 | 00:00:00 | |
| EA3GEO | 2026-08-31 00:11:03 | 41.56380 | 2.85658 | 287° | 5km/h | 21519m | 5.5m/s | 0°C | 0% | 0hPa | 0V | 00:00:00 | 00:00:00 | 00:00:00 | |
| EA3GEO | 2026-08-31 00:10:43 | 41.56383 | 2.85701 | 163° | 9km/h | 21417m | 4.7m/s | 0°C | 0% | 0hPa | 0V | 00:00:00 | 00:00:00 | 00:00:00 | |
| EA3GEO | 2026-08-31 00:10:38 | 41.56395 | 2.85710 | 210° | 9km/h | 21391m | 3.8m/s | 0°C | 0% | 0hPa | 0V | 00:00:00 | 00:00:00 | 00:00:00 | |
| EA3GEO | 2026-08-31 00:10:31 | 41.56403 | 2.85727 | 230° | 11km/h | 21355m | 6.1m/s | 0°C | 0% | 0hPa | 0V | 00:00:00 | 00:00:00 | 00:00:00 | |
| EA3GEO | 2026-08-31 00:10:10 | 41.56419 | 2.85780 | 198° | 5km/h | 21247m | 5.9m/s | 0°C | 0% | 0hPa | 0V | 00:00:00 | 00:00:00 | 00:00:00 | |
| EA3GEO | 2026-08-31 00:09:48 | 41.56458 | 2.85776 | 177° | 13km/h | 21133m | 3.7m/s | 0°C | 0% | 0hPa | 0V | 00:00:00 | 00:00:00 | 00:00:00 | |
| EA3GEO | 2026-08-31 00:09:17 | 41.56501 | 2.85814 | 199° | 5km/h | 20976m | 5.4m/s | 0°C | 0% | 0hPa | 0V | 00:00:00 | 00:00:00 | 00:00:00 | |
| EA3GEO | 2026-08-31 00:09:08 | 41.56514 | 2.85819 | 171° | 16km/h | 20932m | 4.9m/s | 0°C | 0% | 0hPa | 0V | 00:00:00 | 00:00:00 | 00:00:00 | |
| EA3GEO | 2026-08-31 00:09:02 | 41.56528 | 2.85806 | 145° | 16km/h | 20904m | 6.3m/s | 0°C | 0% | 0hPa | 0V | 00:00:00 | 00:00:00 | 00:00:00 | |
| EA3GEO | 2026-08-31 00:08:57 | 41.56543 | 2.85790 | 133° | 9km/h | 20881m | 4.8m/s | 0°C | 0% | 0hPa | 0V | 00:00:00 | 00:00:00 | 00:00:00 | |
| EA3GEO | 2026-08-31 00:08:48 | 41.56566 | 2.85754 | 100° | 16km/h | 20832m | 4.5m/s | 0°C | 0% | 0hPa | 0V | 00:00:00 | 00:00:00 | 00:00:00 | |
| EA3GEO | 2026-08-31 00:08:29 | 41.56607 | 2.85642 | 119° | 22km/h | 20747m | 3.8m/s | 0°C | 0% | 0hPa | 0V | 00:00:00 | 00:00:00 | 00:00:00 | |
| EA3GEO | 2026-08-31 00:08:18 | 41.56620 | 2.85553 | 109° | 26km/h | 20693m | 5.4m/s | 0°C | 0% | 0hPa | 0V | 00:00:00 | 00:00:00 | 00:00:00 | |
| EA3GEO | 2026-08-31 00:08:12 | 41.56626 | 2.85507 | 95° | 24km/h | 20666m | 4.7m/s | 0°C | 0% | 0hPa | 0V | 00:00:00 | 00:00:00 | 00:00:00 | |
| EA3GEO | 2026-08-31 00:08:06 | 41.56630 | 2.85472 | 97° | 24km/h | 20638m | 4.7m/s | 0°C | 0% | 0hPa | 0V | 00:00:00 | 00:00:00 | 00:00:00 | |
| EA3GEO | 2026-08-31 00:08:00 | 41.56623 | 2.85427 | 79° | 22km/h | 20610m | 3.9m/s | 0°C | 0% | 0hPa | 0V | 00:00:00 | 00:00:00 | 00:00:00 | |
| EA3GEO | 2026-08-31 00:07:54 | 41.56621 | 2.85394 | 89° | 16km/h | 20580m | 5.8m/s | 0°C | 0% | 0hPa | 0V | 00:00:00 | 00:00:00 | 00:00:00 | |
| EA3GEO | 2026-08-31 00:07:48 | 41.56615 | 2.85369 | 43° | 11km/h | 20551m | 3.2m/s | 0°C | 0% | 0hPa | 0V | 00:00:00 | 00:00:00 | 00:00:00 | |
| EA3GEO | 2026-08-31 00:07:36 | 41.56612 | 2.85319 | 74° | 4km/h | 20496m | 3.2m/s | 0°C | 0% | 0hPa | 0V | 00:00:00 | 00:00:00 | 00:00:00 | |
| EA3GEO | 2026-08-31 00:07:30 | 41.56613 | 2.85302 | 132° | 11km/h | 20467m | 4.9m/s | 0°C | 0% | 0hPa | 0V | 00:00:00 | 00:00:00 | 00:00:00 | |
| EA3GEO | 2026-08-31 00:07:24 | 41.56617 | 2.85279 | 96° | 15km/h | 20440m | 5.0m/s | 0°C | 0% | 0hPa | 0V | 00:00:00 | 00:00:00 | 00:00:00 | |
| EA3GEO | 2026-08-31 00:07:18 | 41.56626 | 2.85247 | 123° | 13km/h | 20411m | 5.5m/s | 0°C | 0% | 0hPa | 0V | 00:00:00 | 00:00:00 | 00:00:00 | |
| EA3GEO | 2026-08-31 00:07:13 | 41.56631 | 2.85240 | 149° | 7km/h | 20386m | 5.2m/s | 0°C | 0% | 0hPa | 0V | 00:00:00 | 00:00:00 | 00:00:00 | |
| EA3GEO | 2026-08-31 00:07:07 | 41.56641 | 2.85222 | 105° | 13km/h | 20357m | 6.1m/s | 0°C | 0% | 0hPa | 0V | 00:00:00 | 00:00:00 | 00:00:00 | |
| EA3GEO | 2026-08-31 00:07:01 | 41.56646 | 2.85199 | 99° | 16km/h | 20328m | 5.8m/s | 0°C | 0% | 0hPa | 0V | 00:00:00 | 00:00:00 | 00:00:00 | |
| EA3GEO | 2026-08-31 00:06:55 | 41.56652 | 2.85172 | 100° | 15km/h | 20299m | 4.8m/s | 0°C | 0% | 0hPa | 0V | 00:00:00 | 00:00:00 | 00:00:00 | |
| EA3GEO | 2026-08-31 00:06:48 | 41.56660 | 2.85136 | 115° | 18km/h | 20266m | 3.6m/s | 0°C | 0% | 0hPa | 0V | 00:00:00 | 00:00:00 | 00:00:00 | |
| EA3GEO | 2026-08-31 00:06:41 | 41.56667 | 2.85128 | 236° | 4km/h | 20234m | 4.5m/s | 0°C | 0% | 0hPa | 0V | 00:00:00 | 00:00:00 | 00:00:00 | |
| EA3GEO | 2026-08-31 00:06:36 | 41.56675 | 2.85109 | 116° | 20km/h | 20209m | 4.9m/s | 0°C | 0% | 0hPa | 0V | 00:00:00 | 00:00:00 | 00:00:00 | |
| EA3GEO | 2026-08-31 00:06:30 | 41.56679 | 2.85087 | 146° | 7km/h | 20180m | 4.1m/s | 0°C | 0% | 0hPa | 0V | 00:00:00 | 00:00:00 | 00:00:00 | |
| EA3GEO | 2026-08-31 00:06:24 | 41.56687 | 2.85053 | 107° | 22km/h | 20150m | 4.5m/s | 0°C | 0% | 0hPa | 0V | 00:00:00 | 00:00:00 | 00:00:00 | |
| EA3GEO | 2026-08-31 00:06:19 | 41.56689 | 2.85025 | 118° | 15km/h | 20124m | 4.7m/s | 0°C | 0% | 0hPa | 0V | 00:00:00 | 00:00:00 | 00:00:00 | |
| EA3GEO | 2026-08-31 00:06:13 | 41.56693 | 2.84993 | 95° | 16km/h | 20093m | 5.6m/s | 0°C | 0% | 0hPa | 0V | 00:00:00 | 00:00:00 | 00:00:00 | |
| EA3GEO | 2026-08-31 00:06:07 | 41.56694 | 2.84954 | 90° | 22km/h | 20062m | 5.9m/s | 0°C | 0% | 0hPa | 0V | 00:00:00 | 00:00:00 | 00:00:00 | |
| EA3GEO | 2026-08-31 00:06:01 | 41.56697 | 2.84909 | 81° | 26km/h | 20031m | 4.4m/s | 0°C | 0% | 0hPa | 0V | 00:00:00 | 00:00:00 | 00:00:00 | |
| EA3GEO | 2026-08-31 00:05:56 | 41.56694 | 2.84870 | 75° | 24km/h | 20006m | 4.4m/s | 0°C | 0% | 0hPa | 0V | 00:00:00 | 00:00:00 | 00:00:00 | |
| EA3GEO | 2026-08-31 00:05:51 | 41.56693 | 2.84824 | 82° | 29km/h | 19981m | 5.1m/s | 0°C | 0% | 0hPa | 0V | 00:00:00 | 00:00:00 | 00:00:00 | |
| EA3GEO | 2026-08-31 00:05:45 | 41.56682 | 2.84770 | 66° | 37km/h | 19951m | 5.5m/s | 0°C | 0% | 0hPa | 0V | 00:00:00 | 00:00:00 | 00:00:00 | |
| EA3GEO | 2026-08-31 00:05:40 | 41.56673 | 2.84718 | 83° | 33km/h | 19926m | 5.8m/s | 0°C | 0% | 0hPa | 0V | 00:00:00 | 00:00:00 | 00:00:00 | |
| EA3GEO | 2026-08-31 00:05:35 | 41.56662 | 2.84668 | 57° | 31km/h | 19900m | 6.0m/s | 0°C | 0% | 0hPa | 0V | 00:00:00 | 00:00:00 | 00:00:00 | |
| EA3IBE | 2026-08-31 00:05:30 | 41.56642 | 2.84622 | 86° | 29km/h | 19874m | 5.2m/s | 0°C | 0% | 0hPa | 0V | 00:00:00 | 00:00:00 | 00:00:00 | |
| EA3GEO | 2026-08-31 00:05:29 | 41.56641 | 2.84612 | 84° | 35km/h | 19869m | 5.3m/s | 0°C | 0% | 0hPa | 0V | 00:00:00 | 00:00:00 | 00:00:00 | |
| EA3GEO | 2026-08-31 00:05:23 | 41.56617 | 2.84557 | 50° | 38km/h | 19838m | 4.6m/s | 0°C | 0% | 0hPa | 0V | 00:00:00 | 00:00:00 | 00:00:00 | |
| EA3GEO | 2026-08-31 00:05:17 | 41.56601 | 2.84506 | 77° | 22km/h | 19808m | 3.1m/s | 0°C | 0% | 0hPa | 0V | 00:00:00 | 00:00:00 | 00:00:00 | |
| EA3GEO | 2026-08-31 00:05:12 | 41.56579 | 2.84481 | 48° | 33km/h | 19782m | 5.0m/s | 0°C | 0% | 0hPa | 0V | 00:00:00 | 00:00:00 | 00:00:00 | |
| EA3GEO | 2026-08-31 00:05:07 | 41.56560 | 2.84435 | 51° | 24km/h | 19752m | 5.5m/s | 0°C | 0% | 0hPa | 0V | 00:00:00 | 00:00:00 | 00:00:00 | |
| EA3GEO | 2026-08-31 00:05:01 | 41.56536 | 2.84413 | 43° | 26km/h | 19727m | 5.7m/s | 0°C | 0% | 0hPa | 0V | 00:00:00 | 00:00:00 | 00:00:00 | |
| EA3GEO | 2026-08-31 00:04:56 | 41.56523 | 2.84381 | 61° | 20km/h | 19702m | 5.8m/s | 0°C | 0% | 0hPa | 0V | 00:00:00 | 00:00:00 | 00:00:00 | |
| EA3GEO | 2026-08-31 00:04:50 | 41.56501 | 2.84350 | 53° | 26km/h | 19672m | 5.4m/s | 0°C | 0% | 0hPa | 0V | 00:00:00 | 00:00:00 | 00:00:00 | |
| EA3GEO | 2026-08-31 00:04:45 | 41.56483 | 2.84321 | 34° | 20km/h | 19641m | 4.9m/s | 0°C | 0% | 0hPa | 0V | 00:00:00 | 00:00:00 | 00:00:00 | |
| EA3GEO | 2026-08-31 00:04:38 | 41.56459 | 2.84291 | 60° | 15km/h | 19606m | 6.2m/s | 0°C | 0% | 0hPa | 0V | 00:00:00 | 00:00:00 | 00:00:00 | |
| EA3GEO | 2026-08-31 00:04:31 | 41.56447 | 2.84265 | 63° | 16km/h | 19575m | 5.1m/s | 0°C | 0% | 0hPa | 0V | 00:00:00 | 00:00:00 | 00:00:00 | |
| EA3GEO | 2026-08-31 00:04:25 | 41.56440 | 2.84234 | 101° | 5km/h | 19545m | 4.5m/s | 0°C | 0% | 0hPa | 0V | 00:00:00 | 00:00:00 | 00:00:00 | |
| EA3GEO | 2026-08-31 00:04:20 | 41.56434 | 2.84217 | 86° | 20km/h | 19520m | 4.2m/s | 0°C | 0% | 0hPa | 0V | 00:00:00 | 00:00:00 | 00:00:00 | |
| EA3GEO | 2026-08-31 00:04:14 | 41.56427 | 2.84186 | 82° | 11km/h | 19490m | 4.9m/s | 0°C | 0% | 0hPa | 0V | 00:00:00 | 00:00:00 | 00:00:00 | |
| EA3GEO | 2026-08-31 00:04:09 | 41.56417 | 2.84166 | 67° | 18km/h | 19464m | 4.5m/s | 0°C | 0% | 0hPa | 0V | 00:00:00 | 00:00:00 | 00:00:00 | |
| EA3GEO | 2026-08-31 00:04:04 | 41.56416 | 2.84134 | 98° | 13km/h | 19441m | 4.0m/s | 0°C | 0% | 0hPa | 0V | 00:00:00 | 00:00:00 | 00:00:00 | |
| EA3GEO | 2026-08-31 00:03:59 | 41.56408 | 2.84118 | 75° | 13km/h | 19417m | 4.3m/s | 0°C | 0% | 0hPa | 0V | 00:00:00 | 00:00:00 | 00:00:00 | |
| EA3GEO | 2026-08-31 00:03:53 | 41.56401 | 2.84097 | 79° | 5km/h | 19388m | 4.0m/s | 0°C | 0% | 0hPa | 0V | 00:00:00 | 00:00:00 | 00:00:00 | |
| EA3GEO | 2026-08-31 00:03:48 | 41.56390 | 2.84080 | 51° | 16km/h | 19364m | 4.2m/s | 0°C | 0% | 0hPa | 0V | 00:00:00 | 00:00:00 | 00:00:00 | |
| EA3GEO | 2026-08-31 00:03:42 | 41.56372 | 2.84061 | 59° | 13km/h | 19335m | 4.8m/s | 0°C | 0% | 0hPa | 0V | 00:00:00 | 00:00:00 | 00:00:00 | |
| EA3GEO | 2026-08-31 00:03:37 | 41.56350 | 2.84041 | 356° | 13km/h | 19307m | 3.9m/s | 0°C | 0% | 0hPa | 0V | 00:00:00 | 00:00:00 | 00:00:00 | |
| EA3GEO | 2026-08-31 00:03:20 | 41.56285 | 2.84022 | 58° | 15km/h | 19224m | 5.8m/s | 0°C | 0% | 0hPa | 0V | 00:00:00 | 00:00:00 | 00:00:00 | |
| EA3IBE | 2026-08-31 00:03:17 | 41.56271 | 2.84014 | 359° | 22km/h | 19205m | 4.7m/s | 0°C | 0% | 0hPa | 0V | 00:00:00 | 00:00:00 | 00:00:00 | |
| EA3GEO | 2026-08-31 00:03:15 | 41.56259 | 2.84013 | 9° | 26km/h | 19194m | 4.3m/s | 0°C | 0% | 0hPa | 0V | 00:00:00 | 00:00:00 | 00:00:00 | |
| EA3IBE | 2026-08-31 00:03:09 | 41.56233 | 2.83998 | 40° | 20km/h | 19164m | 4.7m/s | 0°C | 0% | 0hPa | 0V | 00:00:00 | 00:00:00 | 00:00:00 | |
| EA3GEO | 2026-08-31 00:02:37 | 41.55984 | 2.83858 | 69° | 7km/h | 18860m | 4.8m/s | 0°C | 0% | 0hPa | 0V | 00:00:00 | 00:00:00 | 00:00:00 | |
| EA3GEO | 2026-08-31 00:02:31 | 41.55985 | 2.83840 | 84° | 15km/h | 18830m | 6.1m/s | 0°C | 0% | 0hPa | 0V | 00:00:00 | 00:00:00 | 00:00:00 | |
| EA3GEO | 2026-08-31 00:00:34 | 41.55847 | 2.83155 | 54° | 38km/h | 18384m | 4.7m/s | 0°C | 0% | 0hPa | 0V | 00:00:00 | 00:00:00 | 00:00:00 | |
| EA3GEO | 2026-08-31 00:00:28 | 41.55809 | 2.83096 | 45° | 38km/h | 18354m | 5.9m/s | 0°C | 0% | 0hPa | 0V | 00:00:00 | 00:00:00 | 00:00:00 | |
| EA3GEO | 2026-08-31 00:00:23 | 41.55771 | 2.83046 | 49° | 33km/h | 18324m | 3.8m/s | 0°C | 0% | 0hPa | 0V | 00:00:00 | 00:00:00 | 00:00:00 | |
| EA3GEO | 2026-08-30 23:59:06 | 41.55382 | 2.82562 | 67° | 24km/h | 17959m | 3.7m/s | 0°C | 0% | 0hPa | 0V | 00:00:00 | 00:00:00 | 00:00:00 | |
| EA3GEO | 2026-08-30 23:58:59 | 41.55358 | 2.82510 | 47° | 29km/h | 17923m | 4.5m/s | 0°C | 0% | 0hPa | 0V | 00:00:00 | 00:00:00 | 00:00:00 | |
| EA3GEO | 2026-08-30 23:58:44 | 41.55314 | 2.82379 | 79° | 31km/h | 17845m | 5.0m/s | 0°C | 0% | 0hPa | 0V | 00:00:00 | 00:00:00 | 00:00:00 | |
| EA3GEO | 2026-08-30 23:58:37 | 41.55293 | 2.82315 | 61° | 33km/h | 17810m | 4.7m/s | 0°C | 0% | 0hPa | 0V | 00:00:00 | 00:00:00 | 00:00:00 | |
| EA3GEO | 2026-08-30 23:58:27 | 41.55259 | 2.82233 | 61° | 29km/h | 17761m | 4.2m/s | 0°C | 0% | 0hPa | 0V | 00:00:00 | 00:00:00 | 00:00:00 | |
| EA3GEO | 2026-08-30 23:58:22 | 41.55244 | 2.82193 | 65° | 29km/h | 17735m | 4.4m/s | 0°C | 0% | 0hPa | 0V | 00:00:00 | 00:00:00 | 00:00:00 | |
| EA3GEO | 2026-08-30 23:58:15 | 41.55224 | 2.82135 | 73° | 26km/h | 17702m | 3.0m/s | 0°C | 0% | 0hPa | 0V | 00:00:00 | 00:00:00 | 00:00:00 | |
| EA3GEO | 2026-08-30 23:58:09 | 41.55206 | 2.82080 | 78° | 33km/h | 17674m | 5.6m/s | 0°C | 0% | 0hPa | 0V | 00:00:00 | 00:00:00 | 00:00:00 | |
| EA3GEO | 2026-08-30 23:57:59 | 41.55181 | 2.82003 | 68° | 29km/h | 17626m | 5.2m/s | 0°C | 0% | 0hPa | 0V | 00:00:00 | 00:00:00 | 00:00:00 | |
| EA3GEO | 2026-08-30 23:56:51 | 41.55056 | 2.81669 | 100° | 24km/h | 17296m | 6.3m/s | 0°C | 0% | 0hPa | 0V | 00:00:00 | 00:00:00 | 00:00:00 | |
| EA3GEO | 2026-08-30 23:56:32 | 41.55072 | 2.81510 | 125° | 29km/h | 17204m | 3.3m/s | 0°C | 0% | 0hPa | 0V | 00:00:00 | 00:00:00 | 00:00:00 | |
| EA3GEO | 2026-08-30 23:56:26 | 41.55082 | 2.81460 | 90° | 20km/h | 17178m | 4.8m/s | 0°C | 0% | 0hPa | 0V | 00:00:00 | 00:00:00 | 00:00:00 | |
| EA3GEO | 2026-08-30 23:56:17 | 41.55105 | 2.81387 | 101° | 31km/h | 17137m | 4.8m/s | 0°C | 0% | 0hPa | 0V | 00:00:00 | 00:00:00 | 00:00:00 | |
| EA3GEO | 2026-08-30 23:56:10 | 41.55122 | 2.81322 | 119° | 31km/h | 17102m | 6.0m/s | 0°C | 0% | 0hPa | 0V | 00:00:00 | 00:00:00 | 00:00:00 | |
| EA3GEO | 2026-08-30 23:56:04 | 41.55140 | 2.81260 | 112° | 33km/h | 17070m | 3.0m/s | 0°C | 0% | 0hPa | 0V | 00:00:00 | 00:00:00 | 00:00:00 | |
| EA3GEO | 2026-08-30 23:55:58 | 41.55160 | 2.81190 | 109° | 44km/h | 17040m | 4.3m/s | 0°C | 0% | 0hPa | 0V | 00:00:00 | 00:00:00 | 00:00:00 | |
| EA3GEO | 2026-08-30 23:55:53 | 41.55182 | 2.81125 | 112° | 44km/h | 17016m | 4.8m/s | 0°C | 0% | 0hPa | 0V | 00:00:00 | 00:00:00 | 00:00:00 | |
| EA3GEO | 2026-08-30 23:55:47 | 41.55205 | 2.81044 | 119° | 44km/h | 16986m | 4.9m/s | 0°C | 0% | 0hPa | 0V | 00:00:00 | 00:00:00 | 00:00:00 | |
| EA3GEO | 2026-08-30 23:55:33 | 41.55272 | 2.80824 | 114° | 57km/h | 16920m | 5.0m/s | 0°C | 0% | 0hPa | 0V | 00:00:00 | 00:00:00 | 00:00:00 | |
| EA3GEO | 2026-08-30 23:55:28 | 41.55294 | 2.80739 | 107° | 47km/h | 16896m | 4.7m/s | 0°C | 0% | 0hPa | 0V | 00:00:00 | 00:00:00 | 00:00:00 | |
| EA3GEO | 2026-08-30 23:55:22 | 41.55312 | 2.80634 | 107° | 57km/h | 16865m | 5.6m/s | 0°C | 0% | 0hPa | 0V | 00:00:00 | 00:00:00 | 00:00:00 | |
| EA3GEO | 2026-08-30 23:55:17 | 41.55331 | 2.80553 | 104° | 53km/h | 16842m | 6.1m/s | 0°C | 0% | 0hPa | 0V | 00:00:00 | 00:00:00 | 00:00:00 | |
| EA3GEO | 2026-08-30 23:55:12 | 41.55341 | 2.80456 | 97° | 57km/h | 16816m | 5.9m/s | 0°C | 0% | 0hPa | 0V | 00:00:00 | 00:00:00 | 00:00:00 | |
| EA3GEO | 2026-08-30 23:55:06 | 41.55341 | 2.80351 | 86° | 58km/h | 16787m | 4.0m/s | 0°C | 0% | 0hPa | 0V | 00:00:00 | 00:00:00 | 00:00:00 | |
| EA3GEO | 2026-08-30 23:55:01 | 41.55336 | 2.80253 | 85° | 55km/h | 16762m | 5.4m/s | 0°C | 0% | 0hPa | 0V | 00:00:00 | 00:00:00 | 00:00:00 | |
| EA3GEO | 2026-08-30 23:54:55 | 41.55322 | 2.80152 | 80° | 49km/h | 16733m | 4.3m/s | 0°C | 0% | 0hPa | 0V | 00:00:00 | 00:00:00 | 00:00:00 | |
| EA3GEO | 2026-08-30 23:54:49 | 41.55309 | 2.80046 | 82° | 57km/h | 16703m | 5.2m/s | 0°C | 0% | 0hPa | 0V | 00:00:00 | 00:00:00 | 00:00:00 | |
| EA3GEO | 2026-08-30 23:54:42 | 41.55297 | 2.79922 | 84° | 49km/h | 16668m | 5.4m/s | 0°C | 0% | 0hPa | 0V | 00:00:00 | 00:00:00 | 00:00:00 | |
| EA3GEO | 2026-08-30 23:54:36 | 41.55282 | 2.79816 | 82° | 58km/h | 16639m | 5.6m/s | 0°C | 0% | 0hPa | 0V | 00:00:00 | 00:00:00 | 00:00:00 | |
| EA3GEO | 2026-08-30 23:54:29 | 41.55270 | 2.79679 | 84° | 58km/h | 16604m | 5.7m/s | 0°C | 0% | 0hPa | 0V | 00:00:00 | 00:00:00 | 00:00:00 | |
| EA3GEO | 2026-08-30 23:54:24 | 41.55256 | 2.79577 | 77° | 58km/h | 16579m | 3.7m/s | 0°C | 0% | 0hPa | 0V | 00:00:00 | 00:00:00 | 00:00:00 | |
| EA3GEO | 2026-08-30 23:54:19 | 41.55244 | 2.79474 | 88° | 62km/h | 16554m | 4.1m/s | 0°C | 0% | 0hPa | 0V | 00:00:00 | 00:00:00 | 00:00:00 | |
| EA3GEO | 2026-08-30 23:54:12 | 41.55223 | 2.79319 | 79° | 69km/h | 16519m | 5.6m/s | 0°C | 0% | 0hPa | 0V | 00:00:00 | 00:00:00 | 00:00:00 | |
| EA3GEO | 2026-08-30 23:54:06 | 41.55213 | 2.79184 | 90° | 64km/h | 16488m | 3.7m/s | 0°C | 0% | 0hPa | 0V | 00:00:00 | 00:00:00 | 00:00:00 | |
| EA3GEO | 2026-08-30 23:53:55 | 41.55184 | 2.78927 | 87° | 73km/h | 16434m | 5.4m/s | 0°C | 0% | 0hPa | 0V | 00:00:00 | 00:00:00 | 00:00:00 | |
| EA3GEO | 2026-08-30 23:53:49 | 41.55169 | 2.78783 | 75° | 75km/h | 16405m | 3.9m/s | 0°C | 0% | 0hPa | 0V | 00:00:00 | 00:00:00 | 00:00:00 | |
| EA3GEO | 2026-08-30 23:53:39 | 41.55125 | 2.78539 | 75° | 78km/h | 16356m | 5.2m/s | 0°C | 0% | 0hPa | 0V | 00:00:00 | 00:00:00 | 00:00:00 | |
| EA3GEO | 2026-08-30 23:53:33 | 41.55096 | 2.78394 | 76° | 77km/h | 16328m | 3.8m/s | 0°C | 0% | 0hPa | 0V | 00:00:00 | 00:00:00 | 00:00:00 | |
| EA3GEO | 2026-08-30 23:53:28 | 41.55067 | 2.78269 | 75° | 78km/h | 16302m | 5.6m/s | 0°C | 0% | 0hPa | 0V | 00:00:00 | 00:00:00 | 00:00:00 | |
| EA3GEO | 2026-08-30 23:53:21 | 41.55017 | 2.78089 | 67° | 80km/h | 16270m | 5.4m/s | 0°C | 0% | 0hPa | 0V | 00:00:00 | 00:00:00 | 00:00:00 | |
| EA3GEO | 2026-08-30 23:53:07 | 41.54901 | 2.77757 | 67° | 75km/h | 16201m | 5.6m/s | 0°C | 0% | 0hPa | 0V | 00:00:00 | 00:00:00 | 00:00:00 | |
| EA3GEO | 2026-08-30 23:53:01 | 41.54852 | 2.77628 | 63° | 77km/h | 16171m | 4.2m/s | 0°C | 0% | 0hPa | 0V | 00:00:00 | 00:00:00 | 00:00:00 | |
| EA3GEO | 2026-08-30 23:52:56 | 41.54808 | 2.77521 | 60° | 69km/h | 16146m | 5.6m/s | 0°C | 0% | 0hPa | 0V | 00:00:00 | 00:00:00 | 00:00:00 | |
| EA3GEO | 2026-08-30 23:52:50 | 41.54745 | 2.77401 | 55° | 71km/h | 16117m | 4.3m/s | 0°C | 0% | 0hPa | 0V | 00:00:00 | 00:00:00 | 00:00:00 | |
| EA3GEO | 2026-08-30 23:52:45 | 41.54695 | 2.77303 | 55° | 73km/h | 16093m | 5.9m/s | 0°C | 0% | 0hPa | 0V | 00:00:00 | 00:00:00 | 00:00:00 | |
| EA3GEO | 2026-08-30 23:52:39 | 41.54627 | 2.77188 | 55° | 69km/h | 16063m | 5.6m/s | 0°C | 0% | 0hPa | 0V | 00:00:00 | 00:00:00 | 00:00:00 | |
| EA3GEO | 2026-08-30 23:52:05 | 41.54292 | 2.76696 | 51° | 57km/h | 15896m | 4.3m/s | 0°C | 0% | 0hPa | 0V | 00:00:00 | 00:00:00 | 00:00:00 | |
| EA3GEO | 2026-08-30 23:51:33 | 41.53958 | 2.76290 | 45° | 51km/h | 15743m | 3.6m/s | 0°C | 0% | 0hPa | 0V | 00:00:00 | 00:00:00 | 00:00:00 | |
| EA3GEO | 2026-08-30 23:51:07 | 41.53739 | 2.75910 | 60° | 57km/h | 15610m | 3.3m/s | 0°C | 0% | 0hPa | 0V | 00:00:00 | 00:00:00 | 00:00:00 | |
| EA3GEO | 2026-08-30 23:50:50 | 41.53634 | 2.75605 | 63° | 55km/h | 15524m | 5.7m/s | 0°C | 0% | 0hPa | 0V | 00:00:00 | 00:00:00 | 00:00:00 | |
| EA3GEO | 2026-08-30 23:50:42 | 41.53595 | 2.75460 | 73° | 62km/h | 15485m | 6.0m/s | 0°C | 0% | 0hPa | 0V | 00:00:00 | 00:00:00 | 00:00:00 | |
| EA3GEO | 2026-08-30 23:50:37 | 41.53571 | 2.75361 | 78° | 58km/h | 15460m | 6.2m/s | 0°C | 0% | 0hPa | 0V | 00:00:00 | 00:00:00 | 00:00:00 | |
| EA3GEO | 2026-08-30 23:50:29 | 41.53546 | 2.75170 | 81° | 66km/h | 15413m | 5.3m/s | 0°C | 0% | 0hPa | 0V | 00:00:00 | 00:00:00 | 00:00:00 | |
| EA3GEO | 2026-08-30 23:50:22 | 41.53538 | 2.75026 | 86° | 78km/h | 15383m | 5.8m/s | 0°C | 0% | 0hPa | 0V | 00:00:00 | 00:00:00 | 00:00:00 | |
| EA3GEO | 2026-08-30 23:50:13 | 41.53512 | 2.74797 | 80° | 86km/h | 15335m | 4.4m/s | 0°C | 0% | 0hPa | 0V | 00:00:00 | 00:00:00 | 00:00:00 | |
| EA3IBE | 2026-08-30 23:50:11 | 41.53503 | 2.74743 | 80° | 78km/h | 15325m | 5.8m/s | 0°C | 0% | 0hPa | 0V | 00:00:00 | 00:00:00 | 00:00:00 | |
| EA3IBE | 2026-08-30 23:50:03 | 41.53466 | 2.74527 | 77° | 88km/h | 15285m | 5.6m/s | 0°C | 0% | 0hPa | 0V | 00:00:00 | 00:00:00 | 00:00:00 | |
| EA3IBE | 2026-08-30 23:49:53 | 41.53412 | 2.74265 | 76° | 82km/h | 15235m | 3.1m/s | 0°C | 0% | 0hPa | 0V | 00:00:00 | 00:00:00 | 00:00:00 | |
| EA3GEO | 2026-08-30 23:49:51 | 41.53401 | 2.74212 | 75° | 82km/h | 15225m | 3.8m/s | 0°C | 0% | 0hPa | 0V | 00:00:00 | 00:00:00 | 00:00:00 | |
| EA3GEO | 2026-08-30 23:49:40 | 41.53345 | 2.73932 | 77° | 75km/h | 15171m | 4.5m/s | 0°C | 0% | 0hPa | 0V | 00:00:00 | 00:00:00 | 00:00:00 | |
| EA3IBE | 2026-08-30 23:49:36 | 41.53319 | 2.73836 | 74° | 73km/h | 15151m | 4.2m/s | 0°C | 0% | 0hPa | 0V | 00:00:00 | 00:00:00 | 00:00:00 | |
| EA3GEO | 2026-08-30 23:49:34 | 41.53308 | 2.73789 | 71° | 75km/h | 15141m | 4.6m/s | 0°C | 0% | 0hPa | 0V | 00:00:00 | 00:00:00 | 00:00:00 | |
| EA3GEO | 2026-08-30 23:49:27 | 41.53256 | 2.73632 | 68° | 73km/h | 15106m | 3.0m/s | 0°C | 0% | 0hPa | 0V | 00:00:00 | 00:00:00 | 00:00:00 | |
| EA3GEO | 2026-08-30 23:49:22 | 41.53220 | 2.73519 | 68° | 73km/h | 15082m | 5.6m/s | 0°C | 0% | 0hPa | 0V | 00:00:00 | 00:00:00 | 00:00:00 | |
| EA3GEO | 2026-08-30 23:49:16 | 41.53167 | 2.73387 | 55° | 73km/h | 15053m | 3.0m/s | 0°C | 0% | 0hPa | 0V | 00:00:00 | 00:00:00 | 00:00:00 | |
| EA3IBE | 2026-08-30 23:49:05 | 41.53060 | 2.73164 | 57° | 69km/h | 15000m | 3.5m/s | 0°C | 0% | 0hPa | 0V | 00:00:00 | 00:00:00 | 00:00:00 | |
| EA3GEO | 2026-08-30 23:49:01 | 41.53019 | 2.73080 | 61° | 77km/h | 14979m | 2.8m/s | 0°C | 0% | 0hPa | 0V | 00:00:00 | 00:00:00 | 00:00:00 | |
| EA3IBE | 2026-08-30 23:48:57 | 41.52976 | 2.72990 | 59° | 77km/h | 14959m | 4.7m/s | 0°C | 0% | 0hPa | 0V | 00:00:00 | 00:00:00 | 00:00:00 | |
| EA3GEO | 2026-08-30 23:48:54 | 41.52940 | 2.72928 | 50° | 80km/h | 14945m | 3.8m/s | 0°C | 0% | 0hPa | 0V | 00:00:00 | 00:00:00 | 00:00:00 | |
| EA3IBE | 2026-08-30 23:48:48 | 41.52871 | 2.72800 | 59° | 73km/h | 14917m | 4.4m/s | 0°C | 0% | 0hPa | 0V | 00:00:00 | 00:00:00 | 00:00:00 | |
| EA3GEO | 2026-08-30 23:48:46 | 41.52850 | 2.72762 | 52° | 71km/h | 14908m | 4.5m/s | 0°C | 0% | 0hPa | 0V | 00:00:00 | 00:00:00 | 00:00:00 | |
| EA3IBE | 2026-08-30 23:48:42 | 41.52808 | 2.72682 | 58° | 75km/h | 14890m | 5.2m/s | 0°C | 0% | 0hPa | 0V | 00:00:00 | 00:00:00 | 00:00:00 | |
| EA3GEO | 2026-08-30 23:48:40 | 41.52788 | 2.72640 | 61° | 75km/h | 14882m | 4.9m/s | 0°C | 0% | 0hPa | 0V | 00:00:00 | 00:00:00 | 00:00:00 | |
| EA3IBE | 2026-08-30 23:48:35 | 41.52740 | 2.72528 | 60° | 77km/h | 14858m | 6.5m/s | 0°C | 0% | 0hPa | 0V | 00:00:00 | 00:00:00 | 00:00:00 | |
| EA3GEO | 2026-08-30 23:48:29 | 41.52687 | 2.72392 | 66° | 77km/h | 14829m | 4.7m/s | 0°C | 0% | 0hPa | 0V | 00:00:00 | 00:00:00 | 00:00:00 | |
| EA3IBE | 2026-08-30 23:48:27 | 41.52669 | 2.72345 | 61° | 78km/h | 14820m | 5.2m/s | 0°C | 0% | 0hPa | 0V | 00:00:00 | 00:00:00 | 00:00:00 | |
| EA3GEO | 2026-08-30 23:48:23 | 41.52630 | 2.72256 | 61° | 75km/h | 14802m | 5.6m/s | 0°C | 0% | 0hPa | 0V | 00:00:00 | 00:00:00 | 00:00:00 | |
| EA3IBE | 2026-08-30 23:48:19 | 41.52593 | 2.72168 | 64° | 73km/h | 14782m | 4.9m/s | 0°C | 0% | 0hPa | 0V | 00:00:00 | 00:00:00 | 00:00:00 | |
| EA3GEO | 2026-08-30 23:48:16 | 41.52567 | 2.72099 | 66° | 77km/h | 14768m | 5.3m/s | 0°C | 0% | 0hPa | 0V | 00:00:00 | 00:00:00 | 00:00:00 | |
| EA3GEO | 2026-08-30 23:48:10 | 41.52512 | 2.71963 | 65° | 66km/h | 14740m | 3.7m/s | 0°C | 0% | 0hPa | 0V | 00:00:00 | 00:00:00 | 00:00:00 | |
| EA3GEO | 2026-08-30 23:48:04 | 41.52465 | 2.71834 | 63° | 75km/h | 14713m | 3.5m/s | 0°C | 0% | 0hPa | 0V | 00:00:00 | 00:00:00 | 00:00:00 | |
| EA3IBE | 2026-08-30 23:48:02 | 41.52447 | 2.71792 | 63° | 66km/h | 14704m | 3.6m/s | 0°C | 0% | 0hPa | 0V | 00:00:00 | 00:00:00 | 00:00:00 | |
| EA3GEO | 2026-08-30 23:47:57 | 41.52409 | 2.71692 | 67° | 68km/h | 14680m | 4.6m/s | 0°C | 0% | 0hPa | 0V | 00:00:00 | 00:00:00 | 00:00:00 | |
| EA3IBE | 2026-08-30 23:47:49 | 41.52353 | 2.71530 | 70° | 66km/h | 14641m | 3.4m/s | 0°C | 0% | 0hPa | 0V | 00:00:00 | 00:00:00 | 00:00:00 | |
| EA3GEO | 2026-08-30 23:47:48 | 41.52346 | 2.71509 | 68° | 69km/h | 14637m | 5.0m/s | 0°C | 0% | 0hPa | 0V | 00:00:00 | 00:00:00 | 00:00:00 | |
| EA3IBE | 2026-08-30 23:47:43 | 41.52312 | 2.71396 | 65° | 69km/h | 14615m | 3.4m/s | 0°C | 0% | 0hPa | 0V | 00:00:00 | 00:00:00 | 00:00:00 | |
| EA3IBE | 2026-08-30 23:47:38 | 41.52277 | 2.71299 | 66° | 62km/h | 14592m | 5.8m/s | 0°C | 0% | 0hPa | 0V | 00:00:00 | 00:00:00 | 00:00:00 | |
| EA3GEO | 2026-08-30 23:47:35 | 41.52257 | 2.71241 | 63° | 66km/h | 14578m | 4.0m/s | 0°C | 0% | 0hPa | 0V | 00:00:00 | 00:00:00 | 00:00:00 | |
| EA3IBE | 2026-08-30 23:47:32 | 41.52236 | 2.71180 | 69° | 68km/h | 14565m | 4.0m/s | 0°C | 0% | 0hPa | 0V | 00:00:00 | 00:00:00 | 00:00:00 | |
| EA3GEO | 2026-08-30 23:47:30 | 41.52222 | 2.71138 | 64° | 68km/h | 14556m | 3.3m/s | 0°C | 0% | 0hPa | 0V | 00:00:00 | 00:00:00 | 00:00:00 | |
| EA3IBE | 2026-08-30 23:47:26 | 41.52195 | 2.71060 | 64° | 62km/h | 14538m | 4.8m/s | 0°C | 0% | 0hPa | 0V | 00:00:00 | 00:00:00 | 00:00:00 | |
| EA3GEO | 2026-08-30 23:47:24 | 41.52182 | 2.71023 | 70° | 62km/h | 14529m | 2.9m/s | 0°C | 0% | 0hPa | 0V | 00:00:00 | 00:00:00 | 00:00:00 | |
| EA3IBE | 2026-08-30 23:47:20 | 41.52157 | 2.70941 | 72° | 69km/h | 14510m | 4.1m/s | 0°C | 0% | 0hPa | 0V | 00:00:00 | 00:00:00 | 00:00:00 | |
| EA3GEO | 2026-08-30 23:47:16 | 41.52132 | 2.70860 | 69° | 60km/h | 14490m | 4.3m/s | 0°C | 0% | 0hPa | 0V | 00:00:00 | 00:00:00 | 00:00:00 | |
| EA3IBE | 2026-08-30 23:47:13 | 41.52111 | 2.70804 | 63° | 64km/h | 14477m | 4.3m/s | 0°C | 0% | 0hPa | 0V | 00:00:00 | 00:00:00 | 00:00:00 | |
| EA3GEO | 2026-08-30 23:47:10 | 41.52090 | 2.70742 | 66° | 71km/h | 14463m | 5.2m/s | 0°C | 0% | 0hPa | 0V | 00:00:00 | 00:00:00 | 00:00:00 | |
| EA3IBE | 2026-08-30 23:47:06 | 41.52066 | 2.70658 | 74° | 60km/h | 14445m | 5.2m/s | 0°C | 0% | 0hPa | 0V | 00:00:00 | 00:00:00 | 00:00:00 | |
| EA3GEO | 2026-08-30 23:47:04 | 41.52056 | 2.70619 | 71° | 64km/h | 14436m | 2.5m/s | 0°C | 0% | 0hPa | 0V | 00:00:00 | 00:00:00 | 00:00:00 | |
| EA3IBE | 2026-08-30 23:47:01 | 41.52040 | 2.70559 | 70° | 62km/h | 14422m | 5.7m/s | 0°C | 0% | 0hPa | 0V | 00:00:00 | 00:00:00 | 00:00:00 | |
| EA3GEO | 2026-08-30 23:46:55 | 41.52005 | 2.70433 | 72° | 62km/h | 14394m | 5.2m/s | 0°C | 0% | 0hPa | 0V | 00:00:00 | 00:00:00 | 00:00:00 | |
| EA3IBE | 2026-08-30 23:46:54 | 41.52001 | 2.70413 | 76° | 62km/h | 14390m | 3.6m/s | 0°C | 0% | 0hPa | 0V | 00:00:00 | 00:00:00 | 00:00:00 | |
| EA3GEO | 2026-08-30 23:46:49 | 41.51980 | 2.70313 | 78° | 66km/h | 14367m | 4.0m/s | 0°C | 0% | 0hPa | 0V | 00:00:00 | 00:00:00 | 00:00:00 | |
| EA3IBE | 2026-08-30 23:46:48 | 41.51975 | 2.70291 | 75° | 66km/h | 14362m | 5.5m/s | 0°C | 0% | 0hPa | 0V | 00:00:00 | 00:00:00 | 00:00:00 | |
| EA3IBE | 2026-08-30 23:46:43 | 41.51952 | 2.70187 | 72° | 57km/h | 14340m | 2.8m/s | 0°C | 0% | 0hPa | 0V | 00:00:00 | 00:00:00 | 00:00:00 | |
| EA3IBE | 2026-08-30 23:46:37 | 41.51929 | 2.70071 | 79° | 64km/h | 14314m | 4.9m/s | 0°C | 0% | 0hPa | 0V | 00:00:00 | 00:00:00 | 00:00:00 | |
| EA3GEO | 2026-08-30 23:46:32 | 41.51908 | 2.69973 | 73° | 62km/h | 14291m | 4.7m/s | 0°C | 0% | 0hPa | 0V | 00:00:00 | 00:00:00 | 00:00:00 | |
| EA3GEO | 2026-08-30 23:46:27 | 41.51884 | 2.69872 | 78° | 62km/h | 14268m | 3.5m/s | 0°C | 0% | 0hPa | 0V | 00:00:00 | 00:00:00 | 00:00:00 | |
| EA3IBE | 2026-08-30 23:46:25 | 41.51876 | 2.69833 | 74° | 60km/h | 14260m | 3.3m/s | 0°C | 0% | 0hPa | 0V | 00:00:00 | 00:00:00 | 00:00:00 | |
| EA3GEO | 2026-08-30 23:46:19 | 41.51847 | 2.69714 | 72° | 64km/h | 14233m | 5.4m/s | 0°C | 0% | 0hPa | 0V | 00:00:00 | 00:00:00 | 00:00:00 | |
| EA3IBE | 2026-08-30 23:46:13 | 41.51816 | 2.69591 | 72° | 62km/h | 14204m | 5.6m/s | 0°C | 0% | 0hPa | 0V | 00:00:00 | 00:00:00 | 00:00:00 | |
| EA3GEO | 2026-08-30 23:46:08 | 41.51787 | 2.69492 | 69° | 64km/h | 14181m | 5.7m/s | 0°C | 0% | 0hPa | 0V | 00:00:00 | 00:00:00 | 00:00:00 | |
| EA3IBE | 2026-08-30 23:46:05 | 41.51766 | 2.69430 | 69° | 69km/h | 14168m | 4.4m/s | 0°C | 0% | 0hPa | 0V | 00:00:00 | 00:00:00 | 00:00:00 | |
| EA3GEO | 2026-08-30 23:46:03 | 41.51753 | 2.69388 | 66° | 66km/h | 14159m | 4.8m/s | 0°C | 0% | 0hPa | 0V | 00:00:00 | 00:00:00 | 00:00:00 | |
| EA3IBE | 2026-08-30 23:45:57 | 41.51717 | 2.69273 | 66° | 66km/h | 14133m | 4.9m/s | 0°C | 0% | 0hPa | 0V | 00:00:00 | 00:00:00 | 00:00:00 | |
| EA3GEO | 2026-08-30 23:45:56 | 41.51710 | 2.69252 | 68° | 71km/h | 14128m | 4.7m/s | 0°C | 0% | 0hPa | 0V | 00:00:00 | 00:00:00 | 00:00:00 | |
| EA3IBE | 2026-08-30 23:45:51 | 41.51670 | 2.69143 | 68° | 71km/h | 14106m | 3.8m/s | 0°C | 0% | 0hPa | 0V | 00:00:00 | 00:00:00 | 00:00:00 | |
| EA3GEO | 2026-08-30 23:45:49 | 41.51656 | 2.69102 | 66° | 64km/h | 14097m | 4.5m/s | 0°C | 0% | 0hPa | 0V | 00:00:00 | 00:00:00 | 00:00:00 | |
| EA3IBE | 2026-08-30 23:45:45 | 41.51628 | 2.69023 | 63° | 64km/h | 14079m | 5.1m/s | 0°C | 0% | 0hPa | 0V | 00:00:00 | 00:00:00 | 00:00:00 | |
| EA3GEO | 2026-08-30 23:45:43 | 41.51612 | 2.68982 | 67° | 71km/h | 14070m | 5.0m/s | 0°C | 0% | 0hPa | 0V | 00:00:00 | 00:00:00 | 00:00:00 | |
| EA3IBE | 2026-08-30 23:45:40 | 41.51592 | 2.68916 | 69° | 66km/h | 14056m | 2.9m/s | 0°C | 0% | 0hPa | 0V | 00:00:00 | 00:00:00 | 00:00:00 | |
| EA3GEO | 2026-08-30 23:45:37 | 41.51574 | 2.68855 | 68° | 62km/h | 14042m | 6.0m/s | 0°C | 0% | 0hPa | 0V | 00:00:00 | 00:00:00 | 00:00:00 | |
| EA3IBE | 2026-08-30 23:45:34 | 41.51552 | 2.68797 | 63° | 71km/h | 14028m | 3.8m/s | 0°C | 0% | 0hPa | 0V | 00:00:00 | 00:00:00 | 00:00:00 | |
| EA3GEO | 2026-08-30 23:45:32 | 41.51535 | 2.68754 | 64° | 68km/h | 14020m | 4.6m/s | 0°C | 0% | 0hPa | 0V | 00:00:00 | 00:00:00 | 00:00:00 | |
| EA3IBE | 2026-08-30 23:45:29 | 41.51515 | 2.68692 | 69° | 71km/h | 14006m | 5.1m/s | 0°C | 0% | 0hPa | 0V | 00:00:00 | 00:00:00 | 00:00:00 | |
| EA3GEO | 2026-08-30 23:45:24 | 41.51482 | 2.68588 | 69° | 68km/h | 13984m | 3.8m/s | 0°C | 0% | 0hPa | 0V | 00:00:00 | 00:00:00 | 00:00:00 | |
| EA3IBE | 2026-08-30 23:45:23 | 41.51476 | 2.68567 | 69° | 68km/h | 13979m | 5.2m/s | 0°C | 0% | 0hPa | 0V | 00:00:00 | 00:00:00 | 00:00:00 | |
| EA3IBE | 2026-08-30 23:45:18 | 41.51439 | 2.68458 | 68° | 69km/h | 13957m | 4.9m/s | 0°C | 0% | 0hPa | 0V | 00:00:00 | 00:00:00 | 00:00:00 | |
| EA3IBE | 2026-08-30 23:45:13 | 41.51406 | 2.68353 | 69° | 68km/h | 13935m | 5.7m/s | 0°C | 0% | 0hPa | 0V | 00:00:00 | 00:00:00 | 00:00:00 | |
| EA3GEO | 2026-08-30 23:45:12 | 41.51399 | 2.68332 | 69° | 69km/h | 13930m | 4.1m/s | 0°C | 0% | 0hPa | 0V | 00:00:00 | 00:00:00 | 00:00:00 | |
| EA3IBE | 2026-08-30 23:45:08 | 41.51371 | 2.68240 | 71° | 75km/h | 13911m | 3.8m/s | 0°C | 0% | 0hPa | 0V | 00:00:00 | 00:00:00 | 00:00:00 | |
| EA3GEO | 2026-08-30 23:45:04 | 41.51345 | 2.68145 | 73° | 69km/h | 13892m | 4.1m/s | 0°C | 0% | 0hPa | 0V | 00:00:00 | 00:00:00 | 00:00:00 | |
| EA3IBE | 2026-08-30 23:45:02 | 41.51332 | 2.68100 | 68° | 75km/h | 13883m | 4.5m/s | 0°C | 0% | 0hPa | 0V | 00:00:00 | 00:00:00 | 00:00:00 | |
| EA3IBE | 2026-08-30 23:44:57 | 41.51296 | 2.67982 | 70° | 78km/h | 13861m | 4.3m/s | 0°C | 0% | 0hPa | 0V | 00:00:00 | 00:00:00 | 00:00:00 | |
| EA3GEO | 2026-08-30 23:44:45 | 41.51212 | 2.67696 | 68° | 80km/h | 13803m | 6.1m/s | 0°C | 0% | 0hPa | 0V | 00:00:00 | 00:00:00 | 00:00:00 | |
| EA3IBE | 2026-08-30 23:44:44 | 41.51204 | 2.67671 | 70° | 80km/h | 13799m | 3.4m/s | 0°C | 0% | 0hPa | 0V | 00:00:00 | 00:00:00 | 00:00:00 | |
| EA3GEO | 2026-08-30 23:44:37 | 41.51155 | 2.67498 | 70° | 73km/h | 13766m | 5.4m/s | 0°C | 0% | 0hPa | 0V | 00:00:00 | 00:00:00 | 00:00:00 | |
| EA3IBE | 2026-08-30 23:44:31 | 41.51113 | 2.67347 | 72° | 86km/h | 13735m | 4.3m/s | 0°C | 0% | 0hPa | 0V | 00:00:00 | 00:00:00 | 00:00:00 | |
| EA3GEO | 2026-08-30 23:44:29 | 41.51099 | 2.67295 | 72° | 80km/h | 13725m | 4.7m/s | 0°C | 0% | 0hPa | 0V | 00:00:00 | 00:00:00 | 00:00:00 | |
| EA3IBE | 2026-08-30 23:44:25 | 41.51072 | 2.67190 | 69° | 80km/h | 13705m | 4.9m/s | 0°C | 0% | 0hPa | 0V | 00:00:00 | 00:00:00 | 00:00:00 | |
| EA3GEO | 2026-08-30 23:44:21 | 41.51044 | 2.67084 | 76° | 82km/h | 13687m | 5.4m/s | 0°C | 0% | 0hPa | 0V | 00:00:00 | 00:00:00 | 00:00:00 | |
| EA3IBE | 2026-08-30 23:44:20 | 41.51039 | 2.67057 | 75° | 84km/h | 13682m | 3.5m/s | 0°C | 0% | 0hPa | 0V | 00:00:00 | 00:00:00 | 00:00:00 | |
| EA3GEO | 2026-08-30 23:44:16 | 41.51010 | 2.66946 | 71° | 84km/h | 13665m | 4.2m/s | 0°C | 0% | 0hPa | 0V | 00:00:00 | 00:00:00 | 00:00:00 | |
| EA3IBE | 2026-08-30 23:44:13 | 41.50990 | 2.66865 | 72° | 82km/h | 13650m | 5.3m/s | 0°C | 0% | 0hPa | 0V | 00:00:00 | 00:00:00 | 00:00:00 | |
| EA3GEO | 2026-08-30 23:44:10 | 41.50972 | 2.66785 | 77° | 88km/h | 13636m | 5.1m/s | 0°C | 0% | 0hPa | 0V | 00:00:00 | 00:00:00 | 00:00:00 | |
| EA3IBE | 2026-08-30 23:44:08 | 41.50956 | 2.66702 | 74° | 80km/h | 13622m | 4.6m/s | 0°C | 0% | 0hPa | 0V | 00:00:00 | 00:00:00 | 00:00:00 | |
| EA3IBE | 2026-08-30 23:44:02 | 41.50927 | 2.66561 | 75° | 88km/h | 13597m | 4.9m/s | 0°C | 0% | 0hPa | 0V | 00:00:00 | 00:00:00 | 00:00:00 | |
| EA3GEO | 2026-08-30 23:43:57 | 41.50895 | 2.66416 | 74° | 88km/h | 13574m | 4.2m/s | 0°C | 0% | 0hPa | 0V | 00:00:00 | 00:00:00 | 00:00:00 | |
| EA3GEO | 2026-08-30 23:43:52 | 41.50867 | 2.66273 | 74° | 88km/h | 13550m | 3.6m/s | 0°C | 0% | 0hPa | 0V | 00:00:00 | 00:00:00 | 00:00:00 | |
| EA3IBE | 2026-08-30 23:43:51 | 41.50861 | 2.66244 | 74° | 89km/h | 13545m | 5.9m/s | 0°C | 0% | 0hPa | 0V | 00:00:00 | 00:00:00 | 00:00:00 | |
| EA3GEO | 2026-08-30 23:43:47 | 41.50832 | 2.66126 | 76° | 95km/h | 13526m | 5.8m/s | 0°C | 0% | 0hPa | 0V | 00:00:00 | 00:00:00 | 00:00:00 | |
| EA3IBE | 2026-08-30 23:43:45 | 41.50822 | 2.66064 | 80° | 91km/h | 13516m | 5.2m/s | 0°C | 0% | 0hPa | 0V | 00:00:00 | 00:00:00 | 00:00:00 | |
| EA3GEO | 2026-08-30 23:43:42 | 41.50806 | 2.65974 | 77° | 95km/h | 13502m | 4.9m/s | 0°C | 0% | 0hPa | 0V | 00:00:00 | 00:00:00 | 00:00:00 | |
| EA3IBE | 2026-08-30 23:43:40 | 41.50794 | 2.65912 | 76° | 91km/h | 13491m | 5.3m/s | 0°C | 0% | 0hPa | 0V | 00:00:00 | 00:00:00 | 00:00:00 | |
| EA3IBE | 2026-08-30 23:43:35 | 41.50764 | 2.65761 | 77° | 91km/h | 13467m | 3.7m/s | 0°C | 0% | 0hPa | 0V | 00:00:00 | 00:00:00 | 00:00:00 | |
| EA3IBE | 2026-08-30 23:43:26 | 41.50721 | 2.65482 | 83° | 91km/h | 13422m | 4.4m/s | 0°C | 0% | 0hPa | 0V | 00:00:00 | 00:00:00 | 00:00:00 | |
| EA3GEO | 2026-08-30 23:43:21 | 41.50697 | 2.65329 | 78° | 95km/h | 13398m | 5.8m/s | 0°C | 0% | 0hPa | 0V | 00:00:00 | 00:00:00 | 00:00:00 | |
| EA3IBE | 2026-08-30 23:43:19 | 41.50686 | 2.65264 | 79° | 99km/h | 13388m | 5.5m/s | 0°C | 0% | 0hPa | 0V | 00:00:00 | 00:00:00 | 00:00:00 | |
| EA3GEO | 2026-08-30 23:43:14 | 41.50663 | 2.65107 | 80° | 93km/h | 13364m | 5.2m/s | 0°C | 0% | 0hPa | 0V | 00:00:00 | 00:00:00 | 00:00:00 | |
| EA3IBE | 2026-08-30 23:43:08 | 41.50632 | 2.64914 | 78° | 100km/h | 13335m | 5.9m/s | 0°C | 0% | 0hPa | 0V | 00:00:00 | 00:00:00 | 00:00:00 | |
| EA3GEO | 2026-08-30 23:43:04 | 41.50608 | 2.64754 | 82° | 95km/h | 13309m | 3.8m/s | 0°C | 0% | 0hPa | 0V | 00:00:00 | 00:00:00 | 00:00:00 | |
| EA3IBE | 2026-08-30 23:43:03 | 41.50608 | 2.64754 | 82° | 95km/h | 13309m | 3.8m/s | 0°C | 0% | 0hPa | 0V | 00:00:00 | 00:00:00 | 00:00:00 | |
| EA3GEO | 2026-08-30 23:42:57 | 41.50578 | 2.64556 | 79° | 102km/h | 13280m | 5.6m/s | 0°C | 0% | 0hPa | 0V | 00:00:00 | 00:00:00 | 00:00:00 | |
| EA3IBE | 2026-08-30 23:42:52 | 41.50556 | 2.64392 | 79° | 97km/h | 13255m | 4.2m/s | 0°C | 0% | 0hPa | 0V | 00:00:00 | 00:00:00 | 00:00:00 | |
| EA3GEO | 2026-08-30 23:42:51 | 41.50551 | 2.64360 | 80° | 99km/h | 13250m | 5.9m/s | 0°C | 0% | 0hPa | 0V | 00:00:00 | 00:00:00 | 00:00:00 | |
| EA3IBE | 2026-08-30 23:42:46 | 41.50525 | 2.64194 | 79° | 102km/h | 13226m | 5.4m/s | 0°C | 0% | 0hPa | 0V | 00:00:00 | 00:00:00 | 00:00:00 | |
| EA3GEO | 2026-08-30 23:42:41 | 41.50497 | 2.64034 | 77° | 100km/h | 13201m | 3.4m/s | 0°C | 0% | 0hPa | 0V | 00:00:00 | 00:00:00 | 00:00:00 | |
| EA3IBE | 2026-08-30 23:42:39 | 41.50484 | 2.63968 | 76° | 99km/h | 13192m | 4.6m/s | 0°C | 0% | 0hPa | 0V | 00:00:00 | 00:00:00 | 00:00:00 | |
| EA3GEO | 2026-08-30 23:42:35 | 41.50462 | 2.63840 | 76° | 95km/h | 13171m | 3.8m/s | 0°C | 0% | 0hPa | 0V | 00:00:00 | 00:00:00 | 00:00:00 | |
| EA3IBE | 2026-08-30 23:42:34 | 41.50455 | 2.63808 | 75° | 97km/h | 13166m | 5.8m/s | 0°C | 0% | 0hPa | 0V | 00:00:00 | 00:00:00 | 00:00:00 | |
| EA3GEO | 2026-08-30 23:42:29 | 41.50421 | 2.63649 | 80° | 99km/h | 13142m | 5.4m/s | 0°C | 0% | 0hPa | 0V | 00:00:00 | 00:00:00 | 00:00:00 | |
| EA3IBE | 2026-08-30 23:42:28 | 41.50417 | 2.63616 | 81° | 100km/h | 13137m | 4.9m/s | 0°C | 0% | 0hPa | 0V | 00:00:00 | 00:00:00 | 00:00:00 | |
| EA3IBE | 2026-08-30 23:42:24 | 41.50389 | 2.63455 | 76° | 95km/h | 13112m | 5.2m/s | 0°C | 0% | 0hPa | 0V | 00:00:00 | 00:00:00 | 00:00:00 | |
| EA3IBE | 2026-08-30 23:42:17 | 41.50348 | 2.63262 | 75° | 93km/h | 13084m | 4.2m/s | 0°C | 0% | 0hPa | 0V | 00:00:00 | 00:00:00 | 00:00:00 | |
| EA3GEO | 2026-08-30 23:42:15 | 41.50336 | 2.63201 | 78° | 95km/h | 13075m | 4.9m/s | 0°C | 0% | 0hPa | 0V | 00:00:00 | 00:00:00 | 00:00:00 | |
| EA3IBE | 2026-08-30 23:42:10 | 41.50307 | 2.63043 | 78° | 95km/h | 13050m | 3.7m/s | 0°C | 0% | 0hPa | 0V | 00:00:00 | 00:00:00 | 00:00:00 | |
| EA3GEO | 2026-08-30 23:42:09 | 41.50302 | 2.63012 | 76° | 95km/h | 13045m | 6.1m/s | 0°C | 0% | 0hPa | 0V | 00:00:00 | 00:00:00 | 00:00:00 | |
| EA3IBE | 2026-08-30 23:42:05 | 41.50278 | 2.62883 | 79° | 102km/h | 13027m | 4.8m/s | 0°C | 0% | 0hPa | 0V | 00:00:00 | 00:00:00 | 00:00:00 | |
| EA3GEO | 2026-08-30 23:42:04 | 41.50272 | 2.62849 | 77° | 102km/h | 13021m | 5.2m/s | 0°C | 0% | 0hPa | 0V | 00:00:00 | 00:00:00 | 00:00:00 | |
| EA3GEO | 2026-08-30 23:41:59 | 41.50244 | 2.62690 | 78° | 97km/h | 12997m | 4.9m/s | 0°C | 0% | 0hPa | 0V | 00:00:00 | 00:00:00 | 00:00:00 | |
| EA3IBE | 2026-08-30 23:41:57 | 41.50234 | 2.62625 | 80° | 100km/h | 12987m | 4.8m/s | 0°C | 0% | 0hPa | 0V | 00:00:00 | 00:00:00 | 00:00:00 | |
| EA3GEO | 2026-08-30 23:41:53 | 41.50212 | 2.62492 | 80° | 97km/h | 12969m | 4.2m/s | 0°C | 0% | 0hPa | 0V | 00:00:00 | 00:00:00 | 00:00:00 | |
| EA3IBE | 2026-08-30 23:41:51 | 41.50201 | 2.62429 | 75° | 97km/h | 12959m | 4.9m/s | 0°C | 0% | 0hPa | 0V | 00:00:00 | 00:00:00 | 00:00:00 | |
| EA3GEO | 2026-08-30 23:41:47 | 41.50176 | 2.62302 | 77° | 102km/h | 12939m | 4.9m/s | 0°C | 0% | 0hPa | 0V | 00:00:00 | 00:00:00 | 00:00:00 | |
| EA3IBE | 2026-08-30 23:41:46 | 41.50171 | 2.62269 | 78° | 102km/h | 12934m | 4.4m/s | 0°C | 0% | 0hPa | 0V | 00:00:00 | 00:00:00 | 00:00:00 | |
| EA3GEO | 2026-08-30 23:41:41 | 41.50145 | 2.62109 | 77° | 93km/h | 12911m | 5.1m/s | 0°C | 0% | 0hPa | 0V | 00:00:00 | 00:00:00 | 00:00:00 | |
| EA3IBE | 2026-08-30 23:41:40 | 41.50139 | 2.62078 | 78° | 93km/h | 12906m | 4.7m/s | 0°C | 0% | 0hPa | 0V | 00:00:00 | 00:00:00 | 00:00:00 | |
| EA3IBE | 2026-08-30 23:41:35 | 41.50110 | 2.61914 | 79° | 102km/h | 12882m | 4.1m/s | 0°C | 0% | 0hPa | 0V | 00:00:00 | 00:00:00 | 00:00:00 | |
| EA3GEO | 2026-08-30 23:41:33 | 41.50098 | 2.61848 | 77° | 102km/h | 12873m | 4.2m/s | 0°C | 0% | 0hPa | 0V | 00:00:00 | 00:00:00 | 00:00:00 | |
| EA3IBE | 2026-08-30 23:41:30 | 41.50081 | 2.61750 | 80° | 95km/h | 12858m | 3.5m/s | 0°C | 0% | 0hPa | 0V | 00:00:00 | 00:00:00 | 00:00:00 | |
| EA3GEO | 2026-08-30 23:41:28 | 41.50071 | 2.61686 | 77° | 99km/h | 12849m | 4.4m/s | 0°C | 0% | 0hPa | 0V | 00:00:00 | 00:00:00 | 00:00:00 | |
| EA3IBE | 2026-08-30 23:41:24 | 41.50048 | 2.61555 | 76° | 97km/h | 12831m | 4.4m/s | 0°C | 0% | 0hPa | 0V | 00:00:00 | 00:00:00 | 00:00:00 | |
| EA3GEO | 2026-08-30 23:41:22 | 41.50036 | 2.61492 | 78° | 97km/h | 12821m | 5.3m/s | 0°C | 0% | 0hPa | 0V | 00:00:00 | 00:00:00 | 00:00:00 | |
| EA3IBE | 2026-08-30 23:41:18 | 41.50011 | 2.61362 | 77° | 102km/h | 12802m | 5.3m/s | 0°C | 0% | 0hPa | 0V | 00:00:00 | 00:00:00 | 00:00:00 | |
| EA3GEO | 2026-08-30 23:41:15 | 41.49991 | 2.61262 | 75° | 102km/h | 12788m | 3.9m/s | 0°C | 0% | 0hPa | 0V | 00:00:00 | 00:00:00 | 00:00:00 | |
| EA3IBE | 2026-08-30 23:41:12 | 41.49974 | 2.61165 | 77° | 97km/h | 12774m | 5.5m/s | 0°C | 0% | 0hPa | 0V | 00:00:00 | 00:00:00 | 00:00:00 | |
| EA3GEO | 2026-08-30 23:41:09 | 41.49954 | 2.61071 | 76° | 97km/h | 12759m | 4.3m/s | 0°C | 0% | 0hPa | 0V | 00:00:00 | 00:00:00 | 00:00:00 | |
| EA3IBE | 2026-08-30 23:41:07 | 41.49940 | 2.61008 | 73° | 99km/h | 12749m | 5.1m/s | 0°C | 0% | 0hPa | 0V | 00:00:00 | 00:00:00 | 00:00:00 | |
| EA3GEO | 2026-08-30 23:41:04 | 41.49917 | 2.60909 | 76° | 102km/h | 12736m | 4.1m/s | 0°C | 0% | 0hPa | 0V | 00:00:00 | 00:00:00 | 00:00:00 | |
| EA3IBE | 2026-08-30 23:41:00 | 41.49890 | 2.60783 | 76° | 97km/h | 12717m | 5.2m/s | 0°C | 0% | 0hPa | 0V | 00:00:00 | 00:00:00 | 00:00:00 | |
| EA3GEO | 2026-08-30 23:40:58 | 41.49876 | 2.60720 | 72° | 99km/h | 12707m | 5.0m/s | 0°C | 0% | 0hPa | 0V | 00:00:00 | 00:00:00 | 00:00:00 | |
| EA3IBE | 2026-08-30 23:40:55 | 41.49846 | 2.60592 | 76° | 100km/h | 12689m | 5.8m/s | 0°C | 0% | 0hPa | 0V | 00:00:00 | 00:00:00 | 00:00:00 | |
| EA3GEO | 2026-08-30 23:40:52 | 41.49832 | 2.60527 | 78° | 99km/h | 12680m | 5.4m/s | 0°C | 0% | 0hPa | 0V | 00:00:00 | 00:00:00 | 00:00:00 | |
| EA3IBE | 2026-08-30 23:40:49 | 41.49814 | 2.60432 | 72° | 97km/h | 12665m | 4.6m/s | 0°C | 0% | 0hPa | 0V | 00:00:00 | 00:00:00 | 00:00:00 | |
| EA3IBE | 2026-08-30 23:40:43 | 41.49768 | 2.60237 | 77° | 102km/h | 12638m | 5.7m/s | 0°C | 0% | 0hPa | 0V | 00:00:00 | 00:00:00 | 00:00:00 | |
| EA3GEO | 2026-08-30 23:40:39 | 41.49742 | 2.60112 | 72° | 95km/h | 12619m | 3.6m/s | 0°C | 0% | 0hPa | 0V | 00:00:00 | 00:00:00 | 00:00:00 | |
| EA3IBE | 2026-08-30 23:40:37 | 41.49727 | 2.60051 | 74° | 97km/h | 12610m | 3.8m/s | 0°C | 0% | 0hPa | 0V | 00:00:00 | 00:00:00 | 00:00:00 | |
| EA3GEO | 2026-08-30 23:40:32 | 41.49690 | 2.59885 | 76° | 100km/h | 12586m | 4.0m/s | 0°C | 0% | 0hPa | 0V | 00:00:00 | 00:00:00 | 00:00:00 | |
| EA3IBE | 2026-08-30 23:40:31 | 41.49684 | 2.59853 | 74° | 99km/h | 12582m | 5.2m/s | 0°C | 0% | 0hPa | 0V | 00:00:00 | 00:00:00 | 00:00:00 | |
| EA3GEO | 2026-08-30 23:40:27 | 41.49654 | 2.59731 | 73° | 100km/h | 12564m | 5.2m/s | 0°C | 0% | 0hPa | 0V | 00:00:00 | 00:00:00 | 00:00:00 | |
| EA3IBE | 2026-08-30 23:40:26 | 41.49646 | 2.59698 | 74° | 104km/h | 12560m | 3.4m/s | 0°C | 0% | 0hPa | 0V | 00:00:00 | 00:00:00 | 00:00:00 | |
| EA3GEO | 2026-08-30 23:40:22 | 41.49616 | 2.59563 | 73° | 106km/h | 12542m | 5.5m/s | 0°C | 0% | 0hPa | 0V | 00:00:00 | 00:00:00 | 00:00:00 | |
| EA3IBE | 2026-08-30 23:40:20 | 41.49600 | 2.59498 | 73° | 97km/h | 12533m | 5.9m/s | 0°C | 0% | 0hPa | 0V | 00:00:00 | 00:00:00 | 00:00:00 | |
| EA3GEO | 2026-08-30 23:40:16 | 41.49569 | 2.59379 | 72° | 97km/h | 12514m | 5.0m/s | 0°C | 0% | 0hPa | 0V | 00:00:00 | 00:00:00 | 00:00:00 | |
| EA3IBE | 2026-08-30 23:40:15 | 41.49561 | 2.59348 | 74° | 99km/h | 12510m | 4.1m/s | 0°C | 0% | 0hPa | 0V | 00:00:00 | 00:00:00 | 00:00:00 | |
| EA3GEO | 2026-08-30 23:40:10 | 41.49520 | 2.59184 | 74° | 102km/h | 12489m | 4.0m/s | 0°C | 0% | 0hPa | 0V | 00:00:00 | 00:00:00 | 00:00:00 | |
| EA3IBE | 2026-08-30 23:40:08 | 41.49505 | 2.59120 | 71° | 95km/h | 12481m | 4.3m/s | 0°C | 0% | 0hPa | 0V | 00:00:00 | 00:00:00 | 00:00:00 | |
| EA3GEO | 2026-08-30 23:40:05 | 41.49479 | 2.59027 | 69° | 102km/h | 12467m | 3.5m/s | 0°C | 0% | 0hPa | 0V | 00:00:00 | 00:00:00 | 00:00:00 | |
| EA3IBE | 2026-08-30 23:40:02 | 41.49449 | 2.58932 | 71° | 102km/h | 12454m | 5.2m/s | 0°C | 0% | 0hPa | 0V | 00:00:00 | 00:00:00 | 00:00:00 | |
| EA3GEO | 2026-08-30 23:39:59 | 41.49427 | 2.58834 | 74° | 99km/h | 12440m | 4.3m/s | 0°C | 0% | 0hPa | 0V | 00:00:00 | 00:00:00 | 00:00:00 | |
| EA3IBE | 2026-08-30 23:39:56 | 41.49404 | 2.58740 | 70° | 99km/h | 12427m | 3.9m/s | 0°C | 0% | 0hPa | 0V | 00:00:00 | 00:00:00 | 00:00:00 | |
| EA3GEO | 2026-08-30 23:39:54 | 41.49384 | 2.58679 | 65° | 97km/h | 12418m | 3.0m/s | 0°C | 0% | 0hPa | 0V | 00:00:00 | 00:00:00 | 00:00:00 | |
| EA3IBE | 2026-08-30 23:39:51 | 41.49352 | 2.58584 | 71° | 106km/h | 12406m | 4.2m/s | 0°C | 0% | 0hPa | 0V | 00:00:00 | 00:00:00 | 00:00:00 | |
| EA3GEO | 2026-08-30 23:39:48 | 41.49328 | 2.58488 | 73° | 97km/h | 12393m | 4.6m/s | 0°C | 0% | 0hPa | 0V | 00:00:00 | 00:00:00 | 00:00:00 | |
| EA3IBE | 2026-08-30 23:39:45 | 41.49302 | 2.58397 | 67° | 95km/h | 12380m | 5.7m/s | 0°C | 0% | 0hPa | 0V | 00:00:00 | 00:00:00 | 00:00:00 | |
| EA3IBE | 2026-08-30 23:39:40 | 41.49258 | 2.58243 | 74° | 99km/h | 12358m | 4.8m/s | 0°C | 0% | 0hPa | 0V | 00:00:00 | 00:00:00 | 00:00:00 | |
| EA3GEO | 2026-08-30 23:39:37 | 41.49234 | 2.58147 | 71° | 97km/h | 12346m | 5.0m/s | 0°C | 0% | 0hPa | 0V | 00:00:00 | 00:00:00 | 00:00:00 | |
| EA3IBE | 2026-08-30 23:39:35 | 41.49215 | 2.58087 | 66° | 97km/h | 12337m | 4.6m/s | 0°C | 0% | 0hPa | 0V | 00:00:00 | 00:00:00 | 00:00:00 | |
| EA3GEO | 2026-08-30 23:39:31 | 41.49177 | 2.57967 | 72° | 93km/h | 12320m | 4.0m/s | 0°C | 0% | 0hPa | 0V | 00:00:00 | 00:00:00 | 00:00:00 | |
| EA3IBE | 2026-08-30 23:39:29 | 41.49162 | 2.57905 | 73° | 102km/h | 12311m | 5.4m/s | 0°C | 0% | 0hPa | 0V | 00:00:00 | 00:00:00 | 00:00:00 | |
| EA3GEO | 2026-08-30 23:39:25 | 41.49127 | 2.57774 | 70° | 99km/h | 12293m | 4.2m/s | 0°C | 0% | 0hPa | 0V | 00:00:00 | 00:00:00 | 00:00:00 | |
| EA3IBE | 2026-08-30 23:39:24 | 41.49119 | 2.57743 | 71° | 100km/h | 12289m | 4.6m/s | 0°C | 0% | 0hPa | 0V | 00:00:00 | 00:00:00 | 00:00:00 | |
| EA3GEO | 2026-08-30 23:39:20 | 41.49087 | 2.57622 | 72° | 99km/h | 12271m | 6.0m/s | 0°C | 0% | 0hPa | 0V | 00:00:00 | 00:00:00 | 00:00:00 | |
| EA3IBE | 2026-08-30 23:39:19 | 41.49078 | 2.57589 | 73° | 108km/h | 12266m | 5.2m/s | 0°C | 0% | 0hPa | 0V | 00:00:00 | 00:00:00 | 00:00:00 | |
| EA3GEO | 2026-08-30 23:39:14 | 41.49042 | 2.57422 | 78° | 99km/h | 12243m | 4.5m/s | 0°C | 0% | 0hPa | 0V | 00:00:00 | 00:00:00 | 00:00:00 | |
| EA3IBE | 2026-08-30 23:39:13 | 41.49036 | 2.57390 | 75° | 97km/h | 12238m | 5.3m/s | 0°C | 0% | 0hPa | 0V | 00:00:00 | 00:00:00 | 00:00:00 | |
| EA3IBE | 2026-08-30 23:39:09 | 41.49001 | 2.57232 | 72° | 100km/h | 12217m | 3.5m/s | 0°C | 0% | 0hPa | 0V | 00:00:00 | 00:00:00 | 00:00:00 | |
| EA3IBE | 2026-08-30 23:39:03 | 41.48968 | 2.57072 | 76° | 102km/h | 12195m | 2.8m/s | 0°C | 0% | 0hPa | 0V | 00:00:00 | 00:00:00 | 00:00:00 | |
| EA3GEO | 2026-08-30 23:38:58 | 41.48936 | 2.56909 | 75° | 97km/h | 12174m | 5.1m/s | 0°C | 0% | 0hPa | 0V | 00:00:00 | 00:00:00 | 00:00:00 | |
| EA3GEO | 2026-08-30 23:38:52 | 41.48899 | 2.56725 | 78° | 99km/h | 12149m | 3.4m/s | 0°C | 0% | 0hPa | 0V | 00:00:00 | 00:00:00 | 00:00:00 | |
| EA3GEO | 2026-08-30 23:38:47 | 41.48865 | 2.56556 | 75° | 102km/h | 12128m | 5.4m/s | 0°C | 0% | 0hPa | 0V | 00:00:00 | 00:00:00 | 00:00:00 | |
| EA3IBE | 2026-08-30 23:38:43 | 41.48830 | 2.56401 | 75° | 99km/h | 12108m | 3.9m/s | 0°C | 0% | 0hPa | 0V | 00:00:00 | 00:00:00 | 00:00:00 | |
| EA3GEO | 2026-08-30 23:38:41 | 41.48823 | 2.56369 | 77° | 100km/h | 12103m | 5.6m/s | 0°C | 0% | 0hPa | 0V | 00:00:00 | 00:00:00 | 00:00:00 | |
| EA3IBE | 2026-08-30 23:38:36 | 41.48790 | 2.56203 | 75° | 102km/h | 12083m | 5.3m/s | 0°C | 0% | 0hPa | 0V | 00:00:00 | 00:00:00 | 00:00:00 | |
| EA3GEO | 2026-08-30 23:38:35 | 41.48783 | 2.56171 | 76° | 97km/h | 12078m | 4.2m/s | 0°C | 0% | 0hPa | 0V | 00:00:00 | 00:00:00 | 00:00:00 | |
| EA3IBE | 2026-08-30 23:38:31 | 41.48754 | 2.56045 | 75° | 99km/h | 12062m | 5.3m/s | 0°C | 0% | 0hPa | 0V | 00:00:00 | 00:00:00 | 00:00:00 | |
| EA3GEO | 2026-08-30 23:38:29 | 41.48741 | 2.55981 | 76° | 99km/h | 12054m | 4.6m/s | 0°C | 0% | 0hPa | 0V | 00:00:00 | 00:00:00 | 00:00:00 | |
| EA3IBE | 2026-08-30 23:38:25 | 41.48711 | 2.55853 | 74° | 102km/h | 12038m | 2.6m/s | 0°C | 0% | 0hPa | 0V | 00:00:00 | 00:00:00 | 00:00:00 | |
| EA3GEO | 2026-08-30 23:38:22 | 41.48689 | 2.55756 | 76° | 99km/h | 12024m | 4.9m/s | 0°C | 0% | 0hPa | 0V | 00:00:00 | 00:00:00 | 00:00:00 | |
| EA3IBE | 2026-08-30 23:38:20 | 41.48675 | 2.55691 | 75° | 100km/h | 12017m | 4.8m/s | 0°C | 0% | 0hPa | 0V | 00:00:00 | 00:00:00 | 00:00:00 | |
| EA3GEO | 2026-08-30 23:38:17 | 41.48655 | 2.55595 | 77° | 100km/h | 12005m | 4.4m/s | 0°C | 0% | 0hPa | 0V | 00:00:00 | 00:00:00 | 00:00:00 | |
| EA3IBE | 2026-08-30 23:38:14 | 41.48633 | 2.55495 | 73° | 102km/h | 11993m | 3.4m/s | 0°C | 0% | 0hPa | 0V | 00:00:00 | 00:00:00 | 00:00:00 | |
| EA3GEO | 2026-08-30 23:38:11 | 41.48610 | 2.55397 | 73° | 99km/h | 11980m | 4.9m/s | 0°C | 0% | 0hPa | 0V | 00:00:00 | 00:00:00 | 00:00:00 | |
| EA3IBE | 2026-08-30 23:38:08 | 41.48589 | 2.55300 | 76° | 99km/h | 11969m | 4.1m/s | 0°C | 0% | 0hPa | 0V | 00:00:00 | 00:00:00 | 00:00:00 | |
| EA3GEO | 2026-08-30 23:38:06 | 41.48575 | 2.55237 | 74° | 97km/h | 11960m | 3.7m/s | 0°C | 0% | 0hPa | 0V | 00:00:00 | 00:00:00 | 00:00:00 | |
| EA3IBE | 2026-08-30 23:38:03 | 41.48554 | 2.55142 | 72° | 99km/h | 11947m | 5.7m/s | 0°C | 0% | 0hPa | 0V | 00:00:00 | 00:00:00 | 00:00:00 | |
| EA3GEO | 2026-08-30 23:38:00 | 41.48531 | 2.55047 | 75° | 99km/h | 11934m | 4.0m/s | 0°C | 0% | 0hPa | 0V | 00:00:00 | 00:00:00 | 00:00:00 | |
| EA3IBE | 2026-08-30 23:37:57 | 41.48510 | 2.54954 | 74° | 97km/h | 11920m | 3.4m/s | 0°C | 0% | 0hPa | 0V | 00:00:00 | 00:00:00 | 00:00:00 | |
| EA3GEO | 2026-08-30 23:37:55 | 41.48495 | 2.54890 | 73° | 100km/h | 11912m | 3.3m/s | 0°C | 0% | 0hPa | 0V | 00:00:00 | 00:00:00 | 00:00:00 | |
| EA3IBE | 2026-08-30 23:37:52 | 41.48469 | 2.54794 | 72° | 104km/h | 11899m | 5.0m/s | 0°C | 0% | 0hPa | 0V | 00:00:00 | 00:00:00 | 00:00:00 | |
| EA3GEO | 2026-08-30 23:37:50 | 41.48453 | 2.54729 | 72° | 99km/h | 11891m | 5.0m/s | 0°C | 0% | 0hPa | 0V | 00:00:00 | 00:00:00 | 00:00:00 | |
| EA3IBE | 2026-08-30 23:37:47 | 41.48432 | 2.54636 | 76° | 95km/h | 11878m | 4.6m/s | 0°C | 0% | 0hPa | 0V | 00:00:00 | 00:00:00 | 00:00:00 | |
| EA3GEO | 2026-08-30 23:37:44 | 41.48410 | 2.54544 | 74° | 99km/h | 11865m | 4.3m/s | 0°C | 0% | 0hPa | 0V | 00:00:00 | 00:00:00 | 00:00:00 | |
| EA3IBE | 2026-08-30 23:37:41 | 41.48388 | 2.54447 | 73° | 100km/h | 11853m | 4.8m/s | 0°C | 0% | 0hPa | 0V | 00:00:00 | 00:00:00 | 00:00:00 | |
| EA3GEO | 2026-08-30 23:37:39 | 41.48372 | 2.54382 | 72° | 100km/h | 11845m | 4.1m/s | 0°C | 0% | 0hPa | 0V | 00:00:00 | 00:00:00 | 00:00:00 | |
| EA3IBE | 2026-08-30 23:37:36 | 41.48348 | 2.54287 | 72° | 99km/h | 11834m | 4.5m/s | 0°C | 0% | 0hPa | 0V | 00:00:00 | 00:00:00 | 00:00:00 | |
| EA3GEO | 2026-08-30 23:37:33 | 41.48321 | 2.54192 | 70° | 102km/h | 11821m | 3.2m/s | 0°C | 0% | 0hPa | 0V | 00:00:00 | 00:00:00 | 00:00:00 | |
| EA3IBE | 2026-08-30 23:37:30 | 41.48296 | 2.54097 | 74° | 100km/h | 11809m | 5.1m/s | 0°C | 0% | 0hPa | 0V | 00:00:00 | 00:00:00 | 00:00:00 | |
| EA3GEO | 2026-08-30 23:37:28 | 41.48282 | 2.54033 | 75° | 97km/h | 11801m | 4.5m/s | 0°C | 0% | 0hPa | 0V | 00:00:00 | 00:00:00 | 00:00:00 | |
| EA3IBE | 2026-08-30 23:37:25 | 41.48260 | 2.53942 | 73° | 97km/h | 11789m | 4.4m/s | 0°C | 0% | 0hPa | 0V | 00:00:00 | 00:00:00 | 00:00:00 | |
| EA3GEO | 2026-08-30 23:37:23 | 41.48244 | 2.53879 | 72° | 97km/h | 11780m | 5.2m/s | 0°C | 0% | 0hPa | 0V | 00:00:00 | 00:00:00 | 00:00:00 | |
| EA3IBE | 2026-08-30 23:37:19 | 41.48214 | 2.53752 | 73° | 99km/h | 11763m | 4.1m/s | 0°C | 0% | 0hPa | 0V | 00:00:00 | 00:00:00 | 00:00:00 | |
| EA3GEO | 2026-08-30 23:37:17 | 41.48197 | 2.53689 | 71° | 102km/h | 11755m | 4.9m/s | 0°C | 0% | 0hPa | 0V | 00:00:00 | 00:00:00 | 00:00:00 | |
| EA3IBE | 2026-08-30 23:37:14 | 41.48172 | 2.53593 | 72° | 97km/h | 11744m | 3.3m/s | 0°C | 0% | 0hPa | 0V | 00:00:00 | 00:00:00 | 00:00:00 | |
| EA3GEO | 2026-08-30 23:37:12 | 41.48158 | 2.53530 | 76° | 99km/h | 11735m | 3.1m/s | 0°C | 0% | 0hPa | 0V | 00:00:00 | 00:00:00 | 00:00:00 | |
| EA3GEO | 2026-08-30 23:37:06 | 41.48119 | 2.53342 | 72° | 97km/h | 11711m | 3.8m/s | 0°C | 0% | 0hPa | 0V | 00:00:00 | 00:00:00 | 00:00:00 | |
| EA3IBE | 2026-08-30 23:37:02 | 41.48088 | 2.53212 | 75° | 104km/h | 11696m | 4.7m/s | 0°C | 0% | 0hPa | 0V | 00:00:00 | 00:00:00 | 00:00:00 | |
| EA3GEO | 2026-08-30 23:37:00 | 41.48073 | 2.53148 | 74° | 97km/h | 11688m | 3.6m/s | 0°C | 0% | 0hPa | 0V | 00:00:00 | 00:00:00 | 00:00:00 | |
| EA3IBE | 2026-08-30 23:36:56 | 41.48045 | 2.53022 | 74° | 99km/h | 11672m | 2.8m/s | 0°C | 0% | 0hPa | 0V | 00:00:00 | 00:00:00 | 00:00:00 | |
| EA3GEO | 2026-08-30 23:36:54 | 41.48029 | 2.52956 | 73° | 106km/h | 11664m | 3.5m/s | 0°C | 0% | 0hPa | 0V | 00:00:00 | 00:00:00 | 00:00:00 | |
| EA3IBE | 2026-08-30 23:36:50 | 41.47995 | 2.52823 | 75° | 102km/h | 11649m | 4.0m/s | 0°C | 0% | 0hPa | 0V | 00:00:00 | 00:00:00 | 00:00:00 | |
| EA3GEO | 2026-08-30 23:36:48 | 41.47982 | 2.52759 | 74° | 95km/h | 11640m | 4.4m/s | 0°C | 0% | 0hPa | 0V | 00:00:00 | 00:00:00 | 00:00:00 | |
| EA3IBE | 2026-08-30 23:36:45 | 41.47962 | 2.52666 | 77° | 102km/h | 11627m | 3.6m/s | 0°C | 0% | 0hPa | 0V | 00:00:00 | 00:00:00 | 00:00:00 | |
| EA3GEO | 2026-08-30 23:36:42 | 41.47939 | 2.52566 | 72° | 104km/h | 11615m | 4.5m/s | 0°C | 0% | 0hPa | 0V | 00:00:00 | 00:00:00 | 00:00:00 | |
| EA3IBE | 2026-08-30 23:36:40 | 41.47923 | 2.52500 | 73° | 102km/h | 11606m | 4.0m/s | 0°C | 0% | 0hPa | 0V | 00:00:00 | 00:00:00 | 00:00:00 | |
| EA3GEO | 2026-08-30 23:36:36 | 41.47892 | 2.52375 | 76° | 99km/h | 11590m | 3.7m/s | 0°C | 0% | 0hPa | 0V | 00:00:00 | 00:00:00 | 00:00:00 | |
| EA3IBE | 2026-08-30 23:36:34 | 41.47877 | 2.52312 | 74° | 100km/h | 11581m | 3.0m/s | 0°C | 0% | 0hPa | 0V | 00:00:00 | 00:00:00 | 00:00:00 | |
| EA3GEO | 2026-08-30 23:36:30 | 41.47847 | 2.52178 | 71° | 100km/h | 11565m | 3.5m/s | 0°C | 0% | 0hPa | 0V | 00:00:00 | 00:00:00 | 00:00:00 | |
| EA3IBE | 2026-08-30 23:36:29 | 41.47838 | 2.52146 | 71° | 102km/h | 11561m | 4.6m/s | 0°C | 0% | 0hPa | 0V | 00:00:00 | 00:00:00 | 00:00:00 | |
| EA3IBE | 2026-08-30 23:36:24 | 41.47796 | 2.51987 | 73° | 102km/h | 11541m | 4.1m/s | 0°C | 0% | 0hPa | 0V | 00:00:00 | 00:00:00 | 00:00:00 | |
| EA3GEO | 2026-08-30 23:36:19 | 41.47762 | 2.51821 | 77° | 102km/h | 11521m | 4.5m/s | 0°C | 0% | 0hPa | 0V | 00:00:00 | 00:00:00 | 00:00:00 | |
| EA3IBE | 2026-08-30 23:36:18 | 41.47756 | 2.51788 | 78° | 104km/h | 11517m | 2.5m/s | 0°C | 0% | 0hPa | 0V | 00:00:00 | 00:00:00 | 00:00:00 | |
| EA3GEO | 2026-08-30 23:36:13 | 41.47715 | 2.51628 | 67° | 102km/h | 11497m | 3.8m/s | 0°C | 0% | 0hPa | 0V | 00:00:00 | 00:00:00 | 00:00:00 | |
| EA3IBE | 2026-08-30 23:36:12 | 41.47705 | 2.51596 | 67° | 102km/h | 11493m | 4.5m/s | 0°C | 0% | 0hPa | 0V | 00:00:00 | 00:00:00 | 00:00:00 | |
| EA3GEO | 2026-08-30 23:36:08 | 41.47669 | 2.51471 | 75° | 99km/h | 11477m | 4.9m/s | 0°C | 0% | 0hPa | 0V | 00:00:00 | 00:00:00 | 00:00:00 | |
| EA3IBE | 2026-08-30 23:36:07 | 41.47663 | 2.51440 | 74° | 95km/h | 11472m | 3.3m/s | 0°C | 0% | 0hPa | 0V | 00:00:00 | 00:00:00 | 00:00:00 | |
| EA3GEO | 2026-08-30 23:36:03 | 41.47631 | 2.51315 | 69° | 99km/h | 11456m | 2.7m/s | 0°C | 0% | 0hPa | 0V | 00:00:00 | 00:00:00 | 00:00:00 | |
| EA3IBE | 2026-08-30 23:36:01 | 41.47613 | 2.51253 | 71° | 102km/h | 11447m | 4.7m/s | 0°C | 0% | 0hPa | 0V | 00:00:00 | 00:00:00 | 00:00:00 | |
| EA3GEO | 2026-08-30 23:35:57 | 41.47581 | 2.51125 | 77° | 100km/h | 11431m | 4.2m/s | 0°C | 0% | 0hPa | 0V | 00:00:00 | 00:00:00 | 00:00:00 | |
| EA3IBE | 2026-08-30 23:35:54 | 41.47561 | 2.51030 | 75° | 95km/h | 11421m | 4.1m/s | 0°C | 0% | 0hPa | 0V | 00:00:00 | 00:00:00 | 00:00:00 | |
| EA3GEO | 2026-08-30 23:35:52 | 41.47547 | 2.50967 | 75° | 100km/h | 11411m | 4.3m/s | 0°C | 0% | 0hPa | 0V | 00:00:00 | 00:00:00 | 00:00:00 | |
| EA3IBE | 2026-08-30 23:35:49 | 41.47525 | 2.50872 | 73° | 99km/h | 11398m | 4.8m/s | 0°C | 0% | 0hPa | 0V | 00:00:00 | 00:00:00 | 00:00:00 | |
| EA3GEO | 2026-08-30 23:35:47 | 41.47508 | 2.50807 | 73° | 102km/h | 11390m | 4.3m/s | 0°C | 0% | 0hPa | 0V | 00:00:00 | 00:00:00 | 00:00:00 | |
| EA3IBE | 2026-08-30 23:35:43 | 41.47477 | 2.50680 | 74° | 100km/h | 11373m | 4.0m/s | 0°C | 0% | 0hPa | 0V | 00:00:00 | 00:00:00 | 00:00:00 | |
| EA3GEO | 2026-08-30 23:35:41 | 41.47462 | 2.50618 | 74° | 97km/h | 11364m | 3.1m/s | 0°C | 0% | 0hPa | 0V | 00:00:00 | 00:00:00 | 00:00:00 | |
| EA3IBE | 2026-08-30 23:35:38 | 41.47442 | 2.50520 | 78° | 100km/h | 11352m | 5.8m/s | 0°C | 0% | 0hPa | 0V | 00:00:00 | 00:00:00 | 00:00:00 | |
| EA3GEO | 2026-08-30 23:35:35 | 41.47423 | 2.50423 | 75° | 102km/h | 11339m | 4.7m/s | 0°C | 0% | 0hPa | 0V | 00:00:00 | 00:00:00 | 00:00:00 | |
| EA3IBE | 2026-08-30 23:35:31 | 41.47394 | 2.50297 | 74° | 99km/h | 11324m | 3.6m/s | 0°C | 0% | 0hPa | 0V | 00:00:00 | 00:00:00 | 00:00:00 | |
| EA3GEO | 2026-08-30 23:35:28 | 41.47373 | 2.50202 | 73° | 97km/h | 11312m | 4.2m/s | 0°C | 0% | 0hPa | 0V | 00:00:00 | 00:00:00 | 00:00:00 | |
| EA3GEO | 2026-08-30 23:35:23 | 41.47334 | 2.50041 | 73° | 100km/h | 11289m | 4.5m/s | 0°C | 0% | 0hPa | 0V | 00:00:00 | 00:00:00 | 00:00:00 | |
| EA3GEO | 2026-08-30 23:35:17 | 41.47297 | 2.49852 | 76° | 100km/h | 11264m | 3.6m/s | 0°C | 0% | 0hPa | 0V | 00:00:00 | 00:00:00 | 00:00:00 | |
| EA3GEO | 2026-08-30 23:35:11 | 41.47251 | 2.49659 | 72° | 97km/h | 11240m | 2.5m/s | 0°C | 0% | 0hPa | 0V | 00:00:00 | 00:00:00 | 00:00:00 | |
| EA3GEO | 2026-08-30 23:35:05 | 41.47210 | 2.49465 | 75° | 102km/h | 11217m | 3.6m/s | 0°C | 0% | 0hPa | 0V | 00:00:00 | 00:00:00 | 00:00:00 | |
| EA3GEO | 2026-08-30 23:34:59 | 41.47161 | 2.49279 | 72° | 95km/h | 11193m | 6.6m/s | 0°C | 0% | 0hPa | 0V | 00:00:00 | 00:00:00 | 00:00:00 | |
| EA3GEO | 2026-08-30 23:34:54 | 41.47124 | 2.49125 | 73° | 95km/h | 11170m | 4.4m/s | 0°C | 0% | 0hPa | 0V | 00:00:00 | 00:00:00 | 00:00:00 | |
| EA3GEO | 2026-08-30 23:34:48 | 41.47077 | 2.48942 | 70° | 89km/h | 11145m | 5.0m/s | 0°C | 0% | 0hPa | 0V | 00:00:00 | 00:00:00 | 00:00:00 | |
| EA3GEO | 2026-08-30 23:34:43 | 41.47040 | 2.48797 | 75° | 91km/h | 11123m | 4.1m/s | 0°C | 0% | 0hPa | 0V | 00:00:00 | 00:00:00 | 00:00:00 | |
| EA3IBE | 2026-08-30 23:34:41 | 41.47028 | 2.48734 | 76° | 97km/h | 11114m | 3.0m/s | 0°C | 0% | 0hPa | 0V | 00:00:00 | 00:00:00 | 00:00:00 | |
| EA3GEO | 2026-08-30 23:34:38 | 41.47005 | 2.48647 | 69° | 86km/h | 11101m | 5.6m/s | 0°C | 0% | 0hPa | 0V | 00:00:00 | 00:00:00 | 00:00:00 | |
| EA3GEO | 2026-08-30 23:34:33 | 41.46966 | 2.48510 | 74° | 89km/h | 11080m | 5.2m/s | 0°C | 0% | 0hPa | 0V | 00:00:00 | 00:00:00 | 00:00:00 | |
| EA3GEO | 2026-08-30 23:34:27 | 41.46922 | 2.48333 | 71° | 91km/h | 11055m | 4.7m/s | 0°C | 0% | 0hPa | 0V | 00:00:00 | 00:00:00 | 00:00:00 | |
| EA3GEO | 2026-08-30 23:34:21 | 41.46875 | 2.48156 | 70° | 95km/h | 11029m | 3.4m/s | 0°C | 0% | 0hPa | 0V | 00:00:00 | 00:00:00 | 00:00:00 | |
| EA3GEO | 2026-08-30 23:34:15 | 41.46822 | 2.47990 | 70° | 88km/h | 11003m | 4.2m/s | 0°C | 0% | 0hPa | 0V | 00:00:00 | 00:00:00 | 00:00:00 | |
| EA3GEO | 2026-08-30 23:34:09 | 41.46767 | 2.47818 | 69° | 86km/h | 10978m | 3.6m/s | 0°C | 0% | 0hPa | 0V | 00:00:00 | 00:00:00 | 00:00:00 | |
| EA3IBE | 2026-08-30 23:34:08 | 41.46758 | 2.47790 | 68° | 91km/h | 10974m | 4.2m/s | 0°C | 0% | 0hPa | 0V | 00:00:00 | 00:00:00 | 00:00:00 | |
| EA3GEO | 2026-08-30 23:34:03 | 41.46714 | 2.47651 | 68° | 91km/h | 10954m | 4.4m/s | 0°C | 0% | 0hPa | 0V | 00:00:00 | 00:00:00 | 00:00:00 | |
| EA3IBE | 2026-08-30 23:34:01 | 41.46696 | 2.47593 | 67° | 91km/h | 10947m | 4.7m/s | 0°C | 0% | 0hPa | 0V | 00:00:00 | 00:00:00 | 00:00:00 | |
| EA3GEO | 2026-08-30 23:33:57 | 41.46660 | 2.47478 | 70° | 91km/h | 10930m | 6.2m/s | 0°C | 0% | 0hPa | 0V | 00:00:00 | 00:00:00 | 00:00:00 | |
| EA3IBE | 2026-08-30 23:33:52 | 41.46612 | 2.47336 | 65° | 93km/h | 10909m | 4.7m/s | 0°C | 0% | 0hPa | 0V | 00:00:00 | 00:00:00 | 00:00:00 | |
| EA3GEO | 2026-08-30 23:33:51 | 41.46602 | 2.47308 | 68° | 97km/h | 10905m | 5.1m/s | 0°C | 0% | 0hPa | 0V | 00:00:00 | 00:00:00 | 00:00:00 | |
| EA3IBE | 2026-08-30 23:33:47 | 41.46569 | 2.47195 | 68° | 88km/h | 10886m | 3.8m/s | 0°C | 0% | 0hPa | 0V | 00:00:00 | 00:00:00 | 00:00:00 | |
| EA3GEO | 2026-08-30 23:33:46 | 41.46561 | 2.47168 | 70° | 89km/h | 10883m | 3.9m/s | 0°C | 0% | 0hPa | 0V | 00:00:00 | 00:00:00 | 00:00:00 | |
| EA3IBE | 2026-08-30 23:33:40 | 41.46508 | 2.47002 | 66° | 93km/h | 10859m | 5.8m/s | 0°C | 0% | 0hPa | 0V | 00:00:00 | 00:00:00 | 00:00:00 | |
| EA3GEO | 2026-08-30 23:33:35 | 41.46464 | 2.46862 | 69° | 89km/h | 10838m | 4.0m/s | 0°C | 0% | 0hPa | 0V | 00:00:00 | 00:00:00 | 00:00:00 | |
| EA3IBE | 2026-08-30 23:33:34 | 41.46455 | 2.46836 | 64° | 88km/h | 10834m | 4.8m/s | 0°C | 0% | 0hPa | 0V | 00:00:00 | 00:00:00 | 00:00:00 | |
| EA3GEO | 2026-08-30 23:33:30 | 41.46417 | 2.46731 | 63° | 86km/h | 10818m | 3.5m/s | 0°C | 0% | 0hPa | 0V | 00:00:00 | 00:00:00 | 00:00:00 | |
| EA3IBE | 2026-08-30 23:33:27 | 41.46391 | 2.46654 | 71° | 86km/h | 10805m | 5.9m/s | 0°C | 0% | 0hPa | 0V | 00:00:00 | 00:00:00 | 00:00:00 | |
| EA3GEO | 2026-08-30 23:33:24 | 41.46365 | 2.46572 | 68° | 86km/h | 10791m | 4.4m/s | 0°C | 0% | 0hPa | 0V | 00:00:00 | 00:00:00 | 00:00:00 | |
| EA3IBE | 2026-08-30 23:33:21 | 41.46337 | 2.46493 | 65° | 88km/h | 10780m | 4.8m/s | 0°C | 0% | 0hPa | 0V | 00:00:00 | 00:00:00 | 00:00:00 | |
| EA3GEO | 2026-08-30 23:33:19 | 41.46320 | 2.46440 | 71° | 91km/h | 10770m | 5.8m/s | 0°C | 0% | 0hPa | 0V | 00:00:00 | 00:00:00 | 00:00:00 | |
| EA3GEO | 2026-08-30 23:33:13 | 41.46271 | 2.46280 | 67° | 91km/h | 10745m | 3.1m/s | 0°C | 0% | 0hPa | 0V | 00:00:00 | 00:00:00 | 00:00:00 | |
| EA3IBE | 2026-08-30 23:33:08 | 41.46230 | 2.46148 | 67° | 82km/h | 10721m | 5.3m/s | 0°C | 0% | 0hPa | 0V | 00:00:00 | 00:00:00 | 00:00:00 | |
| EA3GEO | 2026-08-30 23:33:06 | 41.46215 | 2.46094 | 72° | 86km/h | 10711m | 4.5m/s | 0°C | 0% | 0hPa | 0V | 00:00:00 | 00:00:00 | 00:00:00 | |
| EA3GEO | 2026-08-30 23:33:01 | 41.46177 | 2.45960 | 67° | 89km/h | 10691m | 5.8m/s | 0°C | 0% | 0hPa | 0V | 00:00:00 | 00:00:00 | 00:00:00 | |
| EA3GEO | 2026-08-30 23:32:56 | 41.46133 | 2.45829 | 69° | 78km/h | 10668m | 4.2m/s | 0°C | 0% | 0hPa | 0V | 00:00:00 | 00:00:00 | 00:00:00 | |
| EA3IBE | 2026-08-30 23:32:53 | 41.46110 | 2.45750 | 71° | 88km/h | 10655m | 4.2m/s | 0°C | 0% | 0hPa | 0V | 00:00:00 | 00:00:00 | 00:00:00 | |
| EA3GEO | 2026-08-30 23:32:50 | 41.46087 | 2.45668 | 71° | 88km/h | 10641m | 5.7m/s | 0°C | 0% | 0hPa | 0V | 00:00:00 | 00:00:00 | 00:00:00 | |
| EA3GEO | 2026-08-30 23:32:44 | 41.46037 | 2.45514 | 70° | 80km/h | 10613m | 4.3m/s | 0°C | 0% | 0hPa | 0V | 00:00:00 | 00:00:00 | 00:00:00 | |
| EA3IBE | 2026-08-30 23:32:41 | 41.46014 | 2.45434 | 70° | 91km/h | 10601m | 5.5m/s | 0°C | 0% | 0hPa | 0V | 00:00:00 | 00:00:00 | 00:00:00 | |
| EA3GEO | 2026-08-30 23:32:38 | 41.45989 | 2.45350 | 70° | 82km/h | 10589m | 5.4m/s | 0°C | 0% | 0hPa | 0V | 00:00:00 | 00:00:00 | 00:00:00 | |
| EA3IBE | 2026-08-30 23:32:36 | 41.45975 | 2.45302 | 67° | 73km/h | 10579m | 5.4m/s | 0°C | 0% | 0hPa | 0V | 00:00:00 | 00:00:00 | 00:00:00 | |
| EA3GEO | 2026-08-30 23:32:33 | 41.45953 | 2.45230 | 75° | 80km/h | 10563m | 8.8m/s | 0°C | 0% | 0hPa | 0V | 00:00:00 | 00:00:00 | 00:00:00 | |
| EA3IBE | 2026-08-30 23:32:31 | 41.45940 | 2.45178 | 71° | 82km/h | 10545m | 9.0m/s | 0°C | 0% | 0hPa | 0V | 00:00:00 | 00:00:00 | 00:00:00 | |
| EA3GEO | 2026-08-30 23:32:27 | 41.45910 | 2.45078 | 65° | 78km/h | 10521m | 4.8m/s | 0°C | 0% | 0hPa | 0V | 00:00:00 | 00:00:00 | 00:00:00 | |
| EA3IBE | 2026-08-30 23:32:22 | 41.45870 | 2.44955 | 69° | 80km/h | 10485m | 6.2m/s | 0°C | 0% | 0hPa | 0V | 00:00:00 | 00:00:00 | 00:00:00 | |
| EA3GEO | 2026-08-30 23:32:20 | 41.45854 | 2.44905 | 66° | 80km/h | 10474m | 4.5m/s | 0°C | 0% | 0hPa | 0V | 00:00:00 | 00:00:00 | 00:00:00 | |
| EA3IBE | 2026-08-30 23:32:16 | 41.45822 | 2.44804 | 75° | 89km/h | 10451m | 5.7m/s | 0°C | 0% | 0hPa | 0V | 00:00:00 | 00:00:00 | 00:00:00 | |
| EA3GEO | 2026-08-30 23:32:15 | 41.45816 | 2.44775 | 79° | 89km/h | 10445m | 8.2m/s | 0°C | 0% | 0hPa | 0V | 00:00:00 | 00:00:00 | 00:00:00 | |
| EA3IBE | 2026-08-30 23:32:11 | 41.45795 | 2.44661 | 74° | 84km/h | 10415m | 7.5m/s | 0°C | 0% | 0hPa | 0V | 00:00:00 | 00:00:00 | 00:00:00 | |
| EA3GEO | 2026-08-30 23:32:09 | 41.45779 | 2.44606 | 70° | 88km/h | 10403m | 5.0m/s | 0°C | 0% | 0hPa | 0V | 00:00:00 | 00:00:00 | 00:00:00 | |
| EA3GEO | 2026-08-30 23:32:04 | 41.45742 | 2.44474 | 80° | 82km/h | 10374m | 8.7m/s | 0°C | 0% | 0hPa | 0V | 00:00:00 | 00:00:00 | 00:00:00 | |
| EA3IBE | 2026-08-30 23:32:03 | 41.45738 | 2.44447 | 78° | 82km/h | 10365m | 7.7m/s | 0°C | 0% | 0hPa | 0V | 00:00:00 | 00:00:00 | 00:00:00 | |
| EA3GEO | 2026-08-30 23:31:59 | 41.45717 | 2.44338 | 74° | 84km/h | 10342m | 4.3m/s | 0°C | 0% | 0hPa | 0V | 00:00:00 | 00:00:00 | 00:00:00 | |
| EA3IBE | 2026-08-30 23:31:54 | 41.45685 | 2.44194 | 74° | 89km/h | 10320m | 5.7m/s | 0°C | 0% | 0hPa | 0V | 00:00:00 | 00:00:00 | 00:00:00 | |
| EA3GEO | 2026-08-30 23:31:53 | 41.45677 | 2.44166 | 70° | 88km/h | 10315m | 4.0m/s | 0°C | 0% | 0hPa | 0V | 00:00:00 | 00:00:00 | 00:00:00 | |
| EA3IBE | 2026-08-30 23:31:47 | 41.45640 | 2.44000 | 72° | 88km/h | 10291m | 4.5m/s | 0°C | 0% | 0hPa | 0V | 00:00:00 | 00:00:00 | 00:00:00 | |
| EA3IBE | 2026-08-30 23:31:42 | 41.45607 | 2.43865 | 74° | 82km/h | 10270m | 3.8m/s | 0°C | 0% | 0hPa | 0V | 00:00:00 | 00:00:00 | 00:00:00 | |
| EA3GEO | 2026-08-30 23:31:36 | 41.45564 | 2.43697 | 71° | 84km/h | 10246m | 6.3m/s | 0°C | 0% | 0hPa | 0V | 00:00:00 | 00:00:00 | 00:00:00 | |
| EA3IBE | 2026-08-30 23:31:34 | 41.45551 | 2.43643 | 74° | 82km/h | 10237m | 5.5m/s | 0°C | 0% | 0hPa | 0V | 00:00:00 | 00:00:00 | 00:00:00 | |
| EA3GEO | 2026-08-30 23:31:30 | 41.45530 | 2.43534 | 77° | 88km/h | 10220m | 3.4m/s | 0°C | 0% | 0hPa | 0V | 00:00:00 | 00:00:00 | 00:00:00 | |
| EA3IBE | 2026-08-30 23:31:28 | 41.45518 | 2.43479 | 75° | 82km/h | 10211m | 6.0m/s | 0°C | 0% | 0hPa | 0V | 00:00:00 | 00:00:00 | 00:00:00 | |
| EA3GEO | 2026-08-30 23:31:25 | 41.45497 | 2.43395 | 74° | 86km/h | 10198m | 6.3m/s | 0°C | 0% | 0hPa | 0V | 00:00:00 | 00:00:00 | 00:00:00 | |
| EA3IBE | 2026-08-30 23:31:22 | 41.45480 | 2.43314 | 76° | 84km/h | 10184m | 3.5m/s | 0°C | 0% | 0hPa | 0V | 00:00:00 | 00:00:00 | 00:00:00 | |
| EA3GEO | 2026-08-30 23:31:19 | 41.45460 | 2.43233 | 70° | 86km/h | 10171m | 3.4m/s | 0°C | 0% | 0hPa | 0V | 00:00:00 | 00:00:00 | 00:00:00 | |
| EA3IBE | 2026-08-30 23:31:15 | 41.45432 | 2.43125 | 71° | 86km/h | 10156m | 3.3m/s | 0°C | 0% | 0hPa | 0V | 00:00:00 | 00:00:00 | 00:00:00 | |
| EA3GEO | 2026-08-30 23:31:11 | 41.45407 | 2.43019 | 71° | 80km/h | 10138m | 3.9m/s | 0°C | 0% | 0hPa | 0V | 00:00:00 | 00:00:00 | 00:00:00 | |
| EA3IBE | 2026-08-30 23:31:07 | 41.45379 | 2.42913 | 69° | 86km/h | 10121m | 3.2m/s | 0°C | 0% | 0hPa | 0V | 00:00:00 | 00:00:00 | 00:00:00 | |
| EA3GEO | 2026-08-30 23:31:04 | 41.45356 | 2.42829 | 72° | 89km/h | 10108m | 4.3m/s | 0°C | 0% | 0hPa | 0V | 00:00:00 | 00:00:00 | 00:00:00 | |
| EA3GEO | 2026-08-30 23:30:58 | 41.45317 | 2.42667 | 70° | 84km/h | 10081m | 4.3m/s | 0°C | 0% | 0hPa | 0V | 00:00:00 | 00:00:00 | 00:00:00 | |
| EA3IBE | 2026-08-30 23:30:53 | 41.45279 | 2.42531 | 71° | 88km/h | 10057m | 5.8m/s | 0°C | 0% | 0hPa | 0V | 00:00:00 | 00:00:00 | 00:00:00 | |
| EA3GEO | 2026-08-30 23:30:50 | 41.45257 | 2.42447 | 71° | 86km/h | 10045m | 4.6m/s | 0°C | 0% | 0hPa | 0V | 00:00:00 | 00:00:00 | 00:00:00 | |
| EA3IBE | 2026-08-30 23:30:47 | 41.45236 | 2.42370 | 72° | 80km/h | 10030m | 3.4m/s | 0°C | 0% | 0hPa | 0V | 00:00:00 | 00:00:00 | 00:00:00 | |
| EA3GEO | 2026-08-30 23:30:40 | 41.45178 | 2.42174 | 74° | 89km/h | 9999m | 5.2m/s | 0°C | 0% | 0hPa | 0V | 00:00:00 | 00:00:00 | 00:00:00 | |
| EA3IBE | 2026-08-30 23:30:38 | 41.45164 | 2.42119 | 71° | 84km/h | 9991m | 1.3m/s | 0°C | 0% | 0hPa | 0V | 00:00:00 | 00:00:00 | 00:00:00 | |
| EA3GEO | 2026-08-30 23:30:34 | 41.45139 | 2.42015 | 74° | 84km/h | 9971m | 6.6m/s | 0°C | 0% | 0hPa | 0V | 00:00:00 | 00:00:00 | 00:00:00 | |
| EA3IBE | 2026-08-30 23:30:33 | 41.45133 | 2.41988 | 75° | 84km/h | 9965m | 5.7m/s | 0°C | 0% | 0hPa | 0V | 00:00:00 | 00:00:00 | 00:00:00 | |
| EA3IBE | 2026-08-30 23:30:25 | 41.45089 | 2.41759 | 70° | 93km/h | 9909m | 5.3m/s | 0°C | 0% | 0hPa | 0V | 00:00:00 | 00:00:00 | 00:00:00 | |
| EA3IBE | 2026-08-30 23:30:18 | 41.45040 | 2.41554 | 73° | 89km/h | 9872m | 4.5m/s | 0°C | 0% | 0hPa | 0V | 00:00:00 | 00:00:00 | 00:00:00 | |
| EA3IBE | 2026-08-30 23:30:13 | 41.45003 | 2.41418 | 75° | 82km/h | 9841m | 7.0m/s | 0°C | 0% | 0hPa | 0V | 00:00:00 | 00:00:00 | 00:00:00 | |
| EA3IBE | 2026-08-30 23:30:07 | 41.44969 | 2.41250 | 75° | 95km/h | 9800m | 2.9m/s | 0°C | 0% | 0hPa | 0V | 00:00:00 | 00:00:00 | 00:00:00 | |
| EA3IBE | 2026-08-30 23:29:59 | 41.44912 | 2.41015 | 70° | 93km/h | 9760m | 4.2m/s | 0°C | 0% | 0hPa | 0V | 00:00:00 | 00:00:00 | 00:00:00 | |
| EA3IBE | 2026-08-30 23:29:51 | 41.44855 | 2.40787 | 73° | 91km/h | 9717m | 6.9m/s | 0°C | 0% | 0hPa | 0V | 00:00:00 | 00:00:00 | 00:00:00 | |
| EA3IBE | 2026-08-30 23:29:45 | 41.44814 | 2.40615 | 74° | 78km/h | 9680m | 8.3m/s | 0°C | 0% | 0hPa | 0V | 00:00:00 | 00:00:00 | 00:00:00 | |
| EA3IBE | 2026-08-30 23:29:39 | 41.44785 | 2.40434 | 81° | 100km/h | 9632m | 5.9m/s | 0°C | 0% | 0hPa | 0V | 00:00:00 | 00:00:00 | 00:00:00 | |
| EA3IBE | 2026-08-30 23:29:25 | 41.44722 | 2.40018 | 80° | 95km/h | 9558m | 4.0m/s | 0°C | 0% | 0hPa | 0V | 00:00:00 | 00:00:00 | 00:00:00 | |
| EA3IBE | 2026-08-30 23:29:14 | 41.44666 | 2.39705 | 80° | 88km/h | 9487m | 7.1m/s | 0°C | 0% | 0hPa | 0V | 00:00:00 | 00:00:00 | 00:00:00 | |
| EA3IBE | 2026-08-30 23:29:05 | 41.44621 | 2.39451 | 81° | 86km/h | 9421m | 4.2m/s | 0°C | 0% | 0hPa | 0V | 00:00:00 | 00:00:00 | 00:00:00 | |
| EA3IBE | 2026-08-30 23:28:59 | 41.44599 | 2.39273 | 74° | 82km/h | 9393m | 3.5m/s | 0°C | 0% | 0hPa | 0V | 00:00:00 | 00:00:00 | 00:00:00 | |
| EA3IBE | 2026-08-30 23:28:54 | 41.44572 | 2.39130 | 83° | 89km/h | 9368m | 6.8m/s | 0°C | 0% | 0hPa | 0V | 00:00:00 | 00:00:00 | 00:00:00 | |
| EA3IBE | 2026-08-30 23:28:49 | 41.44556 | 2.38991 | 75° | 82km/h | 9343m | 5.9m/s | 0°C | 0% | 0hPa | 0V | 00:00:00 | 00:00:00 | 00:00:00 | |
| EA3IBE | 2026-08-30 23:28:44 | 41.44528 | 2.38826 | 78° | 88km/h | 9316m | 4.1m/s | 0°C | 0% | 0hPa | 0V | 00:00:00 | 00:00:00 | 00:00:00 | |
| EA3IBE | 2026-08-30 23:28:38 | 41.44503 | 2.38688 | 81° | 80km/h | 9297m | 5.1m/s | 0°C | 0% | 0hPa | 0V | 00:00:00 | 00:00:00 | 00:00:00 | |
| EA3IBE | 2026-08-30 23:28:32 | 41.44477 | 2.38527 | 80° | 84km/h | 9271m | 2.8m/s | 0°C | 0% | 0hPa | 0V | 00:00:00 | 00:00:00 | 00:00:00 | |
| EA3IBE | 2026-08-30 23:28:27 | 41.44453 | 2.38392 | 77° | 84km/h | 9251m | 4.8m/s | 0°C | 0% | 0hPa | 0V | 00:00:00 | 00:00:00 | 00:00:00 | |
| EA3IBE | 2026-08-30 23:28:22 | 41.44427 | 2.38263 | 76° | 82km/h | 9230m | 3.6m/s | 0°C | 0% | 0hPa | 0V | 00:00:00 | 00:00:00 | 00:00:00 | |
| EA3IBE | 2026-08-30 23:28:16 | 41.44396 | 2.38104 | 74° | 80km/h | 9205m | 3.5m/s | 0°C | 0% | 0hPa | 0V | 00:00:00 | 00:00:00 | 00:00:00 | |
| EA3IBE | 2026-08-30 23:28:10 | 41.44361 | 2.37949 | 76° | 78km/h | 9178m | 2.6m/s | 0°C | 0% | 0hPa | 0V | 00:00:00 | 00:00:00 | 00:00:00 | |
| EA3GEO | 2026-08-30 23:28:08 | 41.44351 | 2.37900 | 77° | 78km/h | 9171m | 4.6m/s | 0°C | 0% | 0hPa | 0V | 00:00:00 | 00:00:00 | 00:00:00 | |
| EA3IBE | 2026-08-30 23:27:59 | 41.44304 | 2.37675 | 79° | 78km/h | 9136m | 5.8m/s | 0°C | 0% | 0hPa | 0V | 00:00:00 | 00:00:00 | 00:00:00 | |
| EA3IBE | 2026-08-30 23:27:53 | 41.44269 | 2.37525 | 72° | 77km/h | 9114m | 2.1m/s | 0°C | 0% | 0hPa | 0V | 00:00:00 | 00:00:00 | 00:00:00 | |
| EA3IBE | 2026-08-30 23:27:48 | 41.44238 | 2.37402 | 76° | 75km/h | 9096m | 4.0m/s | 0°C | 0% | 0hPa | 0V | 00:00:00 | 00:00:00 | 00:00:00 | |
| EA3IBE | 2026-08-30 23:27:42 | 41.44210 | 2.37251 | 75° | 86km/h | 9072m | 4.0m/s | 0°C | 0% | 0hPa | 0V | 00:00:00 | 00:00:00 | 00:00:00 | |
| EA3IBE | 2026-08-30 23:27:37 | 41.44180 | 2.37123 | 78° | 78km/h | 9054m | 3.5m/s | 0°C | 0% | 0hPa | 0V | 00:00:00 | 00:00:00 | 00:00:00 | |
| EA3IBE | 2026-08-30 23:27:31 | 41.44148 | 2.36971 | 71° | 73km/h | 9029m | 2.4m/s | 0°C | 0% | 0hPa | 0V | 00:00:00 | 00:00:00 | 00:00:00 | |
| EA3IBE | 2026-08-30 23:27:25 | 41.44114 | 2.36824 | 76° | 80km/h | 9004m | 4.1m/s | 0°C | 0% | 0hPa | 0V | 00:00:00 | 00:00:00 | 00:00:00 | |
| EA3IBE | 2026-08-30 23:27:20 | 41.44090 | 2.36699 | 76° | 71km/h | 8985m | 3.4m/s | 0°C | 0% | 0hPa | 0V | 00:00:00 | 00:00:00 | 00:00:00 | |
| EA3IBE | 2026-08-30 23:27:15 | 41.44066 | 2.36575 | 77° | 80km/h | 8965m | 3.4m/s | 0°C | 0% | 0hPa | 0V | 00:00:00 | 00:00:00 | 00:00:00 | |
| EA3GEO | 2026-08-30 23:27:13 | 41.44056 | 2.36523 | 77° | 80km/h | 8957m | 3.4m/s | 0°C | 0% | 0hPa | 0V | 00:00:00 | 00:00:00 | 00:00:00 | |
| EA3IBE | 2026-08-30 23:27:10 | 41.44040 | 2.36448 | 75° | 77km/h | 8944m | 3.6m/s | 0°C | 0% | 0hPa | 0V | 00:00:00 | 00:00:00 | 00:00:00 | |
| EA3IBE | 2026-08-30 23:27:04 | 41.44008 | 2.36302 | 77° | 82km/h | 8921m | 4.1m/s | 0°C | 0% | 0hPa | 0V | 00:00:00 | 00:00:00 | 00:00:00 | |
| EA3GEO | 2026-08-30 23:27:03 | 41.44004 | 2.36275 | 77° | 80km/h | 8917m | 3.1m/s | 0°C | 0% | 0hPa | 0V | 00:00:00 | 00:00:00 | 00:00:00 | |
| EA3IBE | 2026-08-30 23:26:58 | 41.43975 | 2.36157 | 68° | 73km/h | 8895m | 4.2m/s | 0°C | 0% | 0hPa | 0V | 00:00:00 | 00:00:00 | 00:00:00 | |
| EA3IBE | 2026-08-30 23:26:52 | 41.43943 | 2.35998 | 78° | 78km/h | 8868m | 4.3m/s | 0°C | 0% | 0hPa | 0V | 00:00:00 | 00:00:00 | 00:00:00 | |
| EA3IBE | 2026-08-30 23:26:47 | 41.43915 | 2.35875 | 70° | 73km/h | 8843m | 5.2m/s | 0°C | 0% | 0hPa | 0V | 00:00:00 | 00:00:00 | 00:00:00 | |
| EA3IBE | 2026-08-30 23:26:42 | 41.43888 | 2.35758 | 82° | 82km/h | 8813m | 6.2m/s | 0°C | 0% | 0hPa | 0V | 00:00:00 | 00:00:00 | 00:00:00 | |
| EA3GEO | 2026-08-30 23:26:41 | 41.43884 | 2.35731 | 82° | 80km/h | 8807m | 7.0m/s | 0°C | 0% | 0hPa | 0V | 00:00:00 | 00:00:00 | 00:00:00 | |
| EA3IBE | 2026-08-30 23:26:35 | 41.43847 | 2.35579 | 71° | 77km/h | 8771m | 5.8m/s | 0°C | 0% | 0hPa | 0V | 00:00:00 | 00:00:00 | 00:00:00 | |
| EA3GEO | 2026-08-30 23:26:33 | 41.43837 | 2.35533 | 80° | 69km/h | 8761m | 5.1m/s | 0°C | 0% | 0hPa | 0V | 00:00:00 | 00:00:00 | 00:00:00 | |
| EA3IBE | 2026-08-30 23:26:29 | 41.43819 | 2.35433 | 74° | 77km/h | 8741m | 5.4m/s | 0°C | 0% | 0hPa | 0V | 00:00:00 | 00:00:00 | 00:00:00 | |
| EA3IBE | 2026-08-30 23:26:23 | 41.43783 | 2.35288 | 68° | 73km/h | 8712m | 6.1m/s | 0°C | 0% | 0hPa | 0V | 00:00:00 | 00:00:00 | 00:00:00 | |
| EA3IBE | 2026-08-30 23:26:17 | 41.43728 | 2.35151 | 64° | 80km/h | 8678m | 6.4m/s | 0°C | 0% | 0hPa | 0V | 00:00:00 | 00:00:00 | 00:00:00 | |
| EA3GEO | 2026-08-30 23:26:16 | 41.43719 | 2.35127 | 67° | 84km/h | 8671m | 8.1m/s | 0°C | 0% | 0hPa | 0V | 00:00:00 | 00:00:00 | 00:00:00 | |
| EA3IBE | 2026-08-30 23:26:11 | 41.43688 | 2.35011 | 73° | 75km/h | 8644m | 3.6m/s | 0°C | 0% | 0hPa | 0V | 00:00:00 | 00:00:00 | 00:00:00 | |
| EA3GEO | 2026-08-30 23:26:10 | 41.43682 | 2.34986 | 71° | 77km/h | 8640m | 2.4m/s | 0°C | 0% | 0hPa | 0V | 00:00:00 | 00:00:00 | 00:00:00 | |
| EA3IBE | 2026-08-30 23:26:06 | 41.43654 | 2.34897 | 65° | 71km/h | 8622m | 5.8m/s | 0°C | 0% | 0hPa | 0V | 00:00:00 | 00:00:00 | 00:00:00 | |
| EA3GEO | 2026-08-30 23:26:04 | 41.43638 | 2.34849 | 67° | 80km/h | 8611m | 5.2m/s | 0°C | 0% | 0hPa | 0V | 00:00:00 | 00:00:00 | 00:00:00 | |
| EA3IBE | 2026-08-30 23:26:00 | 41.43607 | 2.34749 | 64° | 78km/h | 8590m | 6.0m/s | 0°C | 0% | 0hPa | 0V | 00:00:00 | 00:00:00 | 00:00:00 | |
| EA3GEO | 2026-08-30 23:25:56 | 41.43570 | 2.34658 | 68° | 80km/h | 8566m | 6.8m/s | 0°C | 0% | 0hPa | 0V | 00:00:00 | 00:00:00 | 00:00:00 | |
| EA3IBE | 2026-08-30 23:25:55 | 41.43563 | 2.34633 | 75° | 78km/h | 8559m | 7.1m/s | 0°C | 0% | 0hPa | 0V | 00:00:00 | 00:00:00 | 00:00:00 | |
| EA3GEO | 2026-08-30 23:25:47 | 41.43500 | 2.34439 | 69° | 82km/h | 8513m | 5.2m/s | 0°C | 0% | 0hPa | 0V | 00:00:00 | 00:00:00 | 00:00:00 | |
| EA3IBE | 2026-08-30 23:25:44 | 41.43477 | 2.34361 | 70° | 82km/h | 8494m | 6.2m/s | 0°C | 0% | 0hPa | 0V | 00:00:00 | 00:00:00 | 00:00:00 | |
| EA3IBE | 2026-08-30 23:25:38 | 41.43430 | 2.34193 | 67° | 91km/h | 8464m | 2.6m/s | 0°C | 0% | 0hPa | 0V | 00:00:00 | 00:00:00 | 00:00:00 | |
| EA3GEO | 2026-08-30 23:25:37 | 41.43421 | 2.34166 | 68° | 86km/h | 8460m | 3.2m/s | 0°C | 0% | 0hPa | 0V | 00:00:00 | 00:00:00 | 00:00:00 | |
| EA3IBE | 2026-08-30 23:25:33 | 41.43394 | 2.34065 | 75° | 78km/h | 8442m | 3.6m/s | 0°C | 0% | 0hPa | 0V | 00:00:00 | 00:00:00 | 00:00:00 | |
| EA3GEO | 2026-08-30 23:25:29 | 41.43370 | 2.33962 | 74° | 82km/h | 8423m | 5.4m/s | 0°C | 0% | 0hPa | 0V | 00:00:00 | 00:00:00 | 00:00:00 | |
| EA3IBE | 2026-08-30 23:25:26 | 41.43349 | 2.33881 | 69° | 86km/h | 8405m | 6.2m/s | 0°C | 0% | 0hPa | 0V | 00:00:00 | 00:00:00 | 00:00:00 | |
| EA3GEO | 2026-08-30 23:25:24 | 41.43334 | 2.33827 | 69° | 86km/h | 8391m | 7.3m/s | 0°C | 0% | 0hPa | 0V | 00:00:00 | 00:00:00 | 00:00:00 | |
| EA3IBE | 2026-08-30 23:25:21 | 41.43313 | 2.33749 | 73° | 84km/h | 8369m | 5.6m/s | 0°C | 0% | 0hPa | 0V | 00:00:00 | 00:00:00 | 00:00:00 | |
| EA3IBE | 2026-08-30 23:25:16 | 41.43278 | 2.33619 | 72° | 78km/h | 8346m | 4.4m/s | 0°C | 0% | 0hPa | 0V | 00:00:00 | 00:00:00 | 00:00:00 | |
| EA3GEO | 2026-08-30 23:25:15 | 41.43271 | 2.33593 | 69° | 84km/h | 8341m | 4.9m/s | 0°C | 0% | 0hPa | 0V | 00:00:00 | 00:00:00 | 00:00:00 | |
| EA3IBE | 2026-08-30 23:25:11 | 41.43249 | 2.33484 | 81° | 80km/h | 8326m | 4.4m/s | 0°C | 0% | 0hPa | 0V | 00:00:00 | 00:00:00 | 00:00:00 | |
| EA3GEO | 2026-08-30 23:25:09 | 41.43240 | 2.33433 | 73° | 77km/h | 8318m | 3.5m/s | 0°C | 0% | 0hPa | 0V | 00:00:00 | 00:00:00 | 00:00:00 | |
| EA3IBE | 2026-08-30 23:25:06 | 41.43221 | 2.33356 | 76° | 88km/h | 8308m | 3.8m/s | 0°C | 0% | 0hPa | 0V | 00:00:00 | 00:00:00 | 00:00:00 | |
| EA3IBE | 2026-08-30 23:25:00 | 41.43196 | 2.33198 | 77° | 78km/h | 8284m | 3.5m/s | 0°C | 0% | 0hPa | 0V | 00:00:00 | 00:00:00 | 00:00:00 | |
| EA3IBE | 2026-08-30 23:24:55 | 41.43170 | 2.33072 | 79° | 77km/h | 8266m | 2.9m/s | 0°C | 0% | 0hPa | 0V | 00:00:00 | 00:00:00 | 00:00:00 | |
| EA3IBE | 2026-08-30 23:24:50 | 41.43148 | 2.32946 | 79° | 78km/h | 8245m | 2.7m/s | 0°C | 0% | 0hPa | 0V | 00:00:00 | 00:00:00 | 00:00:00 | |
| EA3GEO | 2026-08-30 23:24:49 | 41.43144 | 2.32920 | 78° | 78km/h | 8242m | 2.9m/s | 0°C | 0% | 0hPa | 0V | 00:00:00 | 00:00:00 | 00:00:00 | |
| EA3IBE | 2026-08-30 23:24:45 | 41.43117 | 2.32817 | 73° | 80km/h | 8225m | 2.7m/s | 0°C | 0% | 0hPa | 0V | 00:00:00 | 00:00:00 | 00:00:00 | |
| EA3GEO | 2026-08-30 23:24:44 | 41.43112 | 2.32791 | 79° | 77km/h | 8221m | 5.4m/s | 0°C | 0% | 0hPa | 0V | 00:00:00 | 00:00:00 | 00:00:00 | |
| EA3IBE | 2026-08-30 23:24:39 | 41.43086 | 2.32662 | 73° | 80km/h | 8193m | 7.8m/s | 0°C | 0% | 0hPa | 0V | 00:00:00 | 00:00:00 | 00:00:00 | |
| EA3GEO | 2026-08-30 23:24:38 | 41.43081 | 2.32637 | 80° | 77km/h | 8187m | 6.7m/s | 0°C | 0% | 0hPa | 0V | 00:00:00 | 00:00:00 | 00:00:00 | |
| EA3GEO | 2026-08-30 23:24:33 | 41.43067 | 2.32511 | 84° | 71km/h | 8158m | 5.2m/s | 0°C | 0% | 0hPa | 0V | 00:00:00 | 00:00:00 | 00:00:00 | |
| EA3GEO | 2026-08-30 23:24:27 | 41.43038 | 2.32374 | 73° | 78km/h | 8121m | 5.8m/s | 0°C | 0% | 0hPa | 0V | 00:00:00 | 00:00:00 | 00:00:00 | |
| EA3GEO | 2026-08-30 23:24:22 | 41.43019 | 2.32249 | 78° | 69km/h | 8100m | 4.6m/s | 0°C | 0% | 0hPa | 0V | 00:00:00 | 00:00:00 | 00:00:00 | |
| EA3IBE | 2026-08-30 23:24:21 | 41.43015 | 2.32226 | 76° | 68km/h | 8095m | 5.5m/s | 0°C | 0% | 0hPa | 0V | 00:00:00 | 00:00:00 | 00:00:00 | |
| EA3IBE | 2026-08-30 23:24:16 | 41.42988 | 2.32126 | 74° | 66km/h | 8065m | 6.5m/s | 0°C | 0% | 0hPa | 0V | 00:00:00 | 00:00:00 | 00:00:00 | |
| EA3GEO | 2026-08-30 23:24:11 | 41.42955 | 2.32016 | 69° | 64km/h | 8034m | 3.9m/s | 0°C | 0% | 0hPa | 0V | 00:00:00 | 00:00:00 | 00:00:00 | |
| EA3IBE | 2026-08-30 23:24:10 | 41.42949 | 2.31995 | 65° | 68km/h | 8029m | 3.6m/s | 0°C | 0% | 0hPa | 0V | 00:00:00 | 00:00:00 | 00:00:00 | |
| EA3IBE | 2026-08-30 23:24:05 | 41.42921 | 2.31874 | 76° | 75km/h | 8006m | 5.7m/s | 0°C | 0% | 0hPa | 0V | 00:00:00 | 00:00:00 | 00:00:00 | |
| EA3IBE | 2026-08-30 23:24:00 | 41.42885 | 2.31738 | 70° | 73km/h | 7971m | 5.0m/s | 0°C | 0% | 0hPa | 0V | 00:00:00 | 00:00:00 | 00:00:00 | |
| EA3GEO | 2026-08-30 23:23:59 | 41.42885 | 2.31738 | 70° | 73km/h | 7971m | 5.0m/s | 0°C | 0% | 0hPa | 0V | 00:00:00 | 00:00:00 | 00:00:00 | |
| EA3IBE | 2026-08-30 23:23:54 | 41.42849 | 2.31626 | 67° | 71km/h | 7946m | 5.4m/s | 0°C | 0% | 0hPa | 0V | 00:00:00 | 00:00:00 | 00:00:00 | |
| EA3GEO | 2026-08-30 23:23:51 | 41.42827 | 2.31560 | 71° | 71km/h | 7928m | 5.0m/s | 0°C | 0% | 0hPa | 0V | 00:00:00 | 00:00:00 | 00:00:00 | |
| EA3IBE | 2026-08-30 23:23:48 | 41.42808 | 2.31492 | 71° | 73km/h | 7914m | 1.8m/s | 0°C | 0% | 0hPa | 0V | 00:00:00 | 00:00:00 | 00:00:00 | |
| EA3GEO | 2026-08-30 23:23:45 | 41.42792 | 2.31419 | 76° | 77km/h | 7903m | 3.7m/s | 0°C | 0% | 0hPa | 0V | 00:00:00 | 00:00:00 | 00:00:00 | |
| EA3IBE | 2026-08-30 23:23:42 | 41.42776 | 2.31352 | 71° | 62km/h | 7893m | 4.3m/s | 0°C | 0% | 0hPa | 0V | 00:00:00 | 00:00:00 | 00:00:00 | |
| EA3GEO | 2026-08-30 23:23:39 | 41.42758 | 2.31294 | 63° | 66km/h | 7880m | 6.1m/s | 0°C | 0% | 0hPa | 0V | 00:00:00 | 00:00:00 | 00:00:00 | |
| EA3IBE | 2026-08-30 23:23:37 | 41.42745 | 2.31256 | 65° | 66km/h | 7868m | 5.0m/s | 0°C | 0% | 0hPa | 0V | 00:00:00 | 00:00:00 | 00:00:00 | |
| EA3GEO | 2026-08-30 23:23:34 | 41.42730 | 2.31188 | 79° | 71km/h | 7853m | 5.3m/s | 0°C | 0% | 0hPa | 0V | 00:00:00 | 00:00:00 | 00:00:00 | |
| EA3IBE | 2026-08-30 23:23:31 | 41.42719 | 2.31118 | 76° | 71km/h | 7835m | 5.9m/s | 0°C | 0% | 0hPa | 0V | 00:00:00 | 00:00:00 | 00:00:00 | |
| EA3GEO | 2026-08-30 23:23:29 | 41.42709 | 2.31067 | 76° | 78km/h | 7822m | 7.6m/s | 0°C | 0% | 0hPa | 0V | 00:00:00 | 00:00:00 | 00:00:00 | |
| EA3IBE | 2026-08-30 23:23:25 | 41.42690 | 2.30966 | 80° | 68km/h | 7801m | 5.6m/s | 0°C | 0% | 0hPa | 0V | 00:00:00 | 00:00:00 | 00:00:00 | |
| EA3GEO | 2026-08-30 23:23:23 | 41.42682 | 2.30923 | 79° | 62km/h | 7787m | 4.5m/s | 0°C | 0% | 0hPa | 0V | 00:00:00 | 00:00:00 | 00:00:00 | |
| EA3IBE | 2026-08-30 23:23:20 | 41.42669 | 2.30861 | 74° | 68km/h | 7774m | 3.2m/s | 0°C | 0% | 0hPa | 0V | 00:00:00 | 00:00:00 | 00:00:00 | |
| EA3IBE | 2026-08-30 23:23:15 | 41.42647 | 2.30737 | 84° | 78km/h | 7744m | 8.3m/s | 0°C | 0% | 0hPa | 0V | 00:00:00 | 00:00:00 | 00:00:00 | |
| EA3IBE | 2026-08-30 23:23:10 | 41.42631 | 2.30621 | 74° | 68km/h | 7721m | 4.8m/s | 0°C | 0% | 0hPa | 0V | 00:00:00 | 00:00:00 | 00:00:00 | |
| EA3IBE | 2026-08-30 23:23:04 | 41.42597 | 2.30464 | 79° | 82km/h | 7689m | 5.7m/s | 0°C | 0% | 0hPa | 0V | 00:00:00 | 00:00:00 | 00:00:00 | |
| EA3IBE | 2026-08-30 23:22:59 | 41.42570 | 2.30336 | 72° | 75km/h | 7661m | 5.8m/s | 0°C | 0% | 0hPa | 0V | 00:00:00 | 00:00:00 | 00:00:00 | |
| EA3GEO | 2026-08-30 23:22:58 | 41.42564 | 2.30312 | 77° | 69km/h | 7654m | 6.6m/s | 0°C | 0% | 0hPa | 0V | 00:00:00 | 00:00:00 | 00:00:00 | |
| EA3IBE | 2026-08-30 23:22:54 | 41.42555 | 2.30216 | 79° | 75km/h | 7633m | 4.5m/s | 0°C | 0% | 0hPa | 0V | 00:00:00 | 00:00:00 | 00:00:00 | |
| EA3GEO | 2026-08-30 23:22:53 | 41.42551 | 2.30192 | 75° | 77km/h | 7628m | 5.7m/s | 0°C | 0% | 0hPa | 0V | 00:00:00 | 00:00:00 | 00:00:00 | |
| EA3IBE | 2026-08-30 23:22:49 | 41.42531 | 2.30103 | 76° | 68km/h | 7604m | 4.8m/s | 0°C | 0% | 0hPa | 0V | 00:00:00 | 00:00:00 | 00:00:00 | |
| EA3GEO | 2026-08-30 23:22:47 | 41.42521 | 2.30057 | 74° | 73km/h | 7591m | 8.2m/s | 0°C | 0% | 0hPa | 0V | 00:00:00 | 00:00:00 | 00:00:00 | |
| EA3IBE | 2026-08-30 23:22:43 | 41.42506 | 2.29946 | 83° | 91km/h | 7568m | 5.5m/s | 0°C | 0% | 0hPa | 0V | 00:00:00 | 00:00:00 | 00:00:00 | |
| EA3GEO | 2026-08-30 23:22:40 | 41.42498 | 2.29860 | 85° | 80km/h | 7550m | 7.2m/s | 0°C | 0% | 0hPa | 0V | 00:00:00 | 00:00:00 | 00:00:00 | |
| EA3IBE | 2026-08-30 23:22:38 | 41.42493 | 2.29806 | 83° | 82km/h | 7537m | 6.9m/s | 0°C | 0% | 0hPa | 0V | 00:00:00 | 00:00:00 | 00:00:00 | |
| EA3GEO | 2026-08-30 23:22:34 | 41.42482 | 2.29704 | 80° | 69km/h | 7507m | 7.4m/s | 0°C | 0% | 0hPa | 0V | 00:00:00 | 00:00:00 | 00:00:00 | |
| EA3IBE | 2026-08-30 23:22:32 | 41.42472 | 2.29659 | 75° | 66km/h | 7494m | 6.0m/s | 0°C | 0% | 0hPa | 0V | 00:00:00 | 00:00:00 | 00:00:00 | |
| EA3GEO | 2026-08-30 23:22:29 | 41.42461 | 2.29587 | 85° | 78km/h | 7477m | 4.1m/s | 0°C | 0% | 0hPa | 0V | 00:00:00 | 00:00:00 | 00:00:00 | |
| EA3IBE | 2026-08-30 23:22:27 | 41.42458 | 2.29535 | 86° | 71km/h | 7466m | 5.6m/s | 0°C | 0% | 0hPa | 0V | 00:00:00 | 00:00:00 | 00:00:00 | |
| EA3GEO | 2026-08-30 23:22:24 | 41.42453 | 2.29463 | 87° | 75km/h | 7448m | 7.5m/s | 0°C | 0% | 0hPa | 0V | 00:00:00 | 00:00:00 | 00:00:00 | |
| EA3IBE | 2026-08-30 23:22:21 | 41.42447 | 2.29384 | 82° | 80km/h | 7433m | 3.4m/s | 0°C | 0% | 0hPa | 0V | 00:00:00 | 00:00:00 | 00:00:00 | |
| EA3GEO | 2026-08-30 23:22:18 | 41.42434 | 2.29301 | 80° | 86km/h | 7417m | 5.2m/s | 0°C | 0% | 0hPa | 0V | 00:00:00 | 00:00:00 | 00:00:00 | |
| EA3IBE | 2026-08-30 23:22:16 | 41.42427 | 2.29246 | 84° | 78km/h | 7408m | 5.3m/s | 0°C | 0% | 0hPa | 0V | 00:00:00 | 00:00:00 | 00:00:00 | |
| EA3GEO | 2026-08-30 23:22:12 | 41.42409 | 2.29153 | 75° | 71km/h | 7387m | 5.4m/s | 0°C | 0% | 0hPa | 0V | 00:00:00 | 00:00:00 | 00:00:00 | |
| EA3IBE | 2026-08-30 23:22:10 | 41.42401 | 2.29107 | 81° | 71km/h | 7376m | 6.0m/s | 0°C | 0% | 0hPa | 0V | 00:00:00 | 00:00:00 | 00:00:00 | |
| EA3GEO | 2026-08-30 23:22:06 | 41.42388 | 2.29010 | 80° | 71km/h | 7351m | 4.6m/s | 0°C | 0% | 0hPa | 0V | 00:00:00 | 00:00:00 | 00:00:00 | |
| EA3IBE | 2026-08-30 23:22:05 | 41.42384 | 2.28987 | 80° | 69km/h | 7347m | 3.6m/s | 0°C | 0% | 0hPa | 0V | 00:00:00 | 00:00:00 | 00:00:00 | |
| EA3GEO | 2026-08-30 23:22:00 | 41.42367 | 2.28868 | 76° | 77km/h | 7326m | 3.8m/s | 0°C | 0% | 0hPa | 0V | 00:00:00 | 00:00:00 | 00:00:00 | |
| EA3IBE | 2026-08-30 23:21:59 | 41.42362 | 2.28843 | 79° | 80km/h | 7321m | 5.2m/s | 0°C | 0% | 0hPa | 0V | 00:00:00 | 00:00:00 | 00:00:00 | |
| EA3GEO | 2026-08-30 23:21:55 | 41.42347 | 2.28714 | 79° | 71km/h | 7298m | 3.8m/s | 0°C | 0% | 0hPa | 0V | 00:00:00 | 00:00:00 | 00:00:00 | |
| EA3IBE | 2026-08-30 23:21:53 | 41.42343 | 2.28691 | 75° | 71km/h | 7294m | 5.2m/s | 0°C | 0% | 0hPa | 0V | 00:00:00 | 00:00:00 | 00:00:00 | |
| EA3IBE | 2026-08-30 23:21:48 | 41.42327 | 2.28568 | 91° | 80km/h | 7267m | 3.8m/s | 0°C | 0% | 0hPa | 0V | 00:00:00 | 00:00:00 | 00:00:00 | |
| EA3GEO | 2026-08-30 23:21:44 | 41.42307 | 2.28455 | 68° | 64km/h | 7246m | 4.1m/s | 0°C | 0% | 0hPa | 0V | 00:00:00 | 00:00:00 | 00:00:00 | |
| EA3IBE | 2026-08-30 23:21:42 | 41.42301 | 2.28434 | 73° | 68km/h | 7242m | 3.9m/s | 0°C | 0% | 0hPa | 0V | 00:00:00 | 00:00:00 | 00:00:00 | |
| EA3GEO | 2026-08-30 23:21:37 | 41.42286 | 2.28326 | 83° | 64km/h | 7214m | 7.0m/s | 0°C | 0% | 0hPa | 0V | 00:00:00 | 00:00:00 | 00:00:00 | |
| EA3IBE | 2026-08-30 23:21:35 | 41.42281 | 2.28283 | 79° | 66km/h | 7199m | 7.6m/s | 0°C | 0% | 0hPa | 0V | 00:00:00 | 00:00:00 | 00:00:00 | |
| EA3GEO | 2026-08-30 23:21:31 | 41.42263 | 2.28192 | 84° | 75km/h | 7172m | 6.8m/s | 0°C | 0% | 0hPa | 0V | 00:00:00 | 00:00:00 | 00:00:00 | |
| EA3IBE | 2026-08-30 23:21:28 | 41.42258 | 2.28118 | 87° | 73km/h | 7153m | 5.6m/s | 0°C | 0% | 0hPa | 0V | 00:00:00 | 00:00:00 | 00:00:00 | |
| EA3GEO | 2026-08-30 23:21:26 | 41.42253 | 2.28070 | 81° | 78km/h | 7142m | 5.3m/s | 0°C | 0% | 0hPa | 0V | 00:00:00 | 00:00:00 | 00:00:00 | |
| EA3IBE | 2026-08-30 23:21:22 | 41.42239 | 2.27959 | 80° | 82km/h | 7117m | 8.0m/s | 0°C | 0% | 0hPa | 0V | 00:00:00 | 00:00:00 | 00:00:00 | |
| EA3GEO | 2026-08-30 23:21:20 | 41.42232 | 2.27910 | 85° | 69km/h | 7104m | 6.8m/s | 0°C | 0% | 0hPa | 0V | 00:00:00 | 00:00:00 | 00:00:00 | |
| EA3IBE | 2026-08-30 23:21:17 | 41.42227 | 2.27845 | 89° | 60km/h | 7086m | 5.8m/s | 0°C | 0% | 0hPa | 0V | 00:00:00 | 00:00:00 | 00:00:00 | |
| EA3GEO | 2026-08-30 23:21:14 | 41.42221 | 2.27784 | 76° | 58km/h | 7070m | 7.5m/s | 0°C | 0% | 0hPa | 0V | 00:00:00 | 00:00:00 | 00:00:00 | |
| EA3IBE | 2026-08-30 23:21:10 | 41.42199 | 2.27696 | 73° | 82km/h | 7046m | 5.2m/s | 0°C | 0% | 0hPa | 0V | 00:00:00 | 00:00:00 | 00:00:00 | |
| EA3GEO | 2026-08-30 23:21:07 | 41.42182 | 2.27615 | 75° | 82km/h | 7031m | 5.7m/s | 0°C | 0% | 0hPa | 0V | 00:00:00 | 00:00:00 | 00:00:00 | |
| EA3IBE | 2026-08-30 23:21:04 | 41.42163 | 2.27538 | 71° | 80km/h | 7014m | 6.4m/s | 0°C | 0% | 0hPa | 0V | 00:00:00 | 00:00:00 | 00:00:00 | |
| EA3GEO | 2026-08-30 23:21:01 | 41.42144 | 2.27463 | 73° | 80km/h | 6994m | 8.5m/s | 0°C | 0% | 0hPa | 0V | 00:00:00 | 00:00:00 | 00:00:00 | |
| EA3IBE | 2026-08-30 23:20:58 | 41.42127 | 2.27380 | 81° | 82km/h | 6976m | 5.2m/s | 0°C | 0% | 0hPa | 0V | 00:00:00 | 00:00:00 | 00:00:00 | |
| EA3GEO | 2026-08-30 23:20:56 | 41.42119 | 2.27330 | 73° | 69km/h | 6965m | 7.1m/s | 0°C | 0% | 0hPa | 0V | 00:00:00 | 00:00:00 | 00:00:00 | |
| EA3IBE | 2026-08-30 23:20:52 | 41.42096 | 2.27241 | 73° | 77km/h | 6939m | 5.6m/s | 0°C | 0% | 0hPa | 0V | 00:00:00 | 00:00:00 | 00:00:00 | |
| EA3GEO | 2026-08-30 23:20:50 | 41.42085 | 2.27189 | 74° | 84km/h | 6926m | 6.6m/s | 0°C | 0% | 0hPa | 0V | 00:00:00 | 00:00:00 | 00:00:00 | |
| EA3IBE | 2026-08-30 23:20:47 | 41.42065 | 2.27114 | 71° | 71km/h | 6908m | 5.6m/s | 0°C | 0% | 0hPa | 0V | 00:00:00 | 00:00:00 | 00:00:00 | |
| EA3GEO | 2026-08-30 23:20:44 | 41.42048 | 2.27047 | 71° | 77km/h | 6894m | 4.8m/s | 0°C | 0% | 0hPa | 0V | 00:00:00 | 00:00:00 | 00:00:00 | |
| EA3IBE | 2026-08-30 23:20:41 | 41.42027 | 2.26971 | 68° | 80km/h | 6879m | 5.8m/s | 0°C | 0% | 0hPa | 0V | 00:00:00 | 00:00:00 | 00:00:00 | |
| EA3GEO | 2026-08-30 23:20:38 | 41.42006 | 2.26897 | 73° | 80km/h | 6863m | 5.4m/s | 0°C | 0% | 0hPa | 0V | 00:00:00 | 00:00:00 | 00:00:00 | |
| EA3IBE | 2026-08-30 23:20:35 | 41.41989 | 2.26819 | 72° | 77km/h | 6849m | 3.6m/s | 0°C | 0% | 0hPa | 0V | 00:00:00 | 00:00:00 | 00:00:00 | |
| EA3GEO | 2026-08-30 23:20:33 | 41.41975 | 2.26773 | 70° | 71km/h | 6842m | 4.3m/s | 0°C | 0% | 0hPa | 0V | 00:00:00 | 00:00:00 | 00:00:00 | |
| EA3IBE | 2026-08-30 23:20:30 | 41.41958 | 2.26698 | 77° | 86km/h | 6830m | 4.4m/s | 0°C | 0% | 0hPa | 0V | 00:00:00 | 00:00:00 | 00:00:00 | |
| EA3GEO | 2026-08-30 23:20:27 | 41.41935 | 2.26619 | 64° | 80km/h | 6818m | 2.7m/s | 0°C | 0% | 0hPa | 0V | 00:00:00 | 00:00:00 | 00:00:00 | |
| EA3IBE | 2026-08-30 23:20:25 | 41.41918 | 2.26572 | 65° | 77km/h | 6811m | 3.3m/s | 0°C | 0% | 0hPa | 0V | 00:00:00 | 00:00:00 | 00:00:00 | |
| EA3GEO | 2026-08-30 23:20:22 | 41.41901 | 2.26499 | 84° | 80km/h | 6799m | 4.7m/s | 0°C | 0% | 0hPa | 0V | 00:00:00 | 00:00:00 | 00:00:00 | |
| EA3IBE | 2026-08-30 23:20:19 | 41.41894 | 2.26426 | 75° | 69km/h | 6784m | 4.4m/s | 0°C | 0% | 0hPa | 0V | 00:00:00 | 00:00:00 | 00:00:00 | |
| EA3GEO | 2026-08-30 23:20:17 | 41.41882 | 2.26383 | 68° | 69km/h | 6769m | 7.1m/s | 0°C | 0% | 0hPa | 0V | 00:00:00 | 00:00:00 | 00:00:00 | |
| EA3IBE | 2026-08-30 23:20:13 | 41.41860 | 2.26293 | 75° | 75km/h | 6742m | 7.2m/s | 0°C | 0% | 0hPa | 0V | 00:00:00 | 00:00:00 | 00:00:00 | |
| EA3GEO | 2026-08-30 23:20:12 | 41.41856 | 2.26269 | 80° | 73km/h | 6735m | 6.8m/s | 0°C | 0% | 0hPa | 0V | 00:00:00 | 00:00:00 | 00:00:00 | |
| EA3IBE | 2026-08-30 23:20:07 | 41.41833 | 2.26160 | 71° | 62km/h | 6708m | 7.5m/s | 0°C | 0% | 0hPa | 0V | 00:00:00 | 00:00:00 | 00:00:00 | |
| EA3GEO | 2026-08-30 23:20:06 | 41.41829 | 2.26139 | 74° | 68km/h | 6700m | 5.1m/s | 0°C | 0% | 0hPa | 0V | 00:00:00 | 00:00:00 | 00:00:00 | |
| EA3IBE | 2026-08-30 23:20:02 | 41.41816 | 2.26046 | 79° | 82km/h | 6676m | 5.7m/s | 0°C | 0% | 0hPa | 0V | 00:00:00 | 00:00:00 | 00:00:00 | |
| EA3GEO | 2026-08-30 23:20:01 | 41.41810 | 2.26019 | 75° | 84km/h | 6670m | 7.2m/s | 0°C | 0% | 0hPa | 0V | 00:00:00 | 00:00:00 | 00:00:00 | |
| EA3GEO | 2026-08-30 23:19:56 | 41.41784 | 2.25895 | 77° | 71km/h | 6639m | 6.9m/s | 0°C | 0% | 0hPa | 0V | 00:00:00 | 00:00:00 | 00:00:00 | |
| EA3IBE | 2026-08-30 23:19:50 | 41.41763 | 2.25750 | 74° | 64km/h | 6606m | 5.4m/s | 0°C | 0% | 0hPa | 0V | 00:00:00 | 00:00:00 | 00:00:00 | |
| EA3IBE | 2026-08-30 23:19:38 | 41.41694 | 2.25483 | 76° | 68km/h | 6554m | 4.2m/s | 0°C | 0% | 0hPa | 0V | 00:00:00 | 00:00:00 | 00:00:00 | |
| EA3IBE | 2026-08-30 23:19:33 | 41.41667 | 2.25363 | 79° | 75km/h | 6537m | 2.3m/s | 0°C | 0% | 0hPa | 0V | 00:00:00 | 00:00:00 | 00:00:00 | |
| EA3GEO | 2026-08-30 23:19:32 | 41.41663 | 2.25339 | 78° | 71km/h | 6534m | 4.4m/s | 0°C | 0% | 0hPa | 0V | 00:00:00 | 00:00:00 | 00:00:00 | |
| EA3IBE | 2026-08-30 23:19:27 | 41.41635 | 2.25227 | 69° | 78km/h | 6518m | 5.2m/s | 0°C | 0% | 0hPa | 0V | 00:00:00 | 00:00:00 | 00:00:00 | |
| EA3GEO | 2026-08-30 23:19:22 | 41.41597 | 2.25110 | 74° | 62km/h | 6497m | 6.1m/s | 0°C | 0% | 0hPa | 0V | 00:00:00 | 00:00:00 | 00:00:00 | |
| EA3IBE | 2026-08-30 23:19:21 | 41.41592 | 2.25090 | 75° | 60km/h | 6491m | 7.6m/s | 0°C | 0% | 0hPa | 0V | 00:00:00 | 00:00:00 | 00:00:00 | |
| EA3GEO | 2026-08-30 23:19:17 | 41.41578 | 2.25006 | 71° | 78km/h | 6461m | 6.8m/s | 0°C | 0% | 0hPa | 0V | 00:00:00 | 00:00:00 | 00:00:00 | |
| EA3GEO | 2026-08-30 23:19:12 | 41.41548 | 2.24884 | 81° | 69km/h | 6434m | 5.8m/s | 0°C | 0% | 0hPa | 0V | 00:00:00 | 00:00:00 | 00:00:00 | |
| EA3GEO | 2026-08-30 23:19:06 | 41.41526 | 2.24745 | 79° | 75km/h | 6397m | 5.8m/s | 0°C | 0% | 0hPa | 0V | 00:00:00 | 00:00:00 | 00:00:00 | |
| EA3IBE | 2026-08-30 23:19:01 | 41.41508 | 2.24650 | 74° | 55km/h | 6377m | 1.6m/s | 0°C | 0% | 0hPa | 0V | 00:00:00 | 00:00:00 | 00:00:00 | |
| EA3IBE | 2026-08-30 23:18:55 | 41.41469 | 2.24521 | 63° | 80km/h | 6343m | 5.3m/s | 0°C | 0% | 0hPa | 0V | 00:00:00 | 00:00:00 | 00:00:00 | |
| EA3GEO | 2026-08-30 23:18:49 | 41.41450 | 2.24385 | 82° | 57km/h | 6317m | 3.5m/s | 0°C | 0% | 0hPa | 0V | 00:00:00 | 00:00:00 | 00:00:00 | |
| EA3IBE | 2026-08-30 23:18:42 | 41.41407 | 2.24250 | 70° | 69km/h | 6280m | 6.4m/s | 0°C | 0% | 0hPa | 0V | 00:00:00 | 00:00:00 | 00:00:00 | |
| EA3IBE | 2026-08-30 23:18:37 | 41.41390 | 2.24136 | 76° | 66km/h | 6256m | 6.5m/s | 0°C | 0% | 0hPa | 0V | 00:00:00 | 00:00:00 | 00:00:00 | |
| EA3GEO | 2026-08-30 23:18:31 | 41.41347 | 2.23998 | 70° | 75km/h | 6225m | 2.8m/s | 0°C | 0% | 0hPa | 0V | 00:00:00 | 00:00:00 | 00:00:00 | |
| EA3IBE | 2026-08-30 23:18:30 | 41.41342 | 2.23974 | 74° | 73km/h | 6222m | 3.7m/s | 0°C | 0% | 0hPa | 0V | 00:00:00 | 00:00:00 | 00:00:00 | |
| EA3GEO | 2026-08-30 23:18:26 | 41.41318 | 2.23903 | 59° | 47km/h | 6207m | 3.2m/s | 0°C | 0% | 0hPa | 0V | 00:00:00 | 00:00:00 | 00:00:00 | |
| EA3IBE | 2026-08-30 23:18:24 | 41.41308 | 2.23869 | 77° | 66km/h | 6200m | 5.2m/s | 0°C | 0% | 0hPa | 0V | 00:00:00 | 00:00:00 | 00:00:00 | |
| EA3GEO | 2026-08-30 23:18:21 | 41.41292 | 2.23796 | 70° | 82km/h | 6178m | 7.5m/s | 0°C | 0% | 0hPa | 0V | 00:00:00 | 00:00:00 | 00:00:00 | |
| EA3IBE | 2026-08-30 23:18:18 | 41.41269 | 2.23719 | 66° | 78km/h | 6162m | 5.6m/s | 0°C | 0% | 0hPa | 0V | 00:00:00 | 00:00:00 | 00:00:00 | |
| EA3GEO | 2026-08-30 23:18:15 | 41.41248 | 2.23655 | 69° | 69km/h | 6142m | 6.1m/s | 0°C | 0% | 0hPa | 0V | 00:00:00 | 00:00:00 | 00:00:00 | |
| EA3IBE | 2026-08-30 23:18:13 | 41.41239 | 2.23613 | 80° | 62km/h | 6130m | 7.2m/s | 0°C | 0% | 0hPa | 0V | 00:00:00 | 00:00:00 | 00:00:00 | |
| EA3GEO | 2026-08-30 23:18:09 | 41.41219 | 2.23538 | 66° | 58km/h | 6108m | 5.8m/s | 0°C | 0% | 0hPa | 0V | 00:00:00 | 00:00:00 | 00:00:00 | |
| EA3IBE | 2026-08-30 23:18:07 | 41.41208 | 2.23501 | 72° | 57km/h | 6098m | 5.2m/s | 0°C | 0% | 0hPa | 0V | 00:00:00 | 00:00:00 | 00:00:00 | |
| EA3GEO | 2026-08-30 23:18:04 | 41.41195 | 2.23449 | 77° | 53km/h | 6081m | 6.8m/s | 0°C | 0% | 0hPa | 0V | 00:00:00 | 00:00:00 | 00:00:00 | |
| EA3IBE | 2026-08-30 23:18:00 | 41.41178 | 2.23366 | 80° | 73km/h | 6060m | 6.2m/s | 0°C | 0% | 0hPa | 0V | 00:00:00 | 00:00:00 | 00:00:00 | |
| EA3GEO | 2026-08-30 23:17:58 | 41.41169 | 2.23319 | 75° | 71km/h | 6050m | 4.3m/s | 0°C | 0% | 0hPa | 0V | 00:00:00 | 00:00:00 | 00:00:00 | |
| EA3IBE | 2026-08-30 23:17:55 | 41.41150 | 2.23256 | 66° | 62km/h | 6040m | 3.7m/s | 0°C | 0% | 0hPa | 0V | 00:00:00 | 00:00:00 | 00:00:00 | |
| EA3GEO | 2026-08-30 23:17:52 | 41.41131 | 2.23195 | 72° | 69km/h | 6029m | 2.9m/s | 0°C | 0% | 0hPa | 0V | 00:00:00 | 00:00:00 | 00:00:00 | |
| EA3IBE | 2026-08-30 23:17:49 | 41.41115 | 2.23129 | 72° | 64km/h | 6019m | 5.1m/s | 0°C | 0% | 0hPa | 0V | 00:00:00 | 00:00:00 | 00:00:00 | |
| EA3GEO | 2026-08-30 23:17:47 | 41.41103 | 2.23087 | 71° | 66km/h | 6011m | 4.6m/s | 0°C | 0% | 0hPa | 0V | 00:00:00 | 00:00:00 | 00:00:00 | |
| EA3IBE | 2026-08-30 23:17:44 | 41.41089 | 2.23017 | 79° | 78km/h | 5996m | 2.0m/s | 0°C | 0% | 0hPa | 0V | 00:00:00 | 00:00:00 | 00:00:00 | |
| EA3GEO | 2026-08-30 23:17:41 | 41.41073 | 2.22943 | 70° | 68km/h | 5986m | 6.8m/s | 0°C | 0% | 0hPa | 0V | 00:00:00 | 00:00:00 | 00:00:00 | |
| EA3IBE | 2026-08-30 23:17:38 | 41.41057 | 2.22890 | 73° | 53km/h | 5959m | 6.4m/s | 0°C | 0% | 0hPa | 0V | 00:00:00 | 00:00:00 | 00:00:00 | |
| EA3GEO | 2026-08-30 23:17:35 | 41.41043 | 2.22832 | 72° | 69km/h | 5940m | 3.6m/s | 0°C | 0% | 0hPa | 0V | 00:00:00 | 00:00:00 | 00:00:00 | |
| EA3IBE | 2026-08-30 23:17:32 | 41.41019 | 2.22767 | 60° | 69km/h | 5929m | 3.2m/s | 0°C | 0% | 0hPa | 0V | 00:00:00 | 00:00:00 | 00:00:00 | |
| EA3GEO | 2026-08-30 23:17:29 | 41.40993 | 2.22711 | 59° | 58km/h | 5915m | 4.3m/s | 0°C | 0% | 0hPa | 0V | 00:00:00 | 00:00:00 | 00:00:00 | |
| EA3IBE | 2026-08-30 23:17:26 | 41.40972 | 2.22656 | 71° | 68km/h | 5904m | 3.6m/s | 0°C | 0% | 0hPa | 0V | 00:00:00 | 00:00:00 | 00:00:00 | |
| EA3GEO | 2026-08-30 23:17:24 | 41.40959 | 2.22612 | 71° | 75km/h | 5897m | 2.8m/s | 0°C | 0% | 0hPa | 0V | 00:00:00 | 00:00:00 | 00:00:00 | |
| EA3IBE | 2026-08-30 23:17:21 | 41.40947 | 2.22542 | 85° | 62km/h | 5886m | 2.4m/s | 0°C | 0% | 0hPa | 0V | 00:00:00 | 00:00:00 | 00:00:00 | |
| EA3GEO | 2026-08-30 23:17:18 | 41.40935 | 2.22488 | 67° | 57km/h | 5873m | 7.6m/s | 0°C | 0% | 0hPa | 0V | 00:00:00 | 00:00:00 | 00:00:00 | |
| EA3IBE | 2026-08-30 23:17:16 | 41.40920 | 2.22451 | 60° | 68km/h | 5858m | 6.6m/s | 0°C | 0% | 0hPa | 0V | 00:00:00 | 00:00:00 | 00:00:00 | |
| EA3GEO | 2026-08-30 23:17:13 | 41.40895 | 2.22393 | 62° | 73km/h | 5839m | 4.7m/s | 0°C | 0% | 0hPa | 0V | 00:00:00 | 00:00:00 | 00:00:00 | |
| EA3IBE | 2026-08-30 23:17:10 | 41.40870 | 2.22326 | 66° | 73km/h | 5825m | 4.8m/s | 0°C | 0% | 0hPa | 0V | 00:00:00 | 00:00:00 | 00:00:00 | |
| EA3GEO | 2026-08-30 23:17:07 | 41.40841 | 2.22262 | 56° | 73km/h | 5806m | 5.9m/s | 0°C | 0% | 0hPa | 0V | 00:00:00 | 00:00:00 | 00:00:00 | |
| EA3IBE | 2026-08-30 23:17:05 | 41.40821 | 2.22223 | 60° | 68km/h | 5794m | 4.8m/s | 0°C | 0% | 0hPa | 0V | 00:00:00 | 00:00:00 | 00:00:00 | |
| EA3GEO | 2026-08-30 23:17:01 | 41.40793 | 2.22142 | 77° | 62km/h | 5771m | 4.9m/s | 0°C | 0% | 0hPa | 0V | 00:00:00 | 00:00:00 | 00:00:00 | |
| EA3IBE | 2026-08-30 23:16:59 | 41.40785 | 2.22099 | 74° | 60km/h | 5762m | 5.4m/s | 0°C | 0% | 0hPa | 0V | 00:00:00 | 00:00:00 | 00:00:00 | |
| EA3GEO | 2026-08-30 23:16:56 | 41.40772 | 2.22041 | 75° | 62km/h | 5742m | 5.2m/s | 0°C | 0% | 0hPa | 0V | 00:00:00 | 00:00:00 | 00:00:00 | |
| EA3IBE | 2026-08-30 23:16:54 | 41.40763 | 2.22001 | 73° | 62km/h | 5728m | 7.6m/s | 0°C | 0% | 0hPa | 0V | 00:00:00 | 00:00:00 | 00:00:00 | |
| EA3GEO | 2026-08-30 23:16:50 | 41.40736 | 2.21925 | 65° | 68km/h | 5703m | 6.8m/s | 0°C | 0% | 0hPa | 0V | 00:00:00 | 00:00:00 | 00:00:00 | |
| EA3IBE | 2026-08-30 23:16:48 | 41.40723 | 2.21882 | 69° | 71km/h | 5693m | 3.9m/s | 0°C | 0% | 0hPa | 0V | 00:00:00 | 00:00:00 | 00:00:00 | |
| EA3GEO | 2026-08-30 23:16:44 | 41.40695 | 2.21785 | 65° | 73km/h | 5674m | 2.6m/s | 0°C | 0% | 0hPa | 0V | 00:00:00 | 00:00:00 | 00:00:00 | |
| EA3IBE | 2026-08-30 23:16:43 | 41.40688 | 2.21762 | 66° | 75km/h | 5669m | 7.1m/s | 0°C | 0% | 0hPa | 0V | 00:00:00 | 00:00:00 | 00:00:00 | |
| EA3GEO | 2026-08-30 23:16:38 | 41.40663 | 2.21673 | 63° | 46km/h | 5640m | 3.3m/s | 0°C | 0% | 0hPa | 0V | 00:00:00 | 00:00:00 | 00:00:00 | |
| EA3IBE | 2026-08-30 23:16:35 | 41.40642 | 2.21627 | 60° | 69km/h | 5624m | 6.5m/s | 0°C | 0% | 0hPa | 0V | 00:00:00 | 00:00:00 | 00:00:00 | |
| EA3GEO | 2026-08-30 23:16:31 | 41.40612 | 2.21536 | 68° | 66km/h | 5596m | 6.8m/s | 0°C | 0% | 0hPa | 0V | 00:00:00 | 00:00:00 | 00:00:00 | |
| EA3GEO | 2026-08-30 23:16:25 | 41.40562 | 2.21440 | 70° | 58km/h | 5560m | 5.6m/s | 0°C | 0% | 0hPa | 0V | 00:00:00 | 00:00:00 | 00:00:00 | |
| EA3IBE | 2026-08-30 23:16:22 | 41.40544 | 2.21383 | 59° | 69km/h | 5538m | 4.8m/s | 0°C | 0% | 0hPa | 0V | 00:00:00 | 00:00:00 | 00:00:00 | |
| EA3GEO | 2026-08-30 23:16:20 | 41.40524 | 2.21346 | 52° | 68km/h | 5527m | 4.5m/s | 0°C | 0% | 0hPa | 0V | 00:00:00 | 00:00:00 | 00:00:00 | |
| EA3GEO | 2026-08-30 23:16:14 | 41.40470 | 2.21250 | 54° | 58km/h | 5492m | 8.4m/s | 0°C | 0% | 0hPa | 0V | 00:00:00 | 00:00:00 | 00:00:00 | |
| EA3IBE | 2026-08-30 23:16:12 | 41.40453 | 2.21215 | 60° | 66km/h | 5478m | 6.8m/s | 0°C | 0% | 0hPa | 0V | 00:00:00 | 00:00:00 | 00:00:00 | |
| EA3GEO | 2026-08-30 23:16:08 | 41.40427 | 2.21133 | 73° | 62km/h | 5457m | 3.9m/s | 0°C | 0% | 0hPa | 0V | 00:00:00 | 00:00:00 | 00:00:00 | |
| EA3IBE | 2026-08-30 23:16:07 | 41.40422 | 2.21113 | 74° | 62km/h | 5452m | 5.7m/s | 0°C | 0% | 0hPa | 0V | 00:00:00 | 00:00:00 | 00:00:00 | |
| EA3GEO | 2026-08-30 23:16:03 | 41.40396 | 2.21040 | 69° | 69km/h | 5427m | 4.1m/s | 0°C | 0% | 0hPa | 0V | 00:00:00 | 00:00:00 | 00:00:00 | |
| EA3IBE | 2026-08-30 23:16:01 | 41.40384 | 2.20997 | 71° | 71km/h | 5417m | 5.4m/s | 0°C | 0% | 0hPa | 0V | 00:00:00 | 00:00:00 | 00:00:00 | |
| EA3GEO | 2026-08-30 23:15:57 | 41.40352 | 2.20908 | 61° | 62km/h | 5391m | 6.1m/s | 0°C | 0% | 0hPa | 0V | 00:00:00 | 00:00:00 | 00:00:00 | |
| EA3IBE | 2026-08-30 23:15:55 | 41.40340 | 2.20877 | 69° | 44km/h | 5379m | 4.9m/s | 0°C | 0% | 0hPa | 0V | 00:00:00 | 00:00:00 | 00:00:00 | |
| EA3GEO | 2026-08-30 23:15:51 | 41.40323 | 2.20812 | 72° | 64km/h | 5364m | 4.8m/s | 0°C | 0% | 0hPa | 0V | 00:00:00 | 00:00:00 | 00:00:00 | |
| EA3IBE | 2026-08-30 23:15:50 | 41.40318 | 2.20792 | 72° | 64km/h | 5358m | 7.1m/s | 0°C | 0% | 0hPa | 0V | 00:00:00 | 00:00:00 | 00:00:00 | |
| EA3GEO | 2026-08-30 23:15:46 | 41.40282 | 2.20721 | 48° | 64km/h | 5333m | 3.2m/s | 0°C | 0% | 0hPa | 0V | 00:00:00 | 00:00:00 | 00:00:00 | |
| EA3IBE | 2026-08-30 23:15:45 | 41.40271 | 2.20706 | 48° | 64km/h | 5329m | 4.6m/s | 0°C | 0% | 0hPa | 0V | 00:00:00 | 00:00:00 | 00:00:00 | |
| EA3GEO | 2026-08-30 23:15:41 | 41.40234 | 2.20629 | 72° | 69km/h | 5304m | 5.7m/s | 0°C | 0% | 0hPa | 0V | 00:00:00 | 00:00:00 | 00:00:00 | |
| EA3IBE | 2026-08-30 23:15:40 | 41.40228 | 2.20607 | 73° | 68km/h | 5298m | 4.8m/s | 0°C | 0% | 0hPa | 0V | 00:00:00 | 00:00:00 | 00:00:00 | |
| EA3GEO | 2026-08-30 23:15:35 | 41.40186 | 2.20518 | 51° | 62km/h | 5275m | 4.8m/s | 0°C | 0% | 0hPa | 0V | 00:00:00 | 00:00:00 | 00:00:00 | |
| EA3IBE | 2026-08-30 23:15:34 | 41.40176 | 2.20500 | 53° | 69km/h | 5272m | 2.8m/s | 0°C | 0% | 0hPa | 0V | 00:00:00 | 00:00:00 | 00:00:00 | |
| EA3GEO | 2026-08-30 23:15:30 | 41.40130 | 2.20423 | 59° | 69km/h | 5252m | 4.5m/s | 0°C | 0% | 0hPa | 0V | 00:00:00 | 00:00:00 | 00:00:00 | |
| EA3IBE | 2026-08-30 23:15:28 | 41.40114 | 2.20385 | 66° | 66km/h | 5240m | 6.4m/s | 0°C | 0% | 0hPa | 0V | 00:00:00 | 00:00:00 | 00:00:00 | |
| EA3GEO | 2026-08-30 23:15:25 | 41.40098 | 2.20329 | 73° | 58km/h | 5218m | 5.7m/s | 0°C | 0% | 0hPa | 0V | 00:00:00 | 00:00:00 | 00:00:00 | |
| EA3IBE | 2026-08-30 23:15:23 | 41.40087 | 2.20290 | 69° | 64km/h | 5208m | 4.7m/s | 0°C | 0% | 0hPa | 0V | 00:00:00 | 00:00:00 | 00:00:00 | |
| EA3GEO | 2026-08-30 23:15:19 | 41.40051 | 2.20220 | 51° | 53km/h | 5185m | 2.7m/s | 0°C | 0% | 0hPa | 0V | 00:00:00 | 00:00:00 | 00:00:00 | |
| EA3IBE | 2026-08-30 23:15:13 | 41.40011 | 2.20134 | 62° | 55km/h | 5154m | 6.7m/s | 0°C | 0% | 0hPa | 0V | 00:00:00 | 00:00:00 | 00:00:00 | |
| EA3GEO | 2026-08-30 23:15:07 | 41.39972 | 2.20041 | 50° | 57km/h | 5119m | 4.0m/s | 0°C | 0% | 0hPa | 0V | 00:00:00 | 00:00:00 | 00:00:00 | |
| EA3IBE | 2026-08-30 23:15:06 | 41.39963 | 2.20027 | 53° | 55km/h | 5115m | 3.5m/s | 0°C | 0% | 0hPa | 0V | 00:00:00 | 00:00:00 | 00:00:00 | |
| EA3IBE | 2026-08-30 23:15:00 | 41.39915 | 2.19913 | 69° | 71km/h | 5083m | 4.2m/s | 0°C | 0% | 0hPa | 0V | 00:00:00 | 00:00:00 | 00:00:00 | |
| EA3GEO | 2026-08-30 23:14:57 | 41.39893 | 2.19842 | 67° | 68km/h | 5071m | 4.9m/s | 0°C | 0% | 0hPa | 0V | 00:00:00 | 00:00:00 | 00:00:00 | |
| EA3GEO | 2026-08-30 23:14:51 | 41.39845 | 2.19746 | 60° | 57km/h | 5041m | 3.8m/s | 0°C | 0% | 0hPa | 0V | 00:00:00 | 00:00:00 | 00:00:00 | |
| EA3IBE | 2026-08-30 23:14:50 | 41.39838 | 2.19728 | 68° | 62km/h | 5035m | 8.3m/s | 0°C | 0% | 0hPa | 0V | 00:00:00 | 00:00:00 | 00:00:00 | |
| EA3GEO | 2026-08-30 23:14:45 | 41.39808 | 2.19627 | 63° | 58km/h | 5002m | 5.5m/s | 0°C | 0% | 0hPa | 0V | 00:00:00 | 00:00:00 | 00:00:00 | |
| EA3IBE | 2026-08-30 23:14:44 | 41.39801 | 2.19609 | 62° | 62km/h | 4998m | 3.8m/s | 0°C | 0% | 0hPa | 0V | 00:00:00 | 00:00:00 | 00:00:00 | |
| EA3GEO | 2026-08-30 23:14:40 | 41.39783 | 2.19537 | 77° | 53km/h | 4982m | 4.5m/s | 0°C | 0% | 0hPa | 0V | 00:00:00 | 00:00:00 | 00:00:00 | |
| EA3IBE | 2026-08-30 23:14:39 | 41.39779 | 2.19520 | 74° | 53km/h | 4978m | 3.5m/s | 0°C | 0% | 0hPa | 0V | 00:00:00 | 00:00:00 | 00:00:00 | |
| EA3IBE | 2026-08-30 23:14:34 | 41.39756 | 2.19436 | 65° | 58km/h | 4949m | 5.7m/s | 0°C | 0% | 0hPa | 0V | 00:00:00 | 00:00:00 | 00:00:00 | |
| EA3IBE | 2026-08-30 23:14:28 | 41.39712 | 2.19303 | 72° | 69km/h | 4922m | 4.2m/s | 0°C | 0% | 0hPa | 0V | 00:00:00 | 00:00:00 | 00:00:00 | |
| EA3GEO | 2026-08-30 23:14:22 | 41.39672 | 2.19181 | 74° | 66km/h | 4881m | 4.6m/s | 0°C | 0% | 0hPa | 0V | 00:00:00 | 00:00:00 | 00:00:00 | |
| EA3IBE | 2026-08-30 23:14:20 | 41.39662 | 2.19143 | 69° | 55km/h | 4874m | 4.5m/s | 0°C | 0% | 0hPa | 0V | 00:00:00 | 00:00:00 | 00:00:00 | |
| EA3GEO | 2026-08-30 23:14:17 | 41.39652 | 2.19098 | 81° | 47km/h | 4864m | 3.2m/s | 0°C | 0% | 0hPa | 0V | 00:00:00 | 00:00:00 | 00:00:00 | |
| EA3IBE | 2026-08-30 23:14:15 | 41.39645 | 2.19061 | 73° | 60km/h | 4852m | 6.1m/s | 0°C | 0% | 0hPa | 0V | 00:00:00 | 00:00:00 | 00:00:00 | |
| EA3GEO | 2026-08-30 23:14:11 | 41.39627 | 2.18979 | 65° | 64km/h | 4820m | 4.5m/s | 0°C | 0% | 0hPa | 0V | 00:00:00 | 00:00:00 | 00:00:00 | |
| EA3IBE | 2026-08-30 23:14:08 | 41.39599 | 2.18927 | 57° | 58km/h | 4806m | 4.7m/s | 0°C | 0% | 0hPa | 0V | 00:00:00 | 00:00:00 | 00:00:00 | |
| EA3GEO | 2026-08-30 23:14:05 | 41.39581 | 2.18878 | 63° | 51km/h | 4783m | 9.2m/s | 0°C | 0% | 0hPa | 0V | 00:00:00 | 00:00:00 | 00:00:00 | |
| EA3IBE | 2026-08-30 23:14:02 | 41.39555 | 2.18823 | 58° | 77km/h | 4764m | 4.2m/s | 0°C | 0% | 0hPa | 0V | 00:00:00 | 00:00:00 | 00:00:00 | |
| EA3IBE | 2026-08-30 23:13:57 | 41.39524 | 2.18712 | 69° | 60km/h | 4738m | 9.1m/s | 0°C | 0% | 0hPa | 0V | 00:00:00 | 00:00:00 | 00:00:00 | |
| EA3GEO | 2026-08-30 23:13:53 | 41.39493 | 2.18645 | 49° | 55km/h | 4714m | 5.6m/s | 0°C | 0% | 0hPa | 0V | 00:00:00 | 00:00:00 | 00:00:00 | |
| EA3IBE | 2026-08-30 23:13:51 | 41.39480 | 2.18616 | 70° | 51km/h | 4706m | 5.2m/s | 0°C | 0% | 0hPa | 0V | 00:00:00 | 00:00:00 | 00:00:00 | |
| EA3GEO | 2026-08-30 23:13:47 | 41.39456 | 2.18536 | 64° | 77km/h | 4678m | 5.3m/s | 0°C | 0% | 0hPa | 0V | 00:00:00 | 00:00:00 | 00:00:00 | |
| EA3IBE | 2026-08-30 23:13:43 | 41.39419 | 2.18445 | 59° | 71km/h | 4663m | 4.7m/s | 0°C | 0% | 0hPa | 0V | 00:00:00 | 00:00:00 | 00:00:00 | |
| EA3GEO | 2026-08-30 23:13:41 | 41.39406 | 2.18407 | 72° | 62km/h | 4651m | 7.0m/s | 0°C | 0% | 0hPa | 0V | 00:00:00 | 00:00:00 | 00:00:00 | |
| EA3GEO | 2026-08-30 23:13:35 | 41.39380 | 2.18286 | 73° | 51km/h | 4615m | 3.2m/s | 0°C | 0% | 0hPa | 0V | 00:00:00 | 00:00:00 | 00:00:00 | |
| EA3IBE | 2026-08-30 23:13:32 | 41.39369 | 2.18237 | 73° | 60km/h | 4604m | 1.8m/s | 0°C | 0% | 0hPa | 0V | 00:00:00 | 00:00:00 | 00:00:00 | |
| EA3GEO | 2026-08-30 23:13:30 | 41.39361 | 2.18194 | 74° | 77km/h | 4595m | 6.4m/s | 0°C | 0% | 0hPa | 0V | 00:00:00 | 00:00:00 | 00:00:00 | |
| EA3IBE | 2026-08-30 23:13:27 | 41.39345 | 2.18131 | 70° | 60km/h | 4574m | 8.2m/s | 0°C | 0% | 0hPa | 0V | 00:00:00 | 00:00:00 | 00:00:00 | |
| EA3GEO | 2026-08-30 23:13:24 | 41.39329 | 2.18072 | 67° | 68km/h | 4552m | 3.5m/s | 0°C | 0% | 0hPa | 0V | 00:00:00 | 00:00:00 | 00:00:00 | |
| EA3IBE | 2026-08-30 23:13:21 | 41.39306 | 2.18011 | 61° | 69km/h | 4540m | 5.1m/s | 0°C | 0% | 0hPa | 0V | 00:00:00 | 00:00:00 | 00:00:00 | |
| EA3GEO | 2026-08-30 23:13:19 | 41.39290 | 2.17974 | 66° | 60km/h | 4530m | 3.7m/s | 0°C | 0% | 0hPa | 0V | 00:00:00 | 00:00:00 | 00:00:00 | |
| EA3GEO | 2026-08-30 23:13:13 | 41.39268 | 2.17853 | 90° | 58km/h | 4491m | 5.0m/s | 0°C | 0% | 0hPa | 0V | 00:00:00 | 00:00:00 | 00:00:00 | |
| EA3GEO | 2026-08-30 23:13:07 | 41.39265 | 2.17750 | 90° | 47km/h | 4456m | 4.8m/s | 0°C | 0% | 0hPa | 0V | 00:00:00 | 00:00:00 | 00:00:00 | |
| EA3IBE | 2026-08-30 23:13:06 | 41.39265 | 2.17734 | 92° | 46km/h | 4451m | 6.2m/s | 0°C | 0% | 0hPa | 0V | 00:00:00 | 00:00:00 | 00:00:00 | |
| EA3GEO | 2026-08-30 23:13:01 | 41.39247 | 2.17658 | 61° | 47km/h | 4428m | 4.1m/s | 0°C | 0% | 0hPa | 0V | 00:00:00 | 00:00:00 | 00:00:00 | |
| EA3IBE | 2026-08-30 23:13:00 | 41.39243 | 2.17645 | 77° | 40km/h | 4425m | 2.1m/s | 0°C | 0% | 0hPa | 0V | 00:00:00 | 00:00:00 | 00:00:00 | |
| EA3GEO | 2026-08-30 23:12:56 | 41.39240 | 2.17592 | 100° | 35km/h | 4399m | 5.8m/s | 0°C | 0% | 0hPa | 0V | 00:00:00 | 00:00:00 | 00:00:00 | |
| EA3IBE | 2026-08-30 23:12:55 | 41.39242 | 2.17580 | 94° | 40km/h | 4393m | 4.3m/s | 0°C | 0% | 0hPa | 0V | 00:00:00 | 00:00:00 | 00:00:00 | |
| EA3GEO | 2026-08-30 23:12:50 | 41.39232 | 2.17500 | 73° | 64km/h | 4366m | 4.0m/s | 0°C | 0% | 0hPa | 0V | 00:00:00 | 00:00:00 | 00:00:00 | |
| EA3IBE | 2026-08-30 23:12:49 | 41.39228 | 2.17478 | 74° | 68km/h | 4363m | 2.3m/s | 0°C | 0% | 0hPa | 0V | 00:00:00 | 00:00:00 | 00:00:00 | |
| EA3GEO | 2026-08-30 23:12:45 | 41.39219 | 2.17403 | 94° | 47km/h | 4338m | 7.3m/s | 0°C | 0% | 0hPa | 0V | 00:00:00 | 00:00:00 | 00:00:00 | |
| EA3IBE | 2026-08-30 23:12:43 | 41.39223 | 2.17371 | 101° | 51km/h | 4328m | 2.4m/s | 0°C | 0% | 0hPa | 0V | 00:00:00 | 00:00:00 | 00:00:00 | |
| EA3GEO | 2026-08-30 23:12:40 | 41.39224 | 2.17316 | 78° | 51km/h | 4314m | 6.9m/s | 0°C | 0% | 0hPa | 0V | 00:00:00 | 00:00:00 | 00:00:00 | |
| EA3IBE | 2026-08-30 23:12:37 | 41.39216 | 2.17276 | 64° | 35km/h | 4293m | 5.6m/s | 0°C | 0% | 0hPa | 0V | 00:00:00 | 00:00:00 | 00:00:00 | |
| EA3GEO | 2026-08-30 23:12:34 | 41.39204 | 2.17236 | 74° | 47km/h | 4277m | 6.9m/s | 0°C | 0% | 0hPa | 0V | 00:00:00 | 00:00:00 | 00:00:00 | |
| EA3IBE | 2026-08-30 23:12:32 | 41.39201 | 2.17203 | 88° | 49km/h | 4260m | 9.8m/s | 0°C | 0% | 0hPa | 0V | 00:00:00 | 00:00:00 | 00:00:00 | |
| EA3GEO | 2026-08-30 23:12:29 | 41.39201 | 2.17151 | 89° | 47km/h | 4237m | 6.6m/s | 0°C | 0% | 0hPa | 0V | 00:00:00 | 00:00:00 | 00:00:00 | |
| EA3IBE | 2026-08-30 23:12:26 | 41.39199 | 2.17112 | 79° | 42km/h | 4220m | 1.2m/s | 0°C | 0% | 0hPa | 0V | 00:00:00 | 00:00:00 | 00:00:00 | |
| EA3GEO | 2026-08-30 23:12:23 | 41.39186 | 2.17064 | 80° | 58km/h | 4207m | 4.1m/s | 0°C | 0% | 0hPa | 0V | 00:00:00 | 00:00:00 | 00:00:00 | |
| EA3IBE | 2026-08-30 23:12:20 | 41.39190 | 2.17004 | 105° | 60km/h | 4190m | 5.5m/s | 0°C | 0% | 0hPa | 0V | 00:00:00 | 00:00:00 | 00:00:00 | |
| EA3GEO | 2026-08-30 23:12:18 | 41.39194 | 2.16963 | 90° | 62km/h | 4179m | 3.9m/s | 0°C | 0% | 0hPa | 0V | 00:00:00 | 00:00:00 | 00:00:00 | |
| EA3IBE | 2026-08-30 23:12:13 | 41.39185 | 2.16867 | 82° | 47km/h | 4145m | 5.9m/s | 0°C | 0% | 0hPa | 0V | 00:00:00 | 00:00:00 | 00:00:00 | |
| EA3GEO | 2026-08-30 23:12:12 | 41.39182 | 2.16852 | 76° | 40km/h | 4139m | 4.7m/s | 0°C | 0% | 0hPa | 0V | 00:00:00 | 00:00:00 | 00:00:00 | |
| EA3IBE | 2026-08-30 23:12:08 | 41.39188 | 2.16797 | 103° | 51km/h | 4120m | 6.0m/s | 0°C | 0% | 0hPa | 0V | 00:00:00 | 00:00:00 | 00:00:00 | |
| EA3GEO | 2026-08-30 23:12:07 | 41.39190 | 2.16780 | 99° | 53km/h | 4113m | 6.4m/s | 0°C | 0% | 0hPa | 0V | 00:00:00 | 00:00:00 | 00:00:00 | |
| EA3IBE | 2026-08-30 23:12:02 | 41.39182 | 2.16684 | 77° | 57km/h | 4091m | 4.9m/s | 0°C | 0% | 0hPa | 0V | 00:00:00 | 00:00:00 | 00:00:00 | |
| EA3GEO | 2026-08-30 23:12:01 | 41.39178 | 2.16668 | 69° | 44km/h | 4086m | 4.4m/s | 0°C | 0% | 0hPa | 0V | 00:00:00 | 00:00:00 | 00:00:00 | |
| EA3IBE | 2026-08-30 23:11:57 | 41.39162 | 2.16610 | 77° | 53km/h | 4064m | 5.3m/s | 0°C | 0% | 0hPa | 0V | 00:00:00 | 00:00:00 | 00:00:00 | |
| EA3GEO | 2026-08-30 23:11:55 | 41.39158 | 2.16571 | 93° | 58km/h | 4052m | 7.1m/s | 0°C | 0% | 0hPa | 0V | 00:00:00 | 00:00:00 | 00:00:00 | |
| EA3IBE | 2026-08-30 23:11:51 | 41.39164 | 2.16488 | 93° | 57km/h | 4025m | 5.9m/s | 0°C | 0% | 0hPa | 0V | 00:00:00 | 00:00:00 | 00:00:00 | |
| EA3GEO | 2026-08-30 23:11:50 | 41.39164 | 2.16471 | 88° | 49km/h | 4018m | 4.9m/s | 0°C | 0% | 0hPa | 0V | 00:00:00 | 00:00:00 | 00:00:00 | |
| EA3IBE | 2026-08-30 23:11:46 | 41.39155 | 2.16411 | 71° | 46km/h | 3990m | 4.5m/s | 0°C | 0% | 0hPa | 0V | 00:00:00 | 00:00:00 | 00:00:00 | |
| EA3GEO | 2026-08-30 23:11:44 | 41.39146 | 2.16382 | 72° | 51km/h | 3982m | 4.7m/s | 0°C | 0% | 0hPa | 0V | 00:00:00 | 00:00:00 | 00:00:00 | |
| EA3IBE | 2026-08-30 23:11:40 | 41.39141 | 2.16306 | 85° | 57km/h | 3959m | 7.9m/s | 0°C | 0% | 0hPa | 0V | 00:00:00 | 00:00:00 | 00:00:00 | |
| EA3GEO | 2026-08-30 23:11:39 | 41.39140 | 2.16289 | 80° | 46km/h | 3951m | 8.1m/s | 0°C | 0% | 0hPa | 0V | 00:00:00 | 00:00:00 | 00:00:00 | |
| EA3IBE | 2026-08-30 23:11:34 | 41.39135 | 2.16213 | 87° | 51km/h | 3929m | 6.6m/s | 0°C | 0% | 0hPa | 0V | 00:00:00 | 00:00:00 | 00:00:00 | |
| EA3GEO | 2026-08-30 23:11:33 | 41.39134 | 2.16196 | 88° | 53km/h | 3921m | 7.1m/s | 0°C | 0% | 0hPa | 0V | 00:00:00 | 00:00:00 | 00:00:00 | |
| EA3IBE | 2026-08-30 23:11:28 | 41.39124 | 2.16129 | 85° | 44km/h | 3894m | 0.9m/s | 0°C | 0% | 0hPa | 0V | 00:00:00 | 00:00:00 | 00:00:00 | |
| EA3GEO | 2026-08-30 23:11:27 | 41.39124 | 2.16114 | 91° | 46km/h | 3891m | 6.4m/s | 0°C | 0% | 0hPa | 0V | 00:00:00 | 00:00:00 | 00:00:00 | |
| EA3IBE | 2026-08-30 23:11:22 | 41.39121 | 2.16017 | 89° | 60km/h | 3864m | 3.7m/s | 0°C | 0% | 0hPa | 0V | 00:00:00 | 00:00:00 | 00:00:00 | |
| EA3GEO | 2026-08-30 23:11:21 | 41.39121 | 2.15997 | 87° | 58km/h | 3860m | 5.1m/s | 0°C | 0% | 0hPa | 0V | 00:00:00 | 00:00:00 | 00:00:00 | |
| EA3IBE | 2026-08-30 23:11:17 | 41.39126 | 2.15937 | 99° | 47km/h | 3835m | 6.2m/s | 0°C | 0% | 0hPa | 0V | 00:00:00 | 00:00:00 | 00:00:00 | |
| EA3GEO | 2026-08-30 23:11:16 | 41.39128 | 2.15919 | 96° | 60km/h | 3829m | 5.3m/s | 0°C | 0% | 0hPa | 0V | 00:00:00 | 00:00:00 | 00:00:00 | |
| EA3IBE | 2026-08-30 23:11:11 | 41.39123 | 2.15829 | 86° | 40km/h | 3794m | 6.8m/s | 0°C | 0% | 0hPa | 0V | 00:00:00 | 00:00:00 | 00:00:00 | |
| EA3GEO | 2026-08-30 23:11:10 | 41.39121 | 2.15816 | 79° | 38km/h | 3788m | 7.6m/s | 0°C | 0% | 0hPa | 0V | 00:00:00 | 00:00:00 | 00:00:00 | |
| EA3IBE | 2026-08-30 23:11:06 | 41.39112 | 2.15763 | 79° | 47km/h | 3770m | 2.3m/s | 0°C | 0% | 0hPa | 0V | 00:00:00 | 00:00:00 | 00:00:00 | |
| EA3GEO | 2026-08-30 23:11:05 | 41.39109 | 2.15747 | 77° | 51km/h | 3767m | 3.6m/s | 0°C | 0% | 0hPa | 0V | 00:00:00 | 00:00:00 | 00:00:00 | |
| EA3IBE | 2026-08-30 23:11:00 | 41.39096 | 2.15677 | 96° | 37km/h | 3748m | 3.6m/s | 0°C | 0% | 0hPa | 0V | 00:00:00 | 00:00:00 | 00:00:00 | |
| EA3IBE | 2026-08-30 23:10:54 | 41.39082 | 2.15602 | 75° | 55km/h | 3721m | 4.1m/s | 0°C | 0% | 0hPa | 0V | 00:00:00 | 00:00:00 | 00:00:00 | |
| EA3IBE | 2026-08-30 23:10:49 | 41.39078 | 2.15521 | 79° | 49km/h | 3691m | 8.5m/s | 0°C | 0% | 0hPa | 0V | 00:00:00 | 00:00:00 | 00:00:00 | |
| EA3IBE | 2026-08-30 23:10:43 | 41.39068 | 2.15430 | 102° | 37km/h | 3654m | 4.0m/s | 0°C | 0% | 0hPa | 0V | 00:00:00 | 00:00:00 | 00:00:00 | |
| EA3GEO | 2026-08-30 23:10:42 | 41.39069 | 2.15419 | 95° | 33km/h | 3650m | 1.7m/s | 0°C | 0% | 0hPa | 0V | 00:00:00 | 00:00:00 | 00:00:00 | |
| EA3IBE | 2026-08-30 23:10:38 | 41.39068 | 2.15382 | 60° | 33km/h | 3635m | 4.2m/s | 0°C | 0% | 0hPa | 0V | 00:00:00 | 00:00:00 | 00:00:00 | |
| EA3GEO | 2026-08-30 23:10:36 | 41.39056 | 2.15360 | 58° | 46km/h | 3622m | 8.4m/s | 0°C | 0% | 0hPa | 0V | 00:00:00 | 00:00:00 | 00:00:00 | |
| EA3IBE | 2026-08-30 23:10:32 | 41.39043 | 2.15304 | 101° | 33km/h | 3597m | 6.4m/s | 0°C | 0% | 0hPa | 0V | 00:00:00 | 00:00:00 | 00:00:00 | |
| EA3GEO | 2026-08-30 23:10:30 | 41.39044 | 2.15282 | 90° | 38km/h | 3581m | 6.9m/s | 0°C | 0% | 0hPa | 0V | 00:00:00 | 00:00:00 | 00:00:00 | |
| EA3IBE | 2026-08-30 23:10:27 | 41.39037 | 2.15235 | 77° | 51km/h | 3559m | 6.2m/s | 0°C | 0% | 0hPa | 0V | 00:00:00 | 00:00:00 | 00:00:00 | |
| EA3GEO | 2026-08-30 23:10:24 | 41.39031 | 2.15199 | 74° | 27km/h | 3540m | 9.1m/s | 0°C | 0% | 0hPa | 0V | 00:00:00 | 00:00:00 | 00:00:00 | |
| EA3IBE | 2026-08-30 23:10:21 | 41.39034 | 2.15162 | 93° | 51km/h | 3519m | 4.3m/s | 0°C | 0% | 0hPa | 0V | 00:00:00 | 00:00:00 | 00:00:00 | |
| EA3GEO | 2026-08-30 23:10:18 | 41.39031 | 2.15110 | 81° | 53km/h | 3508m | 2.5m/s | 0°C | 0% | 0hPa | 0V | 00:00:00 | 00:00:00 | 00:00:00 | |
| EA3IBE | 2026-08-30 23:10:16 | 41.39024 | 2.15078 | 76° | 46km/h | 3501m | 2.7m/s | 0°C | 0% | 0hPa | 0V | 00:00:00 | 00:00:00 | 00:00:00 | |
| EA3GEO | 2026-08-30 23:10:12 | 41.39012 | 2.15026 | 74° | 37km/h | 3476m | 4.8m/s | 0°C | 0% | 0hPa | 0V | 00:00:00 | 00:00:00 | 00:00:00 | |
| EA3IBE | 2026-08-30 23:10:11 | 41.39010 | 2.15014 | 83° | 37km/h | 3471m | 4.8m/s | 0°C | 0% | 0hPa | 0V | 00:00:00 | 00:00:00 | 00:00:00 | |
| EA3GEO | 2026-08-30 23:10:07 | 41.39014 | 2.14952 | 91° | 49km/h | 3456m | 4.3m/s | 0°C | 0% | 0hPa | 0V | 00:00:00 | 00:00:00 | 00:00:00 | |
| EA3IBE | 2026-08-30 23:10:06 | 41.39014 | 2.14936 | 90° | 46km/h | 3452m | 3.8m/s | 0°C | 0% | 0hPa | 0V | 00:00:00 | 00:00:00 | 00:00:00 | |
| EA3GEO | 2026-08-30 23:10:01 | 41.39012 | 2.14881 | 114° | 20km/h | 3423m | 8.7m/s | 0°C | 0% | 0hPa | 0V | 00:00:00 | 00:00:00 | 00:00:00 | |
| EA3IBE | 2026-08-30 23:10:00 | 41.39013 | 2.14873 | 89° | 26km/h | 3415m | 6.2m/s | 0°C | 0% | 0hPa | 0V | 00:00:00 | 00:00:00 | 00:00:00 | |
| EA3GEO | 2026-08-30 23:09:55 | 41.39002 | 2.14822 | 75° | 37km/h | 3394m | 3.0m/s | 0°C | 0% | 0hPa | 0V | 00:00:00 | 00:00:00 | 00:00:00 | |
| EA3IBE | 2026-08-30 23:09:54 | 41.39000 | 2.14809 | 85° | 40km/h | 3390m | 3.5m/s | 0°C | 0% | 0hPa | 0V | 00:00:00 | 00:00:00 | 00:00:00 | |
| EA3GEO | 2026-08-30 23:09:50 | 41.39006 | 2.14767 | 125° | 16km/h | 3372m | 4.7m/s | 0°C | 0% | 0hPa | 0V | 00:00:00 | 00:00:00 | 00:00:00 | |
| EA3IBE | 2026-08-30 23:09:49 | 41.39008 | 2.14762 | 93° | 18km/h | 3366m | 6.4m/s | 0°C | 0% | 0hPa | 0V | 00:00:00 | 00:00:00 | 00:00:00 | |
| EA3IBE | 2026-08-30 23:09:43 | 41.39003 | 2.14692 | 100° | 33km/h | 3328m | 4.8m/s | 0°C | 0% | 0hPa | 0V | 00:00:00 | 00:00:00 | 00:00:00 | |
| EA3IBE | 2026-08-30 23:09:38 | 41.39012 | 2.14649 | 83° | 31km/h | 3302m | 5.9m/s | 0°C | 0% | 0hPa | 0V | 00:00:00 | 00:00:00 | 00:00:00 | |
| EA3IBE | 2026-08-30 23:09:32 | 41.38998 | 2.14601 | 99° | 20km/h | 3276m | 4.1m/s | 0°C | 0% | 0hPa | 0V | 00:00:00 | 00:00:00 | 00:00:00 | |
| EA3IBE | 2026-08-30 23:09:26 | 41.38991 | 2.14545 | 85° | 31km/h | 3240m | 4.9m/s | 0°C | 0% | 0hPa | 0V | 00:00:00 | 00:00:00 | 00:00:00 | |
| EA3IBE | 2026-08-30 23:09:20 | 41.38988 | 2.14478 | 116° | 24km/h | 3216m | 3.8m/s | 0°C | 0% | 0hPa | 0V | 00:00:00 | 00:00:00 | 00:00:00 | |
| EA3IBE | 2026-08-30 23:09:14 | 41.38990 | 2.14427 | 83° | 37km/h | 3183m | 3.3m/s | 0°C | 0% | 0hPa | 0V | 00:00:00 | 00:00:00 | 00:00:00 | |
| EA3IBE | 2026-08-30 23:09:09 | 41.38980 | 2.14383 | 37° | 16km/h | 3160m | 7.8m/s | 0°C | 0% | 0hPa | 0V | 00:00:00 | 00:00:00 | 00:00:00 | |
| EA3GEO | 2026-08-30 23:09:08 | 41.38976 | 2.14380 | 36° | 18km/h | 3153m | 6.9m/s | 0°C | 0% | 0hPa | 0V | 00:00:00 | 00:00:00 | 00:00:00 | |
| EA3IBE | 2026-08-30 23:09:03 | 41.38972 | 2.14329 | 107° | 31km/h | 3125m | 6.0m/s | 0°C | 0% | 0hPa | 0V | 00:00:00 | 00:00:00 | 00:00:00 | |
| EA3GEO | 2026-08-30 23:09:02 | 41.38974 | 2.14320 | 105° | 24km/h | 3118m | 6.0m/s | 0°C | 0% | 0hPa | 0V | 00:00:00 | 00:00:00 | 00:00:00 | |
| EA3GEO | 2026-08-30 23:08:57 | 41.38968 | 2.14301 | 60° | 13km/h | 3092m | 6.4m/s | 0°C | 0% | 0hPa | 0V | 00:00:00 | 00:00:00 | 00:00:00 | |
| EA3IBE | 2026-08-30 23:08:52 | 41.38956 | 2.14265 | 49° | 15km/h | 3063m | 6.2m/s | 0°C | 0% | 0hPa | 0V | 00:00:00 | 00:00:00 | 00:00:00 | |
| EA3GEO | 2026-08-30 23:08:51 | 41.38954 | 2.14260 | 90° | 18km/h | 3055m | 7.6m/s | 0°C | 0% | 0hPa | 0V | 00:00:00 | 00:00:00 | 00:00:00 | |
| EA3IBE | 2026-08-30 23:08:46 | 41.38960 | 2.14216 | 122° | 22km/h | 3029m | 3.9m/s | 0°C | 0% | 0hPa | 0V | 00:00:00 | 00:00:00 | 00:00:00 | |
| EA3GEO | 2026-08-30 23:08:45 | 41.38963 | 2.14211 | 112° | 16km/h | 3025m | 4.2m/s | 0°C | 0% | 0hPa | 0V | 00:00:00 | 00:00:00 | 00:00:00 | |
| EA3IBE | 2026-08-30 23:08:42 | 41.38962 | 2.14191 | 79° | 27km/h | 3009m | 6.4m/s | 0°C | 0% | 0hPa | 0V | 00:00:00 | 00:00:00 | 00:00:00 | |
| EA3GEO | 2026-08-30 23:08:39 | 41.38961 | 2.14174 | 97° | 24km/h | 2997m | 7.3m/s | 0°C | 0% | 0hPa | 0V | 00:00:00 | 00:00:00 | 00:00:00 | |
| EA3IBE | 2026-08-30 23:08:36 | 41.38957 | 2.14151 | 92° | 27km/h | 2977m | 7.3m/s | 0°C | 0% | 0hPa | 0V | 00:00:00 | 00:00:00 | 00:00:00 | |
| EA3GEO | 2026-08-30 23:08:34 | 41.38958 | 2.14138 | 111° | 15km/h | 2961m | 6.8m/s | 0°C | 0% | 0hPa | 0V | 00:00:00 | 00:00:00 | 00:00:00 | |
| EA3IBE | 2026-08-30 23:08:31 | 41.38952 | 2.14127 | 47° | 20km/h | 2942m | 6.6m/s | 0°C | 0% | 0hPa | 0V | 00:00:00 | 00:00:00 | 00:00:00 | |
| EA3GEO | 2026-08-30 23:08:28 | 41.38952 | 2.14108 | 107° | 22km/h | 2918m | 5.6m/s | 0°C | 0% | 0hPa | 0V | 00:00:00 | 00:00:00 | 00:00:00 | |
| EA3IBE | 2026-08-30 23:08:25 | 41.38950 | 2.14094 | 34° | 16km/h | 2897m | 6.2m/s | 0°C | 0% | 0hPa | 0V | 00:00:00 | 00:00:00 | 00:00:00 | |
| EA3GEO | 2026-08-30 23:08:23 | 41.38944 | 2.14089 | 48° | 16km/h | 2883m | 4.4m/s | 0°C | 0% | 0hPa | 0V | 00:00:00 | 00:00:00 | 00:00:00 | |
| EA3IBE | 2026-08-30 23:08:20 | 41.38934 | 2.14076 | 49° | 13km/h | 2865m | 7.5m/s | 0°C | 0% | 0hPa | 0V | 00:00:00 | 00:00:00 | 00:00:00 | |
| EA3GEO | 2026-08-30 23:08:17 | 41.38936 | 2.14063 | 123° | 27km/h | 2848m | 5.0m/s | 0°C | 0% | 0hPa | 0V | 00:00:00 | 00:00:00 | 00:00:00 | |
| EA3IBE | 2026-08-30 23:08:15 | 41.38938 | 2.14044 | 86° | 31km/h | 2837m | 5.9m/s | 0°C | 0% | 0hPa | 0V | 00:00:00 | 00:00:00 | 00:00:00 | |
| EA3GEO | 2026-08-30 23:08:11 | 41.38930 | 2.14027 | 305° | 2km/h | 2813m | 5.1m/s | 0°C | 0% | 0hPa | 0V | 00:00:00 | 00:00:00 | 00:00:00 | |
| EA3IBE | 2026-08-30 23:08:09 | 41.38933 | 2.14023 | 113° | 13km/h | 2801m | 6.0m/s | 0°C | 0% | 0hPa | 0V | 00:00:00 | 00:00:00 | 00:00:00 | |
| EA3GEO | 2026-08-30 23:08:05 | 41.38932 | 2.14000 | 47° | 24km/h | 2776m | 6.6m/s | 0°C | 0% | 0hPa | 0V | 00:00:00 | 00:00:00 | 00:00:00 | |
| EA3IBE | 2026-08-30 23:08:04 | 41.38927 | 2.13995 | 38° | 22km/h | 2768m | 6.0m/s | 0°C | 0% | 0hPa | 0V | 00:00:00 | 00:00:00 | 00:00:00 | |
| EA3GEO | 2026-08-30 23:07:59 | 41.38923 | 2.13963 | 83° | 4km/h | 2745m | 3.8m/s | 0°C | 0% | 0hPa | 0V | 00:00:00 | 00:00:00 | 00:00:00 | |
| EA3IBE | 2026-08-30 23:07:58 | 41.38923 | 2.13963 | 278° | 2km/h | 2739m | 6.6m/s | 0°C | 0% | 0hPa | 0V | 00:00:00 | 00:00:00 | 00:00:00 | |
| EA3GEO | 2026-08-30 23:07:53 | 41.38921 | 2.13951 | 117° | 22km/h | 2705m | 5.0m/s | 0°C | 0% | 0hPa | 0V | 00:00:00 | 00:00:00 | 00:00:00 | |
| EA3IBE | 2026-08-30 23:07:52 | 41.38924 | 2.13945 | 121° | 26km/h | 2700m | 5.7m/s | 0°C | 0% | 0hPa | 0V | 00:00:00 | 00:00:00 | 00:00:00 | |
| EA3GEO | 2026-08-30 23:07:47 | 41.38930 | 2.13925 | 28° | 16km/h | 2667m | 6.3m/s | 0°C | 0% | 0hPa | 0V | 00:00:00 | 00:00:00 | 00:00:00 | |
| EA3IBE | 2026-08-30 23:07:46 | 41.38927 | 2.13924 | 13° | 15km/h | 2662m | 1.5m/s | 0°C | 0% | 0hPa | 0V | 00:00:00 | 00:00:00 | 00:00:00 | |
| EA3GEO | 2026-08-30 23:07:42 | 41.38927 | 2.13922 | 154° | 18km/h | 2645m | 5.6m/s | 0°C | 0% | 0hPa | 0V | 00:00:00 | 00:00:00 | 00:00:00 | |
| EA3IBE | 2026-08-30 23:07:40 | 41.38932 | 2.13910 | 102° | 20km/h | 2633m | 5.3m/s | 0°C | 0% | 0hPa | 0V | 00:00:00 | 00:00:00 | 00:00:00 | |
| EA3GEO | 2026-08-30 23:07:37 | 41.38926 | 2.13894 | 39° | 22km/h | 2612m | 6.2m/s | 0°C | 0% | 0hPa | 0V | 00:00:00 | 00:00:00 | 00:00:00 | |
| EA3IBE | 2026-08-30 23:07:35 | 41.38921 | 2.13882 | 86° | 16km/h | 2599m | 4.6m/s | 0°C | 0% | 0hPa | 0V | 00:00:00 | 00:00:00 | 00:00:00 | |
| EA3GEO | 2026-08-30 23:07:31 | 41.38930 | 2.13864 | 117° | 18km/h | 2576m | 6.1m/s | 0°C | 0% | 0hPa | 0V | 00:00:00 | 00:00:00 | 00:00:00 | |
| EA3IBE | 2026-08-30 23:07:30 | 41.38932 | 2.13857 | 108° | 27km/h | 2569m | 6.4m/s | 0°C | 0% | 0hPa | 0V | 00:00:00 | 00:00:00 | 00:00:00 | |
| EA3GEO | 2026-08-30 23:07:26 | 41.38938 | 2.13829 | 122° | 9km/h | 2550m | 4.2m/s | 0°C | 0% | 0hPa | 0V | 00:00:00 | 00:00:00 | 00:00:00 | |
| EA3IBE | 2026-08-30 23:07:24 | 41.38941 | 2.13828 | 169° | 9km/h | 2539m | 5.7m/s | 0°C | 0% | 0hPa | 0V | 00:00:00 | 00:00:00 | 00:00:00 | |
| EA3GEO | 2026-08-30 23:07:21 | 41.38950 | 2.13816 | 107° | 24km/h | 2522m | 4.5m/s | 0°C | 0% | 0hPa | 0V | 00:00:00 | 00:00:00 | 00:00:00 | |
| EA3IBE | 2026-08-30 23:07:18 | 41.38948 | 2.13796 | 65° | 15km/h | 2509m | 7.5m/s | 0°C | 0% | 0hPa | 0V | 00:00:00 | 00:00:00 | 00:00:00 | |
| EA3GEO | 2026-08-30 23:07:16 | 41.38949 | 2.13792 | 131° | 11km/h | 2494m | 7.0m/s | 0°C | 0% | 0hPa | 0V | 00:00:00 | 00:00:00 | 00:00:00 | |
| EA3IBE | 2026-08-30 23:07:13 | 41.38955 | 2.13781 | 107° | 15km/h | 2481m | 4.5m/s | 0°C | 0% | 0hPa | 0V | 00:00:00 | 00:00:00 | 00:00:00 | |
| EA3GEO | 2026-08-30 23:07:10 | 41.38958 | 2.13766 | 101° | 13km/h | 2465m | 6.9m/s | 0°C | 0% | 0hPa | 0V | 00:00:00 | 00:00:00 | 00:00:00 | |
| EA3IBE | 2026-08-30 23:07:09 | 41.38958 | 2.13754 | 65° | 24km/h | 2452m | 6.9m/s | 0°C | 0% | 0hPa | 0V | 00:00:00 | 00:00:00 | 00:00:00 | |
| EA3GEO | 2026-08-30 23:07:05 | 41.38950 | 2.13740 | 19° | 15km/h | 2433m | 6.5m/s | 0°C | 0% | 0hPa | 0V | 00:00:00 | 00:00:00 | 00:00:00 | |
| EA3IBE | 2026-08-30 23:07:02 | 41.38946 | 2.13731 | 56° | 9km/h | 2414m | 6.2m/s | 0°C | 0% | 0hPa | 0V | 00:00:00 | 00:00:00 | 00:00:00 | |
| EA3GEO | 2026-08-30 23:07:00 | 41.38945 | 2.13729 | 166° | 4km/h | 2398m | 7.6m/s | 0°C | 0% | 0hPa | 0V | 00:00:00 | 00:00:00 | 00:00:00 | |
| EA3IBE | 2026-08-30 23:06:56 | 41.38942 | 2.13707 | 57° | 24km/h | 2375m | 5.4m/s | 0°C | 0% | 0hPa | 0V | 00:00:00 | 00:00:00 | 00:00:00 | |
| EA3GEO | 2026-08-30 23:06:54 | 41.38935 | 2.13692 | 78° | 24km/h | 2365m | 7.1m/s | 0°C | 0% | 0hPa | 0V | 00:00:00 | 00:00:00 | 00:00:00 | |
| EA3IBE | 2026-08-30 23:06:51 | 41.38936 | 2.13669 | 91° | 18km/h | 2349m | 5.2m/s | 0°C | 0% | 0hPa | 0V | 00:00:00 | 00:00:00 | 00:00:00 | |
| EA3GEO | 2026-08-30 23:06:49 | 41.38935 | 2.13660 | 80° | 13km/h | 2337m | 5.6m/s | 0°C | 0% | 0hPa | 0V | 00:00:00 | 00:00:00 | 00:00:00 | |
| EA3IBE | 2026-08-30 23:06:46 | 41.38930 | 2.13654 | 2° | 5km/h | 2319m | 3.4m/s | 0°C | 0% | 0hPa | 0V | 00:00:00 | 00:00:00 | 00:00:00 | |
| EA3GEO | 2026-08-30 23:06:44 | 41.38929 | 2.13653 | 132° | 9km/h | 2308m | 4.5m/s | 0°C | 0% | 0hPa | 0V | 00:00:00 | 00:00:00 | 00:00:00 | |
| EA3IBE | 2026-08-30 23:06:40 | 41.38925 | 2.13642 | 20° | 13km/h | 2286m | 4.8m/s | 0°C | 0% | 0hPa | 0V | 00:00:00 | 00:00:00 | 00:00:00 | |
| EA3GEO | 2026-08-30 23:06:38 | 41.38918 | 2.13636 | 35° | 22km/h | 2276m | 5.9m/s | 0°C | 0% | 0hPa | 0V | 00:00:00 | 00:00:00 | 00:00:00 | |
| EA3IBE | 2026-08-30 23:06:35 | 41.38912 | 2.13615 | 75° | 20km/h | 2261m | 5.5m/s | 0°C | 0% | 0hPa | 0V | 00:00:00 | 00:00:00 | 00:00:00 | |
| EA3GEO | 2026-08-30 23:06:32 | 41.38912 | 2.13605 | 35° | 2km/h | 2242m | 5.9m/s | 0°C | 0% | 0hPa | 0V | 00:00:00 | 00:00:00 | 00:00:00 | |
| EA3IBE | 2026-08-30 23:06:29 | 41.38903 | 2.13603 | 33° | 11km/h | 2227m | 3.8m/s | 0°C | 0% | 0hPa | 0V | 00:00:00 | 00:00:00 | 00:00:00 | |
| EA3GEO | 2026-08-30 23:06:25 | 41.38901 | 2.13590 | 34° | 11km/h | 2204m | 5.9m/s | 0°C | 0% | 0hPa | 0V | 00:00:00 | 00:00:00 | 00:00:00 | |
| EA3IBE | 2026-08-30 23:06:24 | 41.38899 | 2.13589 | 51° | 4km/h | 2197m | 8.0m/s | 0°C | 0% | 0hPa | 0V | 00:00:00 | 00:00:00 | 00:00:00 | |
| EA3GEO | 2026-08-30 23:06:20 | 41.38892 | 2.13580 | 16° | 15km/h | 2173m | 7.6m/s | 0°C | 0% | 0hPa | 0V | 00:00:00 | 00:00:00 | 00:00:00 | |
| EA3IBE | 2026-08-30 23:06:19 | 41.38889 | 2.13579 | 25° | 13km/h | 2167m | 4.4m/s | 0°C | 0% | 0hPa | 0V | 00:00:00 | 00:00:00 | 00:00:00 | |
| EA3GEO | 2026-08-30 23:06:14 | 41.38880 | 2.13557 | 122° | 13km/h | 2146m | 4.9m/s | 0°C | 0% | 0hPa | 0V | 00:00:00 | 00:00:00 | 00:00:00 | |
| EA3IBE | 2026-08-30 23:06:13 | 41.38881 | 2.13555 | 153° | 5km/h | 2140m | 4.5m/s | 0°C | 0% | 0hPa | 0V | 00:00:00 | 00:00:00 | 00:00:00 | |
| EA3GEO | 2026-08-30 23:06:09 | 41.38875 | 2.13551 | 50° | 18km/h | 2113m | 3.3m/s | 0°C | 0% | 0hPa | 0V | 00:00:00 | 00:00:00 | 00:00:00 | |
| EA3IBE | 2026-08-30 23:06:08 | 41.38874 | 2.13547 | 94° | 13km/h | 2109m | 5.3m/s | 0°C | 0% | 0hPa | 0V | 00:00:00 | 00:00:00 | 00:00:00 | |
| EA3GEO | 2026-08-30 23:06:03 | 41.38871 | 2.13538 | 45° | 20km/h | 2082m | 3.7m/s | 0°C | 0% | 0hPa | 0V | 00:00:00 | 00:00:00 | 00:00:00 | |
| EA3GEO | 2026-08-30 23:05:52 | 41.38868 | 2.13508 | 10° | 5km/h | 2022m | 4.4m/s | 0°C | 0% | 0hPa | 0V | 00:00:00 | 00:00:00 | 00:00:00 | |
| EA3IBE | 2026-08-30 23:05:47 | 41.38867 | 2.13499 | 31° | 7km/h | 1993m | 2.6m/s | 0°C | 0% | 0hPa | 0V | 00:00:00 | 00:00:00 | 00:00:00 | |
| EA3GEO | 2026-08-30 23:05:47 | 41.38867 | 2.13499 | 31° | 7km/h | 1993m | 2.6m/s | 0°C | 0% | 0hPa | 0V | 00:00:00 | 00:00:00 | 00:00:00 | |
| EA3IBE | 2026-08-30 23:05:42 | 41.38863 | 2.13470 | 92° | 24km/h | 1961m | 5.7m/s | 0°C | 0% | 0hPa | 0V | 00:00:00 | 00:00:00 | 00:00:00 | |
| EA3GEO | 2026-08-30 23:05:41 | 41.38864 | 2.13463 | 106° | 15km/h | 1957m | 4.3m/s | 0°C | 0% | 0hPa | 0V | 00:00:00 | 00:00:00 | 00:00:00 | |
| EA3IBE | 2026-08-30 23:05:36 | 41.38865 | 2.13444 | 58° | 20km/h | 1930m | 4.6m/s | 0°C | 0% | 0hPa | 0V | 00:00:00 | 00:00:00 | 00:00:00 | |
| EA3GEO | 2026-08-30 23:05:35 | 41.38863 | 2.13439 | 81° | 15km/h | 1924m | 5.1m/s | 0°C | 0% | 0hPa | 0V | 00:00:00 | 00:00:00 | 00:00:00 | |
| EA3IBE | 2026-08-30 23:05:31 | 41.38864 | 2.13427 | 90° | 16km/h | 1902m | 3.8m/s | 0°C | 0% | 0hPa | 0V | 00:00:00 | 00:00:00 | 00:00:00 | |
| EA3GEO | 2026-08-30 23:05:30 | 41.38864 | 2.13421 | 81° | 20km/h | 1898m | 5.1m/s | 0°C | 0% | 0hPa | 0V | 00:00:00 | 00:00:00 | 00:00:00 | |
| EA3IBE | 2026-08-30 23:05:26 | 41.38866 | 2.13413 | 340° | 5km/h | 1871m | 4.8m/s | 0°C | 0% | 0hPa | 0V | 00:00:00 | 00:00:00 | 00:00:00 | |
| EA3GEO | 2026-08-30 23:05:24 | 41.38865 | 2.13414 | 301° | 4km/h | 1858m | 6.4m/s | 0°C | 0% | 0hPa | 0V | 00:00:00 | 00:00:00 | 00:00:00 | |
| EA3IBE | 2026-08-30 23:05:20 | 41.38855 | 2.13412 | 12° | 13km/h | 1836m | 3.2m/s | 0°C | 0% | 0hPa | 0V | 00:00:00 | 00:00:00 | 00:00:00 | |
| EA3GEO | 2026-08-30 23:05:18 | 41.38850 | 2.13412 | 355° | 4km/h | 1828m | 3.5m/s | 0°C | 0% | 0hPa | 0V | 00:00:00 | 00:00:00 | 00:00:00 | |
| EA3IBE | 2026-08-30 23:05:15 | 41.38853 | 2.13406 | 106° | 15km/h | 1814m | 4.9m/s | 0°C | 0% | 0hPa | 0V | 00:00:00 | 00:00:00 | 00:00:00 | |
| EA3GEO | 2026-08-30 23:05:13 | 41.38852 | 2.13394 | 82° | 18km/h | 1803m | 7.2m/s | 0°C | 0% | 0hPa | 0V | 00:00:00 | 00:00:00 | 00:00:00 | |
| EA3IBE | 2026-08-30 23:05:09 | 41.38850 | 2.13374 | 64° | 9km/h | 1782m | 4.0m/s | 0°C | 0% | 0hPa | 0V | 00:00:00 | 00:00:00 | 00:00:00 | |
| EA3GEO | 2026-08-30 23:05:07 | 41.38849 | 2.13369 | 99° | 7km/h | 1772m | 4.5m/s | 0°C | 0% | 0hPa | 0V | 00:00:00 | 00:00:00 | 00:00:00 | |
| EA3IBE | 2026-08-30 23:05:04 | 41.38848 | 2.13363 | 89° | 4km/h | 1754m | 5.5m/s | 0°C | 0% | 0hPa | 0V | 00:00:00 | 00:00:00 | 00:00:00 | |
| EA3GEO | 2026-08-30 23:05:02 | 41.38849 | 2.13357 | 108° | 16km/h | 1743m | 5.1m/s | 0°C | 0% | 0hPa | 0V | 00:00:00 | 00:00:00 | 00:00:00 | |
| EA3IBE | 2026-08-30 23:04:58 | 41.38840 | 2.13339 | 17° | 16km/h | 1719m | 4.1m/s | 0°C | 0% | 0hPa | 0V | 00:00:00 | 00:00:00 | 00:00:00 | |
| EA3GEO | 2026-08-30 23:04:56 | 41.38832 | 2.13339 | 5° | 11km/h | 1710m | 4.2m/s | 0°C | 0% | 0hPa | 0V | 00:00:00 | 00:00:00 | 00:00:00 | |
| EA3IBE | 2026-08-30 23:04:53 | 41.38823 | 2.13327 | 81° | 26km/h | 1693m | 6.2m/s | 0°C | 0% | 0hPa | 0V | 00:00:00 | 00:00:00 | 00:00:00 | |
| EA3GEO | 2026-08-30 23:04:50 | 41.38816 | 2.13301 | 64° | 24km/h | 1679m | 3.2m/s | 0°C | 0% | 0hPa | 0V | 00:00:00 | 00:00:00 | 00:00:00 | |
| EA3IBE | 2026-08-30 23:04:47 | 41.38808 | 2.13288 | 37° | 7km/h | 1665m | 4.8m/s | 0°C | 0% | 0hPa | 0V | 00:00:00 | 00:00:00 | 00:00:00 | |
| EA3GEO | 2026-08-30 23:04:44 | 41.38811 | 2.13281 | 97° | 18km/h | 1650m | 6.3m/s | 0°C | 0% | 0hPa | 0V | 00:00:00 | 00:00:00 | 00:00:00 | |
| EA3IBE | 2026-08-30 23:04:42 | 41.38810 | 2.13269 | 63° | 16km/h | 1639m | 7.2m/s | 0°C | 0% | 0hPa | 0V | 00:00:00 | 00:00:00 | 00:00:00 | |
| EA3GEO | 2026-08-30 23:04:38 | 41.38801 | 2.13251 | 83° | 13km/h | 1614m | 7.4m/s | 0°C | 0% | 0hPa | 0V | 00:00:00 | 00:00:00 | 00:00:00 | |
| EA3IBE | 2026-08-30 23:04:36 | 41.38802 | 2.13246 | 84° | 7km/h | 1600m | 4.9m/s | 0°C | 0% | 0hPa | 0V | 00:00:00 | 00:00:00 | 00:00:00 | |
| EA3GEO | 2026-08-30 23:04:32 | 41.38793 | 2.13226 | 91° | 16km/h | 1579m | 6.0m/s | 0°C | 0% | 0hPa | 0V | 00:00:00 | 00:00:00 | 00:00:00 | |
| EA3IBE | 2026-08-30 23:04:31 | 41.38793 | 2.13220 | 91° | 16km/h | 1573m | 6.7m/s | 0°C | 0% | 0hPa | 0V | 00:00:00 | 00:00:00 | 00:00:00 | |
| EA3GEO | 2026-08-30 23:04:26 | 41.38783 | 2.13197 | 81° | 22km/h | 1544m | 6.6m/s | 0°C | 0% | 0hPa | 0V | 00:00:00 | 00:00:00 | 00:00:00 | |
| EA3IBE | 2026-08-30 23:04:26 | 41.38783 | 2.13197 | 81° | 22km/h | 1544m | 6.6m/s | 0°C | 0% | 0hPa | 0V | 00:00:00 | 00:00:00 | 00:00:00 | |
| EA3GEO | 2026-08-30 23:04:20 | 41.38790 | 2.13175 | 73° | 7km/h | 1509m | 4.8m/s | 0°C | 0% | 0hPa | 0V | 00:00:00 | 00:00:00 | 00:00:00 | |
| EA3IBE | 2026-08-30 23:04:20 | 41.38790 | 2.13175 | 73° | 7km/h | 1509m | 4.8m/s | 0°C | 0% | 0hPa | 0V | 00:00:00 | 00:00:00 | 00:00:00 | |
| EA3IBE | 2026-08-30 23:04:15 | 41.38799 | 2.13169 | 0° | 0km/h | 1483m | 3.4m/s | 0°C | 0% | 0hPa | 0V | 00:00:00 | 00:00:00 | 00:00:00 | |
| EA3GEO | 2026-08-30 23:04:14 | 41.38799 | 2.13167 | 110° | 9km/h | 1479m | 5.6m/s | 0°C | 0% | 0hPa | 0V | 00:00:00 | 00:00:00 | 00:00:00 | |
| EA3IBE | 2026-08-30 23:04:10 | 41.38806 | 2.13154 | 171° | 13km/h | 1456m | 3.2m/s | 0°C | 0% | 0hPa | 0V | 00:00:00 | 00:00:00 | 00:00:00 | |
| EA3GEO | 2026-08-30 23:04:08 | 41.38811 | 2.13150 | 102° | 7km/h | 1445m | 6.8m/s | 0°C | 0% | 0hPa | 0V | 00:00:00 | 00:00:00 | 00:00:00 | |
| EA3IBE | 2026-08-30 23:04:04 | 41.38815 | 2.13132 | 152° | 15km/h | 1419m | 3.5m/s | 0°C | 0% | 0hPa | 0V | 00:00:00 | 00:00:00 | 00:00:00 | |
| EA3GEO | 2026-08-30 23:04:03 | 41.38818 | 2.13131 | 169° | 9km/h | 1415m | 2.8m/s | 0°C | 0% | 0hPa | 0V | 00:00:00 | 00:00:00 | 00:00:00 | |
| EA3IBE | 2026-08-30 23:03:59 | 41.38815 | 2.13128 | 37° | 9km/h | 1395m | 6.9m/s | 0°C | 0% | 0hPa | 0V | 00:00:00 | 00:00:00 | 00:00:00 | |
| EA3GEO | 2026-08-30 23:03:57 | 41.38813 | 2.13127 | 135° | 5km/h | 1382m | 4.0m/s | 0°C | 0% | 0hPa | 0V | 00:00:00 | 00:00:00 | 00:00:00 | |
| EA3IBE | 2026-08-30 23:03:53 | 41.38824 | 2.13108 | 111° | 26km/h | 1363m | 3.5m/s | 0°C | 0% | 0hPa | 0V | 00:00:00 | 00:00:00 | 00:00:00 | |
| EA3GEO | 2026-08-30 23:03:51 | 41.38829 | 2.13095 | 133° | 20km/h | 1352m | 4.9m/s | 0°C | 0% | 0hPa | 0V | 00:00:00 | 00:00:00 | 00:00:00 | |
| EA3IBE | 2026-08-30 23:03:47 | 41.38830 | 2.13078 | 73° | 22km/h | 1330m | 6.2m/s | 0°C | 0% | 0hPa | 0V | 00:00:00 | 00:00:00 | 00:00:00 | |
| EA3GEO | 2026-08-30 23:03:46 | 41.38828 | 2.13071 | 67° | 22km/h | 1323m | 7.6m/s | 0°C | 0% | 0hPa | 0V | 00:00:00 | 00:00:00 | 00:00:00 | |
| EA3IBE | 2026-08-30 23:03:41 | 41.38821 | 2.13044 | 85° | 20km/h | 1289m | 7.0m/s | 0°C | 0% | 0hPa | 0V | 00:00:00 | 00:00:00 | 00:00:00 | |
| EA3GEO | 2026-08-30 23:03:40 | 41.38822 | 2.13038 | 108° | 16km/h | 1282m | 5.2m/s | 0°C | 0% | 0hPa | 0V | 00:00:00 | 00:00:00 | 00:00:00 | |
| EA3GEO | 2026-08-30 23:03:34 | 41.38823 | 2.13017 | 64° | 13km/h | 1242m | 7.7m/s | 0°C | 0% | 0hPa | 0V | 00:00:00 | 00:00:00 | 00:00:00 | |
| EA3IBE | 2026-08-30 23:03:30 | 41.38805 | 2.13001 | 25° | 16km/h | 1220m | 5.5m/s | 0°C | 0% | 0hPa | 0V | 00:00:00 | 00:00:00 | 00:00:00 | |
| EA3GEO | 2026-08-30 23:03:29 | 41.38803 | 2.12998 | 72° | 13km/h | 1213m | 5.6m/s | 0°C | 0% | 0hPa | 0V | 00:00:00 | 00:00:00 | 00:00:00 | |
| EA3IBE | 2026-08-30 23:03:24 | 41.38800 | 2.12958 | 67° | 22km/h | 1182m | 7.1m/s | 0°C | 0% | 0hPa | 0V | 00:00:00 | 00:00:00 | 00:00:00 | |
| EA3GEO | 2026-08-30 23:03:23 | 41.38798 | 2.12953 | 52° | 15km/h | 1175m | 5.2m/s | 0°C | 0% | 0hPa | 0V | 00:00:00 | 00:00:00 | 00:00:00 | |
| EA3IBE | 2026-08-30 23:03:19 | 41.38777 | 2.12927 | 53° | 35km/h | 1157m | 6.1m/s | 0°C | 0% | 0hPa | 0V | 00:00:00 | 00:00:00 | 00:00:00 | |
| EA3GEO | 2026-08-30 23:03:17 | 41.38769 | 2.12908 | 66° | 27km/h | 1144m | 5.9m/s | 0°C | 0% | 0hPa | 0V | 00:00:00 | 00:00:00 | 00:00:00 | |
| EA3IBE | 2026-08-30 23:03:13 | 41.38760 | 2.12890 | 47° | 20km/h | 1124m | 2.6m/s | 0°C | 0% | 0hPa | 0V | 00:00:00 | 00:00:00 | 00:00:00 | |
| EA3GEO | 2026-08-30 23:03:12 | 41.38756 | 2.12884 | 48° | 20km/h | 1121m | 5.3m/s | 0°C | 0% | 0hPa | 0V | 00:00:00 | 00:00:00 | 00:00:00 | |
| EA3IBE | 2026-08-30 23:03:08 | 41.38753 | 2.12862 | 69° | 15km/h | 1097m | 4.3m/s | 0°C | 0% | 0hPa | 0V | 00:00:00 | 00:00:00 | 00:00:00 | |
| EA3GEO | 2026-08-30 23:03:06 | 41.38748 | 2.12850 | 70° | 27km/h | 1086m | 6.4m/s | 0°C | 0% | 0hPa | 0V | 00:00:00 | 00:00:00 | 00:00:00 | |
| EA3IBE | 2026-08-30 23:03:02 | 41.38741 | 2.12819 | 62° | 20km/h | 1059m | 5.7m/s | 0°C | 0% | 0hPa | 0V | 00:00:00 | 00:00:00 | 00:00:00 | |
| EA3GEO | 2026-08-30 23:03:01 | 41.38738 | 2.12813 | 46° | 24km/h | 1053m | 7.3m/s | 0°C | 0% | 0hPa | 0V | 00:00:00 | 00:00:00 | 00:00:00 | |
| EA3IBE | 2026-08-30 23:02:56 | 41.38722 | 2.12771 | 58° | 20km/h | 1023m | 5.5m/s | 0°C | 0% | 0hPa | 0V | 00:00:00 | 00:00:00 | 00:00:00 | |
| EA3GEO | 2026-08-30 23:02:55 | 41.38719 | 2.12766 | 55° | 16km/h | 1017m | 6.2m/s | 0°C | 0% | 0hPa | 0V | 00:00:00 | 00:00:00 | 00:00:00 | |
| EA3IBE | 2026-08-30 23:02:51 | 41.38707 | 2.12734 | 63° | 35km/h | 996m | 5.1m/s | 0°C | 0% | 0hPa | 0V | 00:00:00 | 00:00:00 | 00:00:00 | |
| EA3GEO | 2026-08-30 23:02:49 | 41.38700 | 2.12719 | 74° | 20km/h | 985m | 5.9m/s | 0°C | 0% | 0hPa | 0V | 00:00:00 | 00:00:00 | 00:00:00 | |
| EA3IBE | 2026-08-30 23:02:46 | 41.38690 | 2.12693 | 46° | 40km/h | 964m | 2.8m/s | 0°C | 0% | 0hPa | 0V | 00:00:00 | 00:00:00 | 00:00:00 | |
| EA3GEO | 2026-08-30 23:02:44 | 41.38677 | 2.12672 | 52° | 40km/h | 953m | 5.7m/s | 0°C | 0% | 0hPa | 0V | 00:00:00 | 00:00:00 | 00:00:00 | |
| EA3IBE | 2026-08-30 23:02:40 | 41.38660 | 2.12634 | 57° | 22km/h | 935m | 4.8m/s | 0°C | 0% | 0hPa | 0V | 00:00:00 | 00:00:00 | 00:00:00 | |
| EA3GEO | 2026-08-30 23:02:38 | 41.38655 | 2.12619 | 81° | 20km/h | 922m | 7.2m/s | 0°C | 0% | 0hPa | 0V | 00:00:00 | 00:00:00 | 00:00:00 | |
| EA3IBE | 2026-08-30 23:02:34 | 41.38644 | 2.12591 | 61° | 35km/h | 897m | 4.6m/s | 0°C | 0% | 0hPa | 0V | 00:00:00 | 00:00:00 | 00:00:00 | |
| EA3GEO | 2026-08-30 23:02:32 | 41.38637 | 2.12572 | 63° | 26km/h | 884m | 9.2m/s | 0°C | 0% | 0hPa | 0V | 00:00:00 | 00:00:00 | 00:00:00 | |
| EA3GEO | 2026-08-30 23:02:27 | 41.38608 | 2.12527 | 58° | 46km/h | 856m | 3.4m/s | 0°C | 0% | 0hPa | 0V | 00:00:00 | 00:00:00 | 00:00:00 | |
| EA3IBE | 2026-08-30 23:02:23 | 41.38591 | 2.12476 | 72° | 35km/h | 834m | 6.2m/s | 0°C | 0% | 0hPa | 0V | 00:00:00 | 00:00:00 | 00:00:00 | |
| EA3GEO | 2026-08-30 23:02:21 | 41.38586 | 2.12460 | 67° | 24km/h | 821m | 5.4m/s | 0°C | 0% | 0hPa | 0V | 00:00:00 | 00:00:00 | 00:00:00 | |
| EA3IBE | 2026-08-30 23:02:18 | 41.38572 | 2.12432 | 64° | 37km/h | 804m | 6.7m/s | 0°C | 0% | 0hPa | 0V | 00:00:00 | 00:00:00 | 00:00:00 | |
| EA3GEO | 2026-08-30 23:02:15 | 41.38557 | 2.12401 | 56° | 40km/h | 785m | 6.4m/s | 0°C | 0% | 0hPa | 0V | 00:00:00 | 00:00:00 | 00:00:00 | |
| EA3GEO | 2026-08-30 23:02:10 | 41.38530 | 2.12353 | 51° | 40km/h | 757m | 2.9m/s | 0°C | 0% | 0hPa | 0V | 00:00:00 | 00:00:00 | 00:00:00 | |
| EA3IBE | 2026-08-30 23:02:05 | 41.38511 | 2.12302 | 82° | 20km/h | 729m | 5.2m/s | 0°C | 0% | 0hPa | 0V | 00:00:00 | 00:00:00 | 00:00:00 | |
| EA3GEO | 2026-08-30 23:02:04 | 41.38510 | 2.12285 | 72° | 27km/h | 716m | 5.7m/s | 0°C | 0% | 0hPa | 0V | 00:00:00 | 00:00:00 | 00:00:00 | |
| EA3IBE | 2026-08-30 23:02:00 | 41.38505 | 2.12260 | 78° | 24km/h | 699m | 4.8m/s | 0°C | 0% | 0hPa | 0V | 00:00:00 | 00:00:00 | 00:00:00 | |
| EA3GEO | 2026-08-30 23:01:58 | 41.38502 | 2.12243 | 66° | 29km/h | 689m | 2.9m/s | 0°C | 0% | 0hPa | 0V | 00:00:00 | 00:00:00 | 00:00:00 | |
| EA3IBE | 2026-08-30 23:01:54 | 41.38494 | 2.12216 | 66° | 22km/h | 670m | 7.0m/s | 0°C | 0% | 0hPa | 0V | 00:00:00 | 00:00:00 | 00:00:00 | |
| EA3GEO | 2026-08-30 23:01:52 | 41.38490 | 2.12204 | 63° | 16km/h | 657m | 7.6m/s | 0°C | 0% | 0hPa | 0V | 00:00:00 | 00:00:00 | 00:00:00 | |
| EA3IBE | 2026-08-30 23:01:49 | 41.38490 | 2.12190 | 81° | 26km/h | 636m | 5.0m/s | 0°C | 0% | 0hPa | 0V | 00:00:00 | 00:00:00 | 00:00:00 | |
| EA3GEO | 2026-08-30 23:01:46 | 41.38484 | 2.12171 | 78° | 16km/h | 621m | 6.3m/s | 0°C | 0% | 0hPa | 0V | 00:00:00 | 00:00:00 | 00:00:00 | |
| EA3IBE | 2026-08-30 23:01:44 | 41.38482 | 2.12160 | 86° | 22km/h | 607m | 6.2m/s | 0°C | 0% | 0hPa | 0V | 00:00:00 | 00:00:00 | 00:00:00 | |
| EA3GEO | 2026-08-30 23:01:40 | 41.38478 | 2.12140 | 92° | 15km/h | 583m | 6.1m/s | 0°C | 0% | 0hPa | 0V | 00:00:00 | 00:00:00 | 00:00:00 | |
| EA3IBE | 2026-08-30 23:01:38 | 41.38477 | 2.12131 | 89° | 11km/h | 568m | 4.7m/s | 0°C | 0% | 0hPa | 0V | 00:00:00 | 00:00:00 | 00:00:00 | |
| EA3GEO | 2026-08-30 23:01:35 | 41.38478 | 2.12124 | 115° | 11km/h | 551m | 6.8m/s | 0°C | 0% | 0hPa | 0V | 00:00:00 | 00:00:00 | 00:00:00 | |
| EA3IBE | 2026-08-30 23:01:32 | 41.38476 | 2.12110 | 84° | 7km/h | 534m | 6.8m/s | 0°C | 0% | 0hPa | 0V | 00:00:00 | 00:00:00 | 00:00:00 | |
| EA3GEO | 2026-08-30 23:01:29 | 41.38480 | 2.12103 | 129° | 15km/h | 517m | 4.4m/s | 0°C | 0% | 0hPa | 0V | 00:00:00 | 00:00:00 | 00:00:00 | |
| EA3GEO | 2026-08-30 23:01:24 | 41.38482 | 2.12087 | 99° | 13km/h | 487m | 6.0m/s | 0°C | 0% | 0hPa | 0V | 00:00:00 | 00:00:00 | 00:00:00 | |
| EA3GEO | 2026-08-30 23:01:18 | 41.38478 | 2.12064 | 94° | 29km/h | 455m | 6.3m/s | 0°C | 0% | 0hPa | 0V | 00:00:00 | 00:00:00 | 00:00:00 | |
| EA3GEO | 2026-08-30 23:01:12 | 41.38470 | 2.12029 | 133° | 16km/h | 425m | 3.5m/s | 0°C | 0% | 0hPa | 0V | 00:00:00 | 00:00:00 | 00:00:00 | |
| EA3GEO | 2026-08-30 23:01:06 | 41.38476 | 2.11986 | 110° | 13km/h | 393m | 7.1m/s | 0°C | 0% | 0hPa | 0V | 00:00:00 | 00:00:00 | 00:00:00 | |
| EA3GEO | 2026-08-30 23:01:00 | 41.38477 | 2.11938 | 101° | 26km/h | 361m | 2.5m/s | 0°C | 0% | 0hPa | 0V | 00:00:00 | 00:00:00 | 00:00:00 | |
| EA3GEO | 2026-08-30 23:00:55 | 41.38478 | 2.11905 | 91° | 26km/h | 336m | 4.7m/s | 0°C | 0% | 0hPa | 0V | 00:00:00 | 00:00:00 | 00:00:00 | |
| EA3GEO | 2026-08-30 23:00:50 | 41.38479 | 2.11875 | 89° | 24km/h | 309m | 5.9m/s | 0°C | 0% | 0hPa | 0V | 00:00:00 | 00:00:00 | 00:00:00 | |
| EA3GEO | 2026-08-30 23:00:44 | 41.38473 | 2.11842 | 86° | 15km/h | 280m | 2.1m/s | 0°C | 0% | 0hPa | 0V | 00:00:00 | 00:00:00 | 00:00:00 | |
| EA3GEO | 2026-08-30 23:00:39 | 41.38466 | 2.11814 | 110° | 5km/h | 254m | 6.1m/s | 0°C | 0% | 0hPa | 0V | 00:00:00 | 00:00:00 | 00:00:00 |